Darstellungsparameter: Aktuell verwendete Einstellungen:
Skalierung der Graphiken ... ?
xyx+y,   Skalierungsfaktor:      Skalierung: Modus: x, Faktor: 1
Darstellungszeitraum ... ?
Vom - - bis: - -   Zeitraum: 15.12.2019 - 12.01.2020
Min/Max/Avg-Anzeige ... ?
Zeige MMA aktuell
Zeige MMA Monat
Zeige MMA alles
Zeige --A aktuell
Zeige --A Monat
Zeige --A alles
Keine MMA-Anzeige
MMA:
Average (ber die Originaldaten)
MMA-Basis: 15.12.2019 - 12.01.2020
Quicknavigation für Darstellung... ?
Tage:      1T, 2T, 3T, 5T -1T -2T -3T -5T +1T +2T +3T +5T
Wochen: 1W, 2W, 3W -1W -2W -3W +1W +2W +3W
Monate: 1M, 3M, 6M -1M -3M -6M +1M +3M +6M
Jahre:    1J, 3J, 5J, 10J -1J -3J -5J -10J +1J +3J +5J +10J
Nutze für die Darstellung ... ?
Originaldaten oder Mittelwerte auf ...
Stundenbasis Tagesbasis Wochenbasis
Monatsbasis Jahresbasis      Datenbasis: Original-Daten
Darstellen als:
Statistik (Auto) Statistik J:M      Darstellung:
Zur Graphik,    zurück zur Übersicht aller Sensoren.
 
Tabellarische Datenbersicht: ?
 
Sensor: Nr:Datum:Temp:Feuchte:
Aussen-T/F 1 15-12-2019 00:02:17 6.4 C 27 %
2 15-12-2019 00:11:17 6 C 28 %
3 15-12-2019 00:22:17 5.6 C 30 %
4 15-12-2019 00:31:18 5.3 C 31 %
5 15-12-2019 00:41:18 5.1 C 32 %
6 15-12-2019 00:52:17 5.2 C 32 %
7 15-12-2019 01:02:17 5.2 C 32 %
8 15-12-2019 01:12:17 5.3 C 33 %
9 15-12-2019 01:22:17 5.5 C 33 %
10 15-12-2019 01:31:18 5.7 C 31 %
11 15-12-2019 01:41:18 5.6 C 31 %
12 15-12-2019 01:52:17 5.6 C 31 %
13 15-12-2019 02:02:17 5.9 C 31 %
14 15-12-2019 02:12:17 5.8 C 32 %
15 15-12-2019 02:22:17 5.9 C 32 %
16 15-12-2019 02:32:18 5.7 C 35 %
17 15-12-2019 02:42:18 5.8 C 37 %
18 15-12-2019 02:52:17 5.9 C 39 %
19 15-12-2019 03:02:18 5.9 C 40 %
20 15-12-2019 03:12:18 5.9 C 41 %
21 15-12-2019 03:22:17 6 C 41 %
22 15-12-2019 03:32:17 6 C 42 %
23 15-12-2019 03:42:17 6.3 C 42 %
24 15-12-2019 03:52:17 6.4 C 42 %
25 15-12-2019 04:02:17 6.8 C 42 %
Sensor: Nr:Datum:Temp:Feuchte:
Aussen-T/F 26 15-12-2019 04:12:17 7.3 C 41 %
27 15-12-2019 04:22:17 7.3 C 41 %
28 15-12-2019 04:32:17 7.5 C 41 %
29 15-12-2019 04:42:17 7.9 C 40 %
30 15-12-2019 04:52:17 8 C 39 %
31 15-12-2019 05:02:17 8.2 C 38 %
32 15-12-2019 05:12:17 8.2 C 37 %
33 15-12-2019 05:22:17 8.4 C 37 %
34 15-12-2019 05:32:18 9 C 34 %
35 15-12-2019 05:42:18 10 C 30 %
36 15-12-2019 05:52:17 10.2 C 30 %
37 15-12-2019 06:02:17 10.3 C 29 %
38 15-12-2019 06:12:17 10.3 C 29 %
39 15-12-2019 06:22:17 10.1 C 29 %
40 15-12-2019 06:32:17 10.5 C 28 %
41 15-12-2019 06:42:17 10.8 C 27 %
42 15-12-2019 06:52:17 10.7 C 27 %
43 15-12-2019 07:02:17 10.5 C 27 %
44 15-12-2019 07:12:17 10.9 C 27 %
45 15-12-2019 07:22:17 10.3 C 27 %
46 15-12-2019 07:32:17 10.6 C 27 %
47 15-12-2019 07:42:17 10.5 C 27 %
48 15-12-2019 07:52:17 10.7 C 27 %
49 15-12-2019 08:02:17 10.7 C 27 %
50 15-12-2019 08:12:17 11 C 26 %
Sensor: Nr:Datum:Temp:Feuchte:
Aussen-T/F 51 15-12-2019 08:22:17 10.9 C 27 %
52 15-12-2019 08:32:18 10.6 C 27 %
53 15-12-2019 08:42:18 10.2 C 28 %
54 15-12-2019 08:52:17 9.5 C 34 %
55 15-12-2019 09:02:17 9.2 C 34 %
56 15-12-2019 09:12:17 8.9 C 35 %
57 15-12-2019 09:22:17 8.7 C 33 %
58 15-12-2019 09:32:17 8.5 C 34 %
59 15-12-2019 09:42:17 8.2 C 35 %
60 15-12-2019 09:52:18 8 C 36 %
61 15-12-2019 10:02:18 8.1 C 34 %
62 15-12-2019 10:12:18 8.2 C 32 %
63 15-12-2019 10:22:18 8.2 C 34 %
64 15-12-2019 10:32:17 8.1 C 33 %
65 15-12-2019 10:42:17 8.5 C 31 %
66 15-12-2019 10:52:17 8.7 C 30 %
67 15-12-2019 11:02:17 8.4 C 30 %
68 15-12-2019 11:12:17 8.5 C 30 %
69 15-12-2019 11:22:17 8.5 C 28 %
70 15-12-2019 11:32:17 8.6 C 28 %
71 15-12-2019 11:42:17 8.6 C 28 %
72 15-12-2019 11:52:17 8.3 C 27 %
73 15-12-2019 12:02:17 8.3 C 27 %
74 15-12-2019 12:12:17 8.1 C 27 %
75 15-12-2019 12:22:17 8.1 C 28 %
Sensor: Nr:Datum:Temp:Feuchte:
Aussen-T/F 76 15-12-2019 12:32:17 7.9 C 29 %
77 15-12-2019 12:42:17 8.2 C 28 %
78 15-12-2019 12:52:18 8.4 C 28 %
79 15-12-2019 13:02:18 8.7 C 27 %
80 15-12-2019 13:12:18 9.1 C 25 %
81 15-12-2019 13:22:17 9.3 C 23 %
82 15-12-2019 13:32:17 9.2 C 21 %
83 15-12-2019 13:42:17 9.2 C 20 %
84 15-12-2019 13:52:18 9.2 C 20 %
85 15-12-2019 14:02:17 9.2 C 20 %
86 15-12-2019 14:12:17 9.3 C 20 %
87 15-12-2019 14:22:17 9.3 C 20 %
88 15-12-2019 14:32:17 9.1 C 20 %
89 15-12-2019 14:42:17 9.1 C 20 %
90 15-12-2019 14:52:17 9 C 20 %
91 15-12-2019 15:02:17 9 C 20 %
92 15-12-2019 15:12:17 8.9 C 20 %
93 15-12-2019 15:22:17 8.9 C 20 %
94 15-12-2019 15:32:17 8.8 C 20 %
95 15-12-2019 15:42:17 8.7 C 20 %
96 15-12-2019 15:52:17 8.7 C 20 %
97 15-12-2019 16:02:17 8.4 C 20 %
98 15-12-2019 16:12:17 8.2 C 20 %
99 15-12-2019 16:22:18 8.4 C 20 %
100 15-12-2019 16:32:17 7.9 C 20 %
Sensor: Nr:Datum:Temp:Feuchte:
Aussen-T/F 101 15-12-2019 16:42:17 7.6 C 20 %
102 15-12-2019 16:52:17 8 C 20 %
103 15-12-2019 17:02:17 7.4 C 20 %
104 15-12-2019 17:12:17 7.4 C 20 %
105 15-12-2019 17:22:17 7.8 C 20 %
106 15-12-2019 17:32:17 7.2 C 21 %
107 15-12-2019 17:42:17 7.6 C 20 %
108 15-12-2019 17:52:17 7.7 C 20 %
109 15-12-2019 18:02:17 7.5 C 20 %
110 15-12-2019 18:12:17 8.2 C 20 %
111 15-12-2019 18:22:17 7.5 C 20 %
112 15-12-2019 18:32:17 6.9 C 25 %
113 15-12-2019 18:42:17 6.2 C 27 %
114 15-12-2019 18:52:18 5.9 C 29 %
115 15-12-2019 19:02:17 5.4 C 30 %
116 15-12-2019 19:12:17 5.3 C 31 %
117 15-12-2019 19:22:17 4.9 C 32 %
118 15-12-2019 19:32:18 5.3 C 32 %
119 15-12-2019 19:42:18 5 C 33 %
120 15-12-2019 19:52:17 5.4 C 33 %
121 15-12-2019 20:02:17 5.2 C 33 %
122 15-12-2019 20:12:17 4.7 C 35 %
123 15-12-2019 20:22:17 4.4 C 36 %
124 15-12-2019 20:32:17 4.3 C 37 %
125 15-12-2019 20:42:17 3.9 C 39 %
Sensor: Nr:Datum:Temp:Feuchte:
Aussen-T/F 126 15-12-2019 20:52:17 3.7 C 40 %
127 15-12-2019 21:02:17 3.5 C 41 %
128 15-12-2019 21:12:17 3.3 C 41 %
129 15-12-2019 21:22:17 3.1 C 41 %
130 15-12-2019 21:32:18 2.8 C 42 %
131 15-12-2019 21:42:18 2.9 C 43 %
132 15-12-2019 21:52:17 3.3 C 43 %
133 15-12-2019 22:02:17 3.3 C 44 %
134 15-12-2019 22:12:17 3.3 C 43 %
135 15-12-2019 22:22:17 3.5 C 43 %
136 15-12-2019 22:32:17 3.5 C 43 %
137 15-12-2019 22:42:17 3.4 C 43 %
138 15-12-2019 22:52:18 3.3 C 43 %
139 15-12-2019 23:02:17 3.5 C 43 %
140 15-12-2019 23:12:18 3.6 C 43 %
141 15-12-2019 23:22:17 3.7 C 43 %
142 15-12-2019 23:32:18 3.5 C 42 %
143 15-12-2019 23:42:18 3.3 C 42 %
144 15-12-2019 23:52:17 3.8 C 43 %
145 16-12-2019 00:02:17 4 C 42 %
146 16-12-2019 00:12:17 4.4 C 42 %
147 16-12-2019 00:22:17 4.4 C 42 %
148 16-12-2019 00:32:17 4.5 C 42 %
149 16-12-2019 00:42:17 4.5 C 42 %
150 16-12-2019 00:52:18 4.7 C 42 %
Sensor: Nr:Datum:Temp:Feuchte:
Aussen-T/F 151 16-12-2019 01:02:17 5.1 C 41 %
152 16-12-2019 01:12:17 5 C 41 %
153 16-12-2019 01:22:17 5.2 C 42 %
154 16-12-2019 01:32:17 5.2 C 41 %
155 16-12-2019 01:42:18 5.3 C 42 %
156 16-12-2019 01:52:17 5.5 C 42 %
157 16-12-2019 02:02:18 5.4 C 42 %
158 16-12-2019 02:12:18 5.5 C 42 %
159 16-12-2019 02:22:17 5.7 C 42 %
160 16-12-2019 02:32:17 5.7 C 42 %
161 16-12-2019 02:42:17 5.9 C 42 %
162 16-12-2019 02:52:18 5.8 C 41 %
163 16-12-2019 03:02:17 5.8 C 41 %
164 16-12-2019 03:12:17 5.9 C 41 %
165 16-12-2019 03:22:17 5.9 C 41 %
166 16-12-2019 03:32:18 5.9 C 41 %
167 16-12-2019 03:42:18 5.8 C 41 %
168 16-12-2019 03:52:17 6 C 41 %
169 16-12-2019 04:02:17 6 C 41 %
170 16-12-2019 04:12:17 6 C 41 %
171 16-12-2019 04:22:17 5.9 C 41 %
172 16-12-2019 04:32:17 6.1 C 41 %
173 16-12-2019 04:42:17 6.2 C 41 %
174 16-12-2019 04:52:17 6.3 C 41 %
175 16-12-2019 05:02:17 6.4 C 41 %
Sensor: Nr:Datum:Temp:Feuchte:
Aussen-T/F 176 16-12-2019 05:12:17 6.4 C 41 %
177 16-12-2019 05:22:17 6.5 C 41 %
178 16-12-2019 05:32:17 6.6 C 41 %
179 16-12-2019 05:42:17 6.6 C 41 %
180 16-12-2019 05:52:17 6.8 C 41 %
181 16-12-2019 06:02:17 6.9 C 41 %
182 16-12-2019 06:12:17 6.9 C 41 %
183 16-12-2019 06:22:17 6.8 C 40 %
184 16-12-2019 06:32:17 6.7 C 40 %
185 16-12-2019 06:42:17 6.8 C 40 %
186 16-12-2019 06:52:17 6.8 C 40 %
187 16-12-2019 07:02:17 6.8 C 40 %
188 16-12-2019 07:12:17 6.7 C 40 %
189 16-12-2019 07:22:17 6.8 C 40 %
190 16-12-2019 07:32:18 6.9 C 41 %
191 16-12-2019 07:42:18 6.9 C 41 %
192 16-12-2019 07:52:17 7 C 40 %
193 16-12-2019 08:02:17 7.1 C 40 %
194 16-12-2019 08:12:17 7 C 40 %
195 16-12-2019 08:22:17 7.1 C 40 %
196 16-12-2019 08:32:17 7.1 C 40 %
197 16-12-2019 08:42:17 7.1 C 40 %
198 16-12-2019 08:52:17 7.2 C 40 %
199 16-12-2019 09:02:17 7.3 C 40 %
200 16-12-2019 09:12:17 7.5 C 40 %
Sensor: Nr:Datum:Temp:Feuchte:
Aussen-T/F 201 16-12-2019 09:22:18 7.4 C 40 %
202 16-12-2019 09:32:17 7.5 C 40 %
203 16-12-2019 09:42:17 7.5 C 40 %
204 16-12-2019 09:52:17 7.6 C 40 %
205 16-12-2019 10:02:18 7.6 C 40 %
206 16-12-2019 10:12:18 7.7 C 40 %
207 16-12-2019 10:22:17 7.8 C 40 %
208 16-12-2019 10:32:17 7.9 C 40 %
209 16-12-2019 10:42:17 8.1 C 40 %
210 16-12-2019 10:52:17 8.2 C 40 %
211 16-12-2019 11:02:17 8.3 C 40 %
212 16-12-2019 11:12:17 8.5 C 40 %
213 16-12-2019 11:22:17 8.9 C 40 %
214 16-12-2019 11:32:18 8.8 C 39 %
215 16-12-2019 11:42:18 9.1 C 39 %
216 16-12-2019 11:52:17 9.4 C 39 %
217 16-12-2019 12:02:17 9.3 C 38 %
218 16-12-2019 12:12:17 9.3 C 37 %
219 16-12-2019 12:22:17 9.3 C 37 %
220 16-12-2019 12:32:17 9.4 C 37 %
221 16-12-2019 12:42:17 9.4 C 38 %
222 16-12-2019 12:52:17 9.8 C 38 %
223 16-12-2019 13:02:17 9.9 C 36 %
224 16-12-2019 13:12:17 9.9 C 36 %
225 16-12-2019 13:22:17 10 C 35 %
Sensor: Nr:Datum:Temp:Feuchte:
Aussen-T/F 226 16-12-2019 13:32:17 10.2 C 34 %
227 16-12-2019 13:42:17 10.2 C 35 %
228 16-12-2019 13:52:18 10.3 C 34 %
229 16-12-2019 14:02:17 10.1 C 34 %
230 16-12-2019 14:12:17 10.2 C 34 %
231 16-12-2019 14:22:17 10.3 C 34 %
232 16-12-2019 14:32:17 10.2 C 33 %
233 16-12-2019 14:42:17 10.1 C 34 %
234 16-12-2019 14:52:18 10.1 C 34 %
235 16-12-2019 15:02:17 9.9 C 35 %
236 16-12-2019 15:12:17 9.8 C 35 %
237 16-12-2019 15:22:17 9.6 C 36 %
238 16-12-2019 15:32:18 9.3 C 37 %
239 16-12-2019 15:42:18 9.1 C 39 %
240 16-12-2019 15:52:17 9 C 40 %
241 16-12-2019 16:02:17 8.7 C 40 %
242 16-12-2019 16:12:17 8.5 C 40 %
243 16-12-2019 16:22:17 8.4 C 40 %
244 16-12-2019 16:32:18 8.2 C 41 %
245 16-12-2019 16:42:18 8 C 40 %
246 16-12-2019 16:52:17 7.7 C 41 %
247 16-12-2019 17:02:17 7.4 C 41 %
248 16-12-2019 17:12:17 7.3 C 41 %
249 16-12-2019 17:22:17 7.5 C 41 %
250 16-12-2019 17:32:17 7.3 C 41 %
Sensor: Nr:Datum:Temp:Feuchte:
Aussen-T/F 251 16-12-2019 17:42:17 7.2 C 41 %
252 16-12-2019 17:52:17 7 C 41 %
253 16-12-2019 18:02:17 7.1 C 41 %
254 16-12-2019 18:12:17 7.4 C 41 %
255 16-12-2019 18:22:17 7.5 C 41 %
256 16-12-2019 18:32:17 8.2 C 40 %
257 16-12-2019 18:42:17 8.1 C 38 %
258 16-12-2019 18:52:17 8.7 C 37 %
259 16-12-2019 19:02:18 8.5 C 35 %
260 16-12-2019 19:12:18 7.9 C 36 %
261 16-12-2019 19:22:17 7.7 C 37 %
262 16-12-2019 19:32:17 8.5 C 40 %
263 16-12-2019 19:42:17 7.9 C 37 %
264 16-12-2019 19:52:18 8 C 37 %
265 16-12-2019 20:02:17 7.9 C 37 %
266 16-12-2019 20:12:17 8.1 C 36 %
267 16-12-2019 20:22:17 7.7 C 37 %
268 16-12-2019 20:32:17 8 C 39 %
269 16-12-2019 20:42:17 7.9 C 36 %
270 16-12-2019 20:52:17 7.8 C 36 %
271 16-12-2019 21:02:17 7.3 C 37 %
272 16-12-2019 21:12:17 7.2 C 40 %
273 16-12-2019 21:22:17 7.5 C 39 %
274 16-12-2019 21:32:17 7.2 C 38 %
275 16-12-2019 21:42:17 7 C 40 %
Sensor: Nr:Datum:Temp:Feuchte:
Aussen-T/F 276 16-12-2019 21:52:17 6.7 C 41 %
277 16-12-2019 22:02:17 6.9 C 41 %
278 16-12-2019 22:12:17 7.5 C 40 %
279 16-12-2019 22:22:17 7.4 C 38 %
280 16-12-2019 22:32:17 7.9 C 37 %
281 16-12-2019 22:42:17 7.8 C 36 %
282 16-12-2019 22:52:18 7.3 C 37 %
283 16-12-2019 23:02:17 7.3 C 39 %
284 16-12-2019 23:12:17 7.3 C 39 %
285 16-12-2019 23:22:17 7.5 C 40 %
286 16-12-2019 23:32:17 7.6 C 39 %
287 16-12-2019 23:42:17 7.6 C 39 %
288 16-12-2019 23:52:18 7.8 C 39 %
289 17-12-2019 00:02:17 7.6 C 37 %
290 17-12-2019 00:12:17 7.5 C 38 %
291 17-12-2019 00:22:17 7.6 C 38 %
292 17-12-2019 00:32:18 7.3 C 39 %
293 17-12-2019 00:42:18 7.2 C 40 %
294 17-12-2019 00:52:17 7.4 C 39 %
295 17-12-2019 01:02:17 7.2 C 39 %
296 17-12-2019 01:12:17 7.4 C 40 %
297 17-12-2019 01:22:17 7.8 C 39 %
298 17-12-2019 01:32:17 7.3 C 37 %
299 17-12-2019 01:42:17 7.4 C 38 %
300 17-12-2019 01:52:17 7.4 C 37 %
Sensor: Nr:Datum:Temp:Feuchte:
Aussen-T/F 301 17-12-2019 02:02:18 7.4 C 37 %
302 17-12-2019 02:12:18 7.6 C 37 %
303 17-12-2019 02:22:17 7.3 C 37 %
304 17-12-2019 02:32:17 7.1 C 37 %
305 17-12-2019 02:42:17 7.5 C 36 %
306 17-12-2019 02:52:18 7.6 C 36 %
307 17-12-2019 03:02:17 8 C 35 %
308 17-12-2019 03:12:17 8.1 C 35 %
309 17-12-2019 03:22:17 8.4 C 35 %
310 17-12-2019 03:32:17 8.8 C 32 %
311 17-12-2019 03:42:17 8.9 C 32 %
312 17-12-2019 03:52:18 8.8 C 32 %
313 17-12-2019 04:02:17 8.5 C 32 %
314 17-12-2019 04:12:17 8.5 C 32 %
315 17-12-2019 04:22:17 8.4 C 32 %
316 17-12-2019 04:32:17 8.4 C 32 %
317 17-12-2019 04:42:17 8 C 32 %
318 17-12-2019 04:52:18 8.3 C 33 %
319 17-12-2019 05:02:17 8.5 C 33 %
320 17-12-2019 05:12:17 8.5 C 33 %
321 17-12-2019 05:22:17 8.2 C 33 %
322 17-12-2019 05:32:17 8.1 C 34 %
323 17-12-2019 05:42:17 7.9 C 35 %
324 17-12-2019 05:52:17 7.9 C 36 %
325 17-12-2019 06:02:17 7.8 C 36 %
Sensor: Nr:Datum:Temp:Feuchte:
Aussen-T/F 326 17-12-2019 06:12:17 7.3 C 36 %
327 17-12-2019 06:22:18 7.3 C 38 %
328 17-12-2019 06:32:17 7.5 C 38 %
329 17-12-2019 06:42:17 7.6 C 36 %
330 17-12-2019 06:52:17 7.6 C 38 %
331 17-12-2019 07:02:17 7.7 C 36 %
332 17-12-2019 07:12:17 7.6 C 37 %
333 17-12-2019 07:22:17 7.5 C 36 %
334 17-12-2019 07:32:18 7 C 37 %
335 17-12-2019 07:42:18 7.4 C 38 %
336 17-12-2019 07:52:17 7.2 C 36 %
337 17-12-2019 08:02:17 7.2 C 36 %
338 17-12-2019 08:12:17 6.9 C 37 %
339 17-12-2019 08:22:17 6.9 C 38 %
340 17-12-2019 08:32:17 7 C 38 %
341 17-12-2019 08:42:18 6.9 C 37 %
342 17-12-2019 08:52:17 6.9 C 37 %
343 17-12-2019 09:02:17 6.5 C 38 %
344 17-12-2019 09:12:17 6.4 C 39 %
345 17-12-2019 09:22:18 6.5 C 40 %
346 17-12-2019 09:32:17 6.4 C 40 %
347 17-12-2019 09:42:17 6.6 C 40 %
348 17-12-2019 09:52:17 6.3 C 39 %
349 17-12-2019 10:02:18 6.4 C 40 %
350 17-12-2019 10:12:18 6.4 C 40 %
Sensor: Nr:Datum:Temp:Feuchte:
Aussen-T/F 351 17-12-2019 10:22:17 6.4 C 39 %
352 17-12-2019 10:32:17 6.8 C 40 %
353 17-12-2019 10:42:17 7.2 C 37 %
354 17-12-2019 10:52:17 8 C 36 %
355 17-12-2019 11:02:17 8.6 C 34 %
356 17-12-2019 11:12:17 8.5 C 32 %
357 17-12-2019 11:22:17 8.7 C 32 %
358 17-12-2019 11:32:17 9 C 32 %
359 17-12-2019 11:42:17 9.1 C 32 %
360 17-12-2019 11:52:17 9 C 32 %
361 17-12-2019 12:02:17 9 C 34 %
362 17-12-2019 12:12:17 9.2 C 34 %
363 17-12-2019 12:22:17 9.5 C 33 %
364 17-12-2019 12:32:17 9.7 C 32 %
365 17-12-2019 12:42:17 9.8 C 32 %
366 17-12-2019 12:52:17 9.6 C 32 %
367 17-12-2019 13:02:17 10.1 C 31 %
368 17-12-2019 13:12:17 10.4 C 30 %
369 17-12-2019 13:22:17 10.6 C 30 %
370 17-12-2019 13:32:17 11 C 29 %
371 17-12-2019 13:42:17 11.6 C 28 %
372 17-12-2019 13:52:18 12.3 C 26 %
373 17-12-2019 14:02:17 12.5 C 26 %
374 17-12-2019 14:12:17 12.4 C 26 %
375 17-12-2019 14:22:17 11.6 C 27 %
Sensor: Nr:Datum:Temp:Feuchte:
Aussen-T/F 376 17-12-2019 14:32:17 11.4 C 27 %
377 17-12-2019 14:42:17 11.5 C 27 %
378 17-12-2019 14:52:17 11.8 C 27 %
379 17-12-2019 15:02:17 12 C 26 %
380 17-12-2019 15:12:17 12 C 26 %
381 17-12-2019 15:22:17 11.8 C 27 %
382 17-12-2019 15:32:17 11.8 C 27 %
383 17-12-2019 15:42:17 12.3 C 25 %
384 17-12-2019 15:52:18 12.2 C 25 %
385 17-12-2019 16:02:17 12.4 C 25 %
386 17-12-2019 16:12:17 12.4 C 25 %
387 17-12-2019 16:22:17 12.5 C 25 %
388 17-12-2019 16:32:18 12.6 C 25 %
389 17-12-2019 16:42:18 12.2 C 25 %
390 17-12-2019 16:52:17 11.8 C 25 %
391 17-12-2019 17:02:17 11.2 C 26 %
392 17-12-2019 17:12:18 11.5 C 25 %
393 17-12-2019 17:22:17 12 C 24 %
394 17-12-2019 17:32:18 13.1 C 20 %
395 17-12-2019 17:42:18 13.4 C 20 %
396 17-12-2019 17:52:17 13.8 C 20 %
397 17-12-2019 18:02:17 13.4 C 20 %
398 17-12-2019 18:12:17 13.2 C 20 %
399 17-12-2019 18:22:17 13.6 C 20 %
400 17-12-2019 18:32:17 13.7 C 20 %
Sensor: Nr:Datum:Temp:Feuchte:
Aussen-T/F 401 17-12-2019 18:42:17 13.1 C 21 %
402 17-12-2019 18:52:17 12.7 C 25 %
403 17-12-2019 19:02:17 12.8 C 25 %
404 17-12-2019 19:12:17 13.1 C 22 %
405 17-12-2019 19:22:17 12.8 C 25 %
406 17-12-2019 19:32:18 11.7 C 29 %
407 17-12-2019 19:42:18 11.6 C 29 %
408 17-12-2019 19:52:17 11.6 C 30 %
409 17-12-2019 20:02:18 11.6 C 30 %
410 17-12-2019 20:12:18 11.5 C 31 %
411 17-12-2019 20:22:17 11.6 C 31 %
412 17-12-2019 20:32:17 11.3 C 33 %
413 17-12-2019 20:42:17 11.2 C 35 %
414 17-12-2019 20:52:17 11 C 36 %
415 17-12-2019 21:02:17 10.9 C 36 %
416 17-12-2019 21:12:17 10.5 C 38 %
417 17-12-2019 21:22:17 10.3 C 39 %
418 17-12-2019 21:32:17 10.4 C 38 %
419 17-12-2019 21:42:17 11.5 C 31 %
420 17-12-2019 21:52:17 11.3 C 31 %
421 17-12-2019 22:02:17 13 C 25 %
422 17-12-2019 22:12:17 12.5 C 26 %
423 17-12-2019 22:22:17 13.1 C 25 %
424 17-12-2019 22:32:17 13.4 C 25 %
425 17-12-2019 22:42:17 13.2 C 25 %
Sensor: Nr:Datum:Temp:Feuchte:
Aussen-T/F 426 17-12-2019 22:52:17 13.1 C 25 %
427 17-12-2019 23:02:17 12.4 C 26 %
428 17-12-2019 23:12:17 11.9 C 29 %
429 17-12-2019 23:22:17 11.3 C 30 %
430 17-12-2019 23:32:17 11.1 C 31 %
431 17-12-2019 23:42:17 11 C 30 %
432 17-12-2019 23:52:17 10.8 C 33 %
433 18-12-2019 00:02:17 10.4 C 35 %
434 18-12-2019 00:12:17 10.4 C 34 %
435 18-12-2019 00:22:17 10.5 C 34 %
436 18-12-2019 00:32:18 10.9 C 31 %
437 18-12-2019 00:42:18 11 C 30 %
438 18-12-2019 00:52:17 11 C 30 %
439 18-12-2019 01:02:17 10.8 C 30 %
440 18-12-2019 01:12:17 11 C 29 %
441 18-12-2019 01:22:17 11.1 C 29 %
442 18-12-2019 01:32:18 10.9 C 30 %
443 18-12-2019 01:42:18 10.4 C 30 %
444 18-12-2019 01:52:17 10.8 C 30 %
445 18-12-2019 02:02:17 11.1 C 30 %
446 18-12-2019 02:12:17 11.1 C 29 %
447 18-12-2019 02:22:17 11.2 C 30 %
448 18-12-2019 02:32:17 11.3 C 29 %
449 18-12-2019 02:42:18 10.9 C 30 %
450 18-12-2019 02:52:17 10.9 C 31 %
Sensor: Nr:Datum:Temp:Feuchte:
Aussen-T/F 451 18-12-2019 03:02:17 10.6 C 33 %
452 18-12-2019 03:12:17 10.3 C 35 %
453 18-12-2019 03:22:18 10.3 C 37 %
454 18-12-2019 03:32:17 10.1 C 37 %
455 18-12-2019 03:42:17 10 C 38 %
456 18-12-2019 03:52:18 10.1 C 38 %
457 18-12-2019 04:02:18 10 C 38 %
458 18-12-2019 04:12:18 9.9 C 38 %
459 18-12-2019 04:22:17 9.8 C 35 %
460 18-12-2019 04:32:18 9.6 C 34 %
461 18-12-2019 04:42:18 9.5 C 33 %
462 18-12-2019 04:52:17 9.3 C 33 %
463 18-12-2019 05:02:18 9.2 C 33 %
464 18-12-2019 05:12:18 9.1 C 33 %
465 18-12-2019 05:22:17 8.8 C 35 %
466 18-12-2019 05:32:17 8.7 C 36 %
467 18-12-2019 05:42:17 8.2 C 36 %
468 18-12-2019 05:52:17 8.2 C 39 %
469 18-12-2019 06:02:18 8.1 C 39 %
470 18-12-2019 06:12:18 8 C 37 %
471 18-12-2019 06:22:17 8 C 37 %
472 18-12-2019 06:32:18 7.9 C 37 %
473 18-12-2019 06:42:18 7.5 C 37 %
474 18-12-2019 06:52:17 7.4 C 39 %
475 18-12-2019 07:02:17 7.2 C 40 %
Sensor: Nr:Datum:Temp:Feuchte:
Aussen-T/F 476 18-12-2019 07:12:17 7.3 C 40 %
477 18-12-2019 07:22:17 7.3 C 40 %
478 18-12-2019 07:32:17 7.1 C 39 %
479 18-12-2019 07:42:17 6.8 C 40 %
480 18-12-2019 07:52:17 6.9 C 41 %
481 18-12-2019 08:02:17 6.7 C 41 %
482 18-12-2019 08:12:17 6.5 C 41 %
483 18-12-2019 08:22:17 6.5 C 41 %
484 18-12-2019 08:32:17 6.3 C 41 %
485 18-12-2019 08:42:17 6.4 C 42 %
486 18-12-2019 08:52:17 6.6 C 42 %
487 18-12-2019 09:02:17 6.5 C 41 %
488 18-12-2019 09:12:17 6.1 C 40 %
489 18-12-2019 09:22:17 6 C 41 %
490 18-12-2019 09:32:17 6.5 C 42 %
491 18-12-2019 09:42:17 6.7 C 42 %
492 18-12-2019 09:52:17 6.9 C 41 %
493 18-12-2019 10:02:17 7 C 40 %
494 18-12-2019 10:12:18 7.1 C 40 %
495 18-12-2019 10:22:17 7.5 C 38 %
496 18-12-2019 10:32:17 7.5 C 36 %
497 18-12-2019 10:42:17 7.4 C 36 %
498 18-12-2019 10:52:17 6.9 C 38 %
499 18-12-2019 11:02:17 6.8 C 38 %
500 18-12-2019 11:12:17 6.8 C 38 %
Sensor: Nr:Datum:Temp:Feuchte:
Aussen-T/F 501 18-12-2019 11:22:17 6.6 C 38 %
502 18-12-2019 11:32:18 6.7 C 39 %
503 18-12-2019 11:42:18 6.9 C 38 %
504 18-12-2019 11:52:17 7.6 C 35 %
505 18-12-2019 12:02:17 8.1 C 33 %
506 18-12-2019 12:12:17 8 C 32 %
507 18-12-2019 12:22:17 8.3 C 31 %
508 18-12-2019 12:32:17 8.6 C 30 %
509 18-12-2019 12:42:17 8.8 C 29 %
510 18-12-2019 12:52:17 8.7 C 29 %
511 18-12-2019 13:02:17 8.4 C 30 %
512 18-12-2019 13:12:17 8.2 C 30 %
513 18-12-2019 13:22:17 7.9 C 31 %
514 18-12-2019 13:32:18 7.8 C 32 %
515 18-12-2019 13:42:18 7.7 C 33 %
516 18-12-2019 13:52:17 7.8 C 32 %
517 18-12-2019 14:02:18 7.8 C 33 %
518 18-12-2019 14:12:18 7.7 C 33 %
519 18-12-2019 14:22:17 7.5 C 34 %
520 18-12-2019 14:32:17 7.3 C 35 %
521 18-12-2019 14:42:17 7.2 C 35 %
522 18-12-2019 14:52:17 7.2 C 35 %
523 18-12-2019 15:02:17 7.2 C 35 %
524 18-12-2019 15:12:17 7 C 36 %
525 18-12-2019 15:22:17 7 C 36 %
Sensor: Nr:Datum:Temp:Feuchte:
Aussen-T/F 526 18-12-2019 15:32:17 6.7 C 37 %
527 18-12-2019 15:42:17 6.8 C 37 %
528 18-12-2019 15:52:17 6.7 C 36 %
529 18-12-2019 16:02:17 6.6 C 36 %
530 18-12-2019 16:12:17 6.5 C 36 %
531 18-12-2019 16:22:17 6.4 C 36 %
532 18-12-2019 16:32:17 6 C 36 %
533 18-12-2019 16:42:17 5.8 C 37 %
534 18-12-2019 16:52:17 5.7 C 39 %
535 18-12-2019 17:02:17 5.3 C 38 %
536 18-12-2019 17:12:17 4.9 C 40 %
537 18-12-2019 17:22:17 5 C 42 %
538 18-12-2019 17:32:17 4.4 C 41 %
539 18-12-2019 17:42:17 4.2 C 42 %
540 18-12-2019 17:52:18 4.1 C 42 %
541 18-12-2019 18:02:17 4.1 C 43 %
542 18-12-2019 18:12:17 4.1 C 43 %
543 18-12-2019 18:22:17 4.4 C 43 %
544 18-12-2019 18:32:17 4.5 C 43 %
545 18-12-2019 18:42:17 4.3 C 42 %
546 18-12-2019 18:52:17 4.6 C 43 %
547 18-12-2019 19:02:17 5 C 42 %
548 18-12-2019 19:12:17 4.7 C 42 %
549 18-12-2019 19:22:17 4.3 C 42 %
550 18-12-2019 19:32:18 4.9 C 43 %
Sensor: Nr:Datum:Temp:Feuchte:
Aussen-T/F 551 18-12-2019 19:42:18 4.7 C 42 %
552 18-12-2019 19:52:17 4.6 C 42 %
553 18-12-2019 20:02:17 5 C 42 %
554 18-12-2019 20:12:17 5 C 41 %
555 18-12-2019 20:22:17 4.5 C 41 %
556 18-12-2019 20:32:17 4.5 C 41 %
557 18-12-2019 20:42:18 4.1 C 41 %
558 18-12-2019 20:52:17 3.9 C 42 %
559 18-12-2019 21:02:17 3.7 C 43 %
560 18-12-2019 21:12:17 3.6 C 42 %
561 18-12-2019 21:22:17 3.6 C 43 %
562 18-12-2019 21:32:17 3.7 C 43 %
563 18-12-2019 21:42:17 3.6 C 43 %
564 18-12-2019 21:52:17 3.4 C 43 %
565 18-12-2019 22:02:17 3.1 C 43 %
566 18-12-2019 22:12:17 3.1 C 43 %
567 18-12-2019 22:22:17 2.7 C 43 %
568 18-12-2019 22:32:17 2.6 C 43 %
569 18-12-2019 22:42:17 2.5 C 43 %
570 18-12-2019 22:52:17 2.4 C 43 %
571 18-12-2019 23:02:17 2.4 C 43 %
572 18-12-2019 23:12:17 2.3 C 43 %
573 18-12-2019 23:22:18 2.3 C 43 %
574 18-12-2019 23:32:17 2 C 43 %
575 18-12-2019 23:42:17 2 C 43 %
Sensor: Nr:Datum:Temp:Feuchte:
Aussen-T/F 576 18-12-2019 23:52:17 2 C 43 %
577 19-12-2019 00:02:18 2.3 C 44 %
578 19-12-2019 00:12:18 2 C 43 %
579 19-12-2019 00:22:17 2 C 43 %
580 19-12-2019 00:32:17 2.1 C 43 %
581 19-12-2019 00:42:17 2.4 C 44 %
582 19-12-2019 00:52:18 2.3 C 43 %
583 19-12-2019 01:02:17 2.1 C 43 %
584 19-12-2019 01:12:17 2 C 43 %
585 19-12-2019 01:22:17 2 C 43 %
586 19-12-2019 01:32:18 1.6 C 44 %
587 19-12-2019 01:42:18 1.9 C 44 %
588 19-12-2019 01:52:17 2.3 C 43 %
589 19-12-2019 02:02:17 2.2 C 43 %
590 19-12-2019 02:12:17 2 C 43 %
591 19-12-2019 02:22:17 2 C 43 %
592 19-12-2019 02:32:18 2 C 43 %
593 19-12-2019 02:42:18 1.8 C 44 %
594 19-12-2019 02:52:17 2.1 C 43 %
595 19-12-2019 03:02:18 1.5 C 44 %
596 19-12-2019 03:12:18 1.6 C 44 %
597 19-12-2019 03:22:17 1.6 C 44 %
598 19-12-2019 03:32:17 1.8 C 44 %
599 19-12-2019 03:42:17 1.7 C 44 %
600 19-12-2019 03:52:17 1.7 C 44 %
Sensor: Nr:Datum:Temp:Feuchte:
Aussen-T/F 601 19-12-2019 04:02:17 1.6 C 44 %
602 19-12-2019 04:12:17 1.5 C 44 %
603 19-12-2019 04:22:18 1.5 C 44 %
604 19-12-2019 04:32:17 1.5 C 44 %
605 19-12-2019 04:42:17 1.4 C 44 %
606 19-12-2019 04:52:18 1.6 C 44 %
607 19-12-2019 05:02:17 1.4 C 44 %
608 19-12-2019 05:12:17 1.5 C 44 %
609 19-12-2019 05:22:17 1.4 C 44 %
610 19-12-2019 05:32:17 1.3 C 44 %
611 19-12-2019 05:42:17 1.3 C 44 %
612 19-12-2019 05:52:17 1.1 C 44 %
613 19-12-2019 06:02:17 1.1 C 44 %
614 19-12-2019 06:12:17 1.2 C 44 %
615 19-12-2019 06:22:17 1 C 44 %
616 19-12-2019 06:32:17 1.1 C 44 %
617 19-12-2019 06:42:18 1 C 43 %
618 19-12-2019 06:52:17 0.7 C 45 %
619 19-12-2019 07:02:17 1 C 44 %
620 19-12-2019 07:12:17 0.9 C 45 %
621 19-12-2019 07:22:17 1.7 C 44 %
622 19-12-2019 07:32:17 3.5 C 43 %
623 19-12-2019 07:42:18 3.2 C 42 %
624 19-12-2019 07:52:17 3.1 C 42 %
625 19-12-2019 08:02:18 4.6 C 42 %
Sensor: Nr:Datum:Temp:Feuchte:
Aussen-T/F 626 19-12-2019 08:12:18 3.8 C 42 %
627 19-12-2019 08:22:17 3.7 C 42 %
628 19-12-2019 08:32:18 4.6 C 41 %
629 19-12-2019 08:42:18 4 C 41 %
630 19-12-2019 08:52:17 3.3 C 41 %
631 19-12-2019 09:02:17 4 C 41 %
632 19-12-2019 09:12:17 4.4 C 41 %
633 19-12-2019 09:22:17 4.1 C 41 %
634 19-12-2019 09:32:17 4.6 C 41 %
635 19-12-2019 09:42:17 4.4 C 41 %
636 19-12-2019 09:52:17 4.5 C 41 %
637 19-12-2019 10:02:17 4.7 C 41 %
638 19-12-2019 10:12:17 4.9 C 41 %
639 19-12-2019 10:22:17 5.2 C 41 %
640 19-12-2019 10:32:17 7 C 40 %
641 19-12-2019 10:42:17 7.2 C 40 %
642 19-12-2019 10:52:18 6.7 C 40 %
643 19-12-2019 11:02:17 6.4 C 39 %
644 19-12-2019 11:12:17 6.3 C 39 %
645 19-12-2019 11:22:17 6.3 C 40 %
646 19-12-2019 11:32:17 6.4 C 40 %
647 19-12-2019 11:42:17 6.6 C 40 %
648 19-12-2019 11:52:18 6.7 C 40 %
649 19-12-2019 12:02:17 6.6 C 40 %
650 19-12-2019 12:12:17 6.7 C 40 %
Sensor: Nr:Datum:Temp:Feuchte:
Aussen-T/F 651 19-12-2019 12:22:17 6.7 C 40 %
652 19-12-2019 12:32:17 7 C 39 %
653 19-12-2019 12:42:17 7 C 39 %
654 19-12-2019 12:52:17 7.1 C 39 %
655 19-12-2019 13:02:17 7.3 C 39 %
656 19-12-2019 13:12:17 7.1 C 38 %
657 19-12-2019 13:22:17 7.2 C 39 %
658 19-12-2019 13:32:17 7.2 C 39 %
659 19-12-2019 13:42:17 7.3 C 38 %
660 19-12-2019 13:52:17 7.3 C 38 %
661 19-12-2019 14:02:17 7.3 C 38 %
662 19-12-2019 14:12:17 7.1 C 38 %
663 19-12-2019 14:22:17 7.1 C 38 %
664 19-12-2019 14:32:17 7.2 C 38 %
665 19-12-2019 14:42:17 7.3 C 37 %
666 19-12-2019 14:52:17 7.9 C 36 %
667 19-12-2019 15:02:17 8.1 C 34 %
668 19-12-2019 15:12:17 8.1 C 33 %
669 19-12-2019 15:22:17 8.4 C 32 %
670 19-12-2019 15:32:18 8.6 C 32 %
671 19-12-2019 15:42:18 8.7 C 31 %
672 19-12-2019 15:52:17 8.8 C 31 %
673 19-12-2019 16:02:17 8.7 C 30 %
674 19-12-2019 16:12:17 8.3 C 31 %
675 19-12-2019 16:22:18 8.1 C 31 %
Sensor: Nr:Datum:Temp:Feuchte:
Aussen-T/F 676 19-12-2019 16:32:17 7.9 C 32 %
677 19-12-2019 16:42:17 7.9 C 31 %
678 19-12-2019 16:52:17 7.6 C 32 %
679 19-12-2019 17:02:17 7.4 C 32 %
680 19-12-2019 17:12:17 6 C 35 %
681 19-12-2019 17:22:17 5.7 C 37 %
682 19-12-2019 17:32:17 5.5 C 39 %
683 19-12-2019 17:42:17 5 C 39 %
684 19-12-2019 17:52:17 4.9 C 41 %
685 19-12-2019 18:02:17 5.2 C 42 %
686 19-12-2019 18:12:18 4.9 C 42 %
687 19-12-2019 18:22:17 5.2 C 42 %
688 19-12-2019 18:32:17 5 C 41 %
689 19-12-2019 18:42:17 5 C 41 %
690 19-12-2019 18:52:18 5.8 C 42 %
691 19-12-2019 19:02:17 5.7 C 41 %
692 19-12-2019 19:12:17 5.2 C 39 %
693 19-12-2019 19:22:18 4.7 C 40 %
694 19-12-2019 19:32:17 4.9 C 42 %
695 19-12-2019 19:42:17 4.7 C 42 %
696 19-12-2019 19:52:17 4.8 C 42 %
697 19-12-2019 20:02:17 5 C 42 %
698 19-12-2019 20:12:17 5 C 41 %
699 19-12-2019 20:22:17 4.8 C 42 %
700 19-12-2019 20:32:17 5.1 C 42 %
Sensor: Nr:Datum:Temp:Feuchte:
Aussen-T/F 701 19-12-2019 20:42:17 6 C 41 %
702 19-12-2019 20:52:17 6 C 38 %
703 19-12-2019 21:02:17 5.8 C 38 %
704 19-12-2019 21:12:18 5.8 C 39 %
705 19-12-2019 21:22:17 5.7 C 39 %
706 19-12-2019 21:32:17 5.8 C 40 %
707 19-12-2019 21:42:17 6 C 40 %
708 19-12-2019 21:52:17 5.7 C 40 %
709 19-12-2019 22:02:17 5.6 C 40 %
710 19-12-2019 22:12:17 5.8 C 41 %
711 19-12-2019 22:22:18 6.2 C 41 %
712 19-12-2019 22:32:18 5.9 C 40 %
713 19-12-2019 22:42:18 5.1 C 38 %
714 19-12-2019 22:52:17 5 C 41 %
715 19-12-2019 23:02:17 5.4 C 43 %
716 19-12-2019 23:12:17 5.5 C 42 %
717 19-12-2019 23:22:17 5.5 C 42 %
718 19-12-2019 23:32:17 5.4 C 42 %
719 19-12-2019 23:42:17 5.4 C 42 %
720 19-12-2019 23:52:17 5.1 C 41 %
721 20-12-2019 00:02:17 4.8 C 42 %
722 20-12-2019 00:12:17 4.3 C 41 %
723 20-12-2019 00:22:17 4 C 41 %
724 20-12-2019 00:32:17 3.9 C 43 %
725 20-12-2019 00:42:17 3.7 C 42 %
Sensor: Nr:Datum:Temp:Feuchte:
Aussen-T/F 726 20-12-2019 00:52:17 3.4 C 43 %
727 20-12-2019 01:02:17 3.1 C 42 %
728 20-12-2019 01:12:17 3 C 43 %
729 20-12-2019 01:22:17 3.3 C 44 %
730 20-12-2019 01:32:17 3.1 C 43 %
731 20-12-2019 01:42:17 3.1 C 43 %
732 20-12-2019 01:52:17 2.8 C 44 %
733 20-12-2019 02:02:17 2.8 C 44 %
734 20-12-2019 02:12:17 2.6 C 44 %
735 20-12-2019 02:22:17 2.5 C 44 %
736 20-12-2019 02:32:18 3.2 C 44 %
737 20-12-2019 02:42:18 3.4 C 44 %
738 20-12-2019 02:52:17 3.8 C 44 %
739 20-12-2019 03:02:17 4.7 C 42 %
740 20-12-2019 03:12:17 4.2 C 41 %
741 20-12-2019 03:22:17 4.6 C 41 %
742 20-12-2019 03:32:17 4.4 C 40 %
743 20-12-2019 03:42:17 4.4 C 40 %
744 20-12-2019 03:52:17 4.6 C 41 %
745 20-12-2019 04:02:17 4.4 C 40 %
746 20-12-2019 04:12:17 4.2 C 40 %
747 20-12-2019 04:22:17 4 C 41 %
748 20-12-2019 04:32:18 4.8 C 42 %
749 20-12-2019 04:42:18 4.5 C 41 %
750 20-12-2019 04:52:17 4.7 C 40 %
Sensor: Nr:Datum:Temp:Feuchte:
Aussen-T/F 751 20-12-2019 05:02:17 4.7 C 40 %
752 20-12-2019 05:12:17 5.3 C 38 %
753 20-12-2019 05:22:17 5.2 C 36 %
754 20-12-2019 05:32:17 5.3 C 36 %
755 20-12-2019 05:42:17 5.4 C 35 %
756 20-12-2019 05:52:18 5.5 C 35 %
757 20-12-2019 06:02:18 5.2 C 35 %
758 20-12-2019 06:12:18 5.3 C 35 %
759 20-12-2019 06:22:17 5.6 C 35 %
760 20-12-2019 06:32:17 6 C 32 %
761 20-12-2019 06:42:17 6 C 31 %
762 20-12-2019 06:52:17 5.7 C 32 %
763 20-12-2019 07:02:17 5.8 C 31 %
764 20-12-2019 07:12:17 5.9 C 31 %
765 20-12-2019 07:22:17 6.1 C 31 %
766 20-12-2019 07:32:17 5.9 C 33 %
767 20-12-2019 07:42:17 6.4 C 31 %
768 20-12-2019 07:52:17 6.8 C 30 %
769 20-12-2019 08:02:17 7.1 C 27 %
770 20-12-2019 08:12:17 6.4 C 31 %
771 20-12-2019 08:22:17 6.4 C 32 %
772 20-12-2019 08:32:18 6.5 C 32 %
773 20-12-2019 08:42:18 6.3 C 32 %
774 20-12-2019 08:52:17 6.3 C 33 %
775 20-12-2019 09:02:17 6.5 C 33 %
Sensor: Nr:Datum:Temp:Feuchte:
Aussen-T/F 776 20-12-2019 09:12:17 6.7 C 31 %
777 20-12-2019 09:22:17 6.5 C 33 %
778 20-12-2019 09:32:17 6.4 C 35 %
779 20-12-2019 09:42:17 6.5 C 35 %
780 20-12-2019 09:52:17 6.5 C 34 %
781 20-12-2019 10:02:17 6.2 C 31 %
782 20-12-2019 10:12:17 6 C 33 %
783 20-12-2019 10:22:17 5.7 C 35 %
784 20-12-2019 10:32:17 5.8 C 40 %
785 20-12-2019 10:42:17 5.9 C 42 %
786 20-12-2019 10:52:17 6 C 42 %
787 20-12-2019 11:02:17 6.1 C 42 %
788 20-12-2019 11:12:17 6 C 42 %
789 20-12-2019 11:22:17 6.3 C 42 %
790 20-12-2019 11:32:17 6.5 C 42 %
791 20-12-2019 11:42:17 6.7 C 41 %
792 20-12-2019 11:52:17 6.8 C 40 %
793 20-12-2019 12:02:18 7 C 39 %
794 20-12-2019 12:12:18 7.3 C 39 %
795 20-12-2019 12:22:18 7.5 C 39 %
796 20-12-2019 12:32:17 7.7 C 39 %
797 20-12-2019 12:42:18 8 C 39 %
798 20-12-2019 12:52:17 8.1 C 38 %
799 20-12-2019 13:02:18 8.1 C 39 %
800 20-12-2019 13:12:18 8.2 C 39 %
Sensor: Nr:Datum:Temp:Feuchte:
Aussen-T/F 801 20-12-2019 13:22:17 8.3 C 37 %
802 20-12-2019 13:32:17 8.4 C 36 %
803 20-12-2019 13:42:17 8.6 C 37 %
804 20-12-2019 13:52:17 8.5 C 36 %
805 20-12-2019 14:02:17 8.6 C 36 %
806 20-12-2019 14:12:17 8.6 C 35 %
807 20-12-2019 14:22:17 8.7 C 36 %
808 20-12-2019 14:32:17 8.7 C 36 %
809 20-12-2019 14:42:17 8.5 C 35 %
810 20-12-2019 14:52:18 8.3 C 36 %
811 20-12-2019 15:02:17 8.2 C 37 %
812 20-12-2019 15:12:17 8.3 C 38 %
813 20-12-2019 15:22:17 8.3 C 39 %
814 20-12-2019 15:32:17 8.2 C 40 %
815 20-12-2019 15:42:17 8.3 C 41 %
816 20-12-2019 15:52:17 8.2 C 40 %
817 20-12-2019 16:02:17 8.2 C 40 %
818 20-12-2019 16:12:18 8.3 C 40 %
819 20-12-2019 16:22:17 8.3 C 41 %
820 20-12-2019 16:32:17 8.4 C 41 %
821 20-12-2019 16:42:17 8.4 C 41 %
822 20-12-2019 16:52:18 8.6 C 41 %
823 20-12-2019 17:02:17 9 C 41 %
824 20-12-2019 17:12:18 9 C 40 %
825 20-12-2019 17:22:17 9.1 C 36 %
Sensor: Nr:Datum:Temp:Feuchte:
Aussen-T/F 826 20-12-2019 17:32:17 8.7 C 38 %
827 20-12-2019 17:42:17 8.8 C 37 %
828 20-12-2019 17:52:18 8.7 C 38 %
829 20-12-2019 18:02:17 8.9 C 37 %
830 20-12-2019 18:12:17 8.9 C 36 %
831 20-12-2019 18:22:17 8.9 C 37 %
832 20-12-2019 18:32:17 8.9 C 37 %
833 20-12-2019 18:42:17 9.7 C 33 %
834 20-12-2019 18:52:18 9.5 C 31 %
835 20-12-2019 19:02:17 9.8 C 30 %
836 20-12-2019 19:12:17 10.1 C 28 %
837 20-12-2019 19:22:17 9.9 C 29 %
838 20-12-2019 19:32:17 9.8 C 29 %
839 20-12-2019 19:42:17 10 C 27 %
840 20-12-2019 19:52:18 9.7 C 29 %
841 20-12-2019 20:02:18 9.6 C 28 %
842 20-12-2019 20:12:18 9.5 C 28 %
843 20-12-2019 20:22:17 9.5 C 27 %
844 20-12-2019 20:32:18 9 C 28 %
845 20-12-2019 20:42:18 9 C 27 %
846 20-12-2019 20:52:17 8.9 C 28 %
847 20-12-2019 21:02:18 8.5 C 28 %
848 20-12-2019 21:12:18 8.6 C 28 %
849 20-12-2019 21:22:17 8.9 C 27 %
850 20-12-2019 21:32:17 8.7 C 27 %
Sensor: Nr:Datum:Temp:Feuchte:
Aussen-T/F 851 20-12-2019 21:42:17 8.3 C 28 %
852 20-12-2019 21:52:17 8.3 C 28 %
853 20-12-2019 22:02:17 8.3 C 28 %
854 20-12-2019 22:12:17 8.1 C 28 %
855 20-12-2019 22:22:17 8.7 C 27 %
856 20-12-2019 22:32:17 8.9 C 26 %
857 20-12-2019 22:42:17 8.7 C 27 %
858 20-12-2019 22:52:17 8.7 C 27 %
859 20-12-2019 23:02:17 8.5 C 27 %
860 20-12-2019 23:12:17 8.4 C 27 %
861 20-12-2019 23:22:17 8.2 C 28 %
862 20-12-2019 23:32:17 8 C 28 %
863 20-12-2019 23:42:17 8.3 C 27 %
864 20-12-2019 23:52:18 8.1 C 27 %
865 21-12-2019 00:02:17 7.9 C 28 %
866 21-12-2019 00:12:17 7.7 C 28 %
867 21-12-2019 00:22:17 7.5 C 30 %
868 21-12-2019 00:32:17 7.5 C 30 %
869 21-12-2019 00:42:17 7.2 C 30 %
870 21-12-2019 00:52:18 7 C 30 %
871 21-12-2019 01:02:17 6.9 C 32 %
872 21-12-2019 01:12:17 7.3 C 31 %
873 21-12-2019 01:22:17 7.4 C 31 %
874 21-12-2019 01:32:17 7.3 C 32 %
875 21-12-2019 01:42:17 7.5 C 31 %
Sensor: Nr:Datum:Temp:Feuchte:
Aussen-T/F 876 21-12-2019 01:52:17 7.5 C 32 %
877 21-12-2019 02:02:17 7.9 C 30 %
878 21-12-2019 02:12:17 8 C 29 %
879 21-12-2019 02:22:17 8.2 C 28 %
880 21-12-2019 02:32:18 7.8 C 30 %
881 21-12-2019 02:42:18 7.8 C 30 %
882 21-12-2019 02:52:17 7.8 C 30 %
883 21-12-2019 03:02:17 7.5 C 30 %
884 21-12-2019 03:12:17 7.5 C 31 %
885 21-12-2019 03:22:17 7.4 C 31 %
886 21-12-2019 03:32:18 7.3 C 31 %
887 21-12-2019 03:42:18 7.1 C 31 %
888 21-12-2019 03:52:17 7.1 C 32 %
889 21-12-2019 04:02:17 6.9 C 33 %
890 21-12-2019 04:12:17 6.7 C 36 %
891 21-12-2019 04:22:17 6.4 C 37 %
892 21-12-2019 04:32:18 6 C 38 %
893 21-12-2019 04:42:18 5.9 C 38 %
894 21-12-2019 04:52:17 5.7 C 40 %
895 21-12-2019 05:02:17 6 C 40 %
896 21-12-2019 05:12:17 5.6 C 39 %
897 21-12-2019 05:22:17 5.4 C 38 %
898 21-12-2019 05:32:18 5.4 C 38 %
899 21-12-2019 05:42:18 5.1 C 38 %
900 21-12-2019 05:52:17 5.3 C 40 %
Sensor: Nr:Datum:Temp:Feuchte:
Aussen-T/F 901 21-12-2019 06:02:17 4.9 C 41 %
902 21-12-2019 06:12:17 4.8 C 41 %
903 21-12-2019 06:22:18 4.3 C 40 %
904 21-12-2019 06:32:17 4.3 C 42 %
905 21-12-2019 06:42:17 5 C 40 %
906 21-12-2019 06:52:18 3.8 C 41 %
907 21-12-2019 07:02:17 3.8 C 43 %
908 21-12-2019 07:12:18 3.5 C 42 %
909 21-12-2019 07:22:17 3.4 C 43 %
910 21-12-2019 07:32:17 3.3 C 43 %
911 21-12-2019 07:42:17 3 C 42 %
912 21-12-2019 07:52:17 3 C 43 %
913 21-12-2019 08:02:17 3.1 C 44 %
914 21-12-2019 08:12:17 3.6 C 44 %
915 21-12-2019 08:22:17 3.7 C 44 %
916 21-12-2019 08:32:17 3.9 C 43 %
917 21-12-2019 08:42:17 4.6 C 43 %
918 21-12-2019 08:52:17 4.9 C 42 %
919 21-12-2019 09:02:17 5 C 39 %
920 21-12-2019 09:12:17 4.5 C 38 %
921 21-12-2019 09:22:17 4.4 C 38 %
922 21-12-2019 09:32:17 4.4 C 39 %
923 21-12-2019 09:42:17 4.6 C 40 %
924 21-12-2019 09:52:17 4.6 C 38 %
925 21-12-2019 10:02:17 4.8 C 38 %
Sensor: Nr:Datum:Temp:Feuchte:
Aussen-T/F 926 21-12-2019 10:12:17 4.8 C 37 %
927 21-12-2019 10:22:17 5.1 C 37 %
928 21-12-2019 10:32:17 5.2 C 36 %
929 21-12-2019 10:42:17 5.1 C 37 %
930 21-12-2019 10:52:17 5.2 C 37 %
931 21-12-2019 11:02:17 5.3 C 37 %
932 21-12-2019 11:12:17 5.3 C 37 %
933 21-12-2019 11:22:17 5.4 C 37 %
934 21-12-2019 11:32:17 5.8 C 37 %
935 21-12-2019 11:42:17 5.9 C 37 %
936 21-12-2019 11:52:17 5.8 C 37 %
937 21-12-2019 12:02:17 5.8 C 36 %
938 21-12-2019 12:12:17 6.2 C 36 %
939 21-12-2019 12:22:17 6.2 C 35 %
940 21-12-2019 12:32:17 7 C 32 %
941 21-12-2019 12:42:17 6.8 C 33 %
942 21-12-2019 12:52:17 8 C 30 %
943 21-12-2019 13:02:17 7.8 C 30 %
944 21-12-2019 13:12:17 7.1 C 30 %
945 21-12-2019 13:22:17 6.9 C 31 %
946 21-12-2019 13:32:17 7.2 C 30 %
947 21-12-2019 13:42:17 8 C 28 %
948 21-12-2019 13:52:18 7.7 C 28 %
949 21-12-2019 14:02:17 8.3 C 27 %
950 21-12-2019 14:12:17 8.8 C 26 %
Sensor: Nr:Datum:Temp:Feuchte:
Aussen-T/F 951 21-12-2019 14:22:17 8.2 C 27 %
952 21-12-2019 14:32:18 8.2 C 27 %
953 21-12-2019 14:42:18 8.5 C 27 %
954 21-12-2019 14:52:17 8.8 C 26 %
955 21-12-2019 15:02:18 9 C 25 %
956 21-12-2019 15:12:18 8.7 C 26 %
957 21-12-2019 15:22:18 8.8 C 25 %
958 21-12-2019 15:32:17 8.7 C 25 %
959 21-12-2019 15:42:17 8 C 26 %
960 21-12-2019 15:52:17 7.5 C 28 %
961 21-12-2019 16:02:17 7.7 C 27 %
962 21-12-2019 16:12:17 7.6 C 29 %
963 21-12-2019 16:22:17 7.4 C 30 %
964 21-12-2019 16:32:17 7.4 C 30 %
965 21-12-2019 16:42:17 7.7 C 28 %
966 21-12-2019 16:52:17 7.9 C 27 %
967 21-12-2019 17:02:17 7.6 C 29 %
968 21-12-2019 17:12:17 7.3 C 30 %
969 21-12-2019 17:22:17 7.2 C 30 %
970 21-12-2019 17:32:17 7.3 C 30 %
971 21-12-2019 17:42:17 7.3 C 29 %
972 21-12-2019 17:52:17 7.2 C 29 %
973 21-12-2019 18:02:17 7.6 C 27 %
974 21-12-2019 18:12:17 7.6 C 27 %
975 21-12-2019 18:22:17 7.6 C 26 %
Sensor: Nr:Datum:Temp:Feuchte:
Aussen-T/F 976 21-12-2019 18:32:18 7.9 C 25 %
977 21-12-2019 18:42:18 7.7 C 26 %
978 21-12-2019 18:52:17 7.5 C 26 %
979 21-12-2019 19:02:17 7.3 C 27 %
980 21-12-2019 19:12:17 7 C 27 %
981 21-12-2019 19:22:17 7 C 27 %
982 21-12-2019 19:32:17 6.9 C 30 %
983 21-12-2019 19:42:17 6.8 C 30 %
984 21-12-2019 19:52:17 7 C 27 %
985 21-12-2019 20:02:17 7.1 C 26 %
986 21-12-2019 20:12:17 7.1 C 26 %
987 21-12-2019 20:22:17 7.1 C 26 %
988 21-12-2019 20:32:17 6.9 C 28 %
989 21-12-2019 20:42:17 7 C 27 %
990 21-12-2019 20:52:17 6.8 C 27 %
991 21-12-2019 21:02:18 6.4 C 29 %
992 21-12-2019 21:12:18 6.1 C 30 %
993 21-12-2019 21:22:17 6.1 C 31 %
994 21-12-2019 21:32:17 6.3 C 31 %
995 21-12-2019 21:42:17 5.9 C 31 %
996 21-12-2019 21:52:18 5.1 C 34 %
997 21-12-2019 22:02:18 4.9 C 36 %
998 21-12-2019 22:12:18 5.2 C 34 %
999 21-12-2019 22:22:17 5.7 C 30 %
1000 21-12-2019 22:32:17 6.1 C 27 %
Sensor: Nr:Datum:Temp:Feuchte:
Aussen-T/F 1001 21-12-2019 22:42:17 6.1 C 27 %
1002 21-12-2019 22:52:17 6 C 27 %
1003 21-12-2019 23:02:17 5.8 C 27 %
1004 21-12-2019 23:12:17 5.8 C 27 %
1005 21-12-2019 23:22:17 6.3 C 26 %
1006 21-12-2019 23:32:18 6.5 C 25 %
1007 21-12-2019 23:42:18 6.7 C 25 %
1008 21-12-2019 23:52:17 6.3 C 26 %
1009 22-12-2019 00:02:17 6.8 C 26 %
1010 22-12-2019 00:12:17 6.9 C 26 %
1011 22-12-2019 00:22:17 6.8 C 26 %
1012 22-12-2019 00:32:17 6.8 C 26 %
1013 22-12-2019 00:42:17 6.7 C 27 %
1014 22-12-2019 00:52:17 6.3 C 30 %
1015 22-12-2019 01:02:17 6.2 C 30 %
1016 22-12-2019 01:12:18 5.8 C 35 %
1017 22-12-2019 01:22:17 5.8 C 36 %
1018 22-12-2019 01:32:17 5.8 C 39 %
1019 22-12-2019 01:42:17 5.7 C 40 %
1020 22-12-2019 01:52:17 5.7 C 40 %
1021 22-12-2019 02:02:17 5.7 C 38 %
1022 22-12-2019 02:12:18 5.7 C 38 %
1023 22-12-2019 02:22:17 5.8 C 38 %
1024 22-12-2019 02:32:17 5.9 C 37 %
1025 22-12-2019 02:42:17 5.9 C 36 %
Sensor: Nr:Datum:Temp:Feuchte:
Aussen-T/F 1026 22-12-2019 02:52:18 6 C 35 %
1027 22-12-2019 03:02:17 6.1 C 35 %
1028 22-12-2019 03:12:17 6.2 C 34 %
1029 22-12-2019 03:22:17 6.2 C 35 %
1030 22-12-2019 03:32:17 6.2 C 34 %
1031 22-12-2019 03:42:17 6.1 C 35 %
1032 22-12-2019 03:52:17 6.2 C 35 %
1033 22-12-2019 04:02:18 6.2 C 35 %
1034 22-12-2019 04:12:18 6 C 35 %
1035 22-12-2019 04:22:17 6.2 C 34 %
1036 22-12-2019 04:32:17 6.2 C 34 %
1037 22-12-2019 04:42:17 6.3 C 33 %
1038 22-12-2019 04:52:17 6.3 C 33 %
1039 22-12-2019 05:02:17 6.2 C 34 %
1040 22-12-2019 05:12:17 5.8 C 34 %
1041 22-12-2019 05:22:17 5.4 C 36 %
1042 22-12-2019 05:32:17 5.7 C 40 %
1043 22-12-2019 05:42:17 6.1 C 38 %
1044 22-12-2019 05:52:17 5.5 C 35 %
1045 22-12-2019 06:02:17 5.1 C 39 %
1046 22-12-2019 06:12:17 5.3 C 41 %
1047 22-12-2019 06:22:17 4.9 C 41 %
1048 22-12-2019 06:32:17 5.4 C 42 %
1049 22-12-2019 06:42:17 5.9 C 41 %
1050 22-12-2019 06:52:17 6.2 C 39 %
Sensor: Nr:Datum:Temp:Feuchte:
Aussen-T/F 1051 22-12-2019 07:02:17 6.2 C 38 %
1052 22-12-2019 07:12:17 6 C 38 %
1053 22-12-2019 07:22:17 5.7 C 38 %
1054 22-12-2019 07:32:17 5.4 C 39 %
1055 22-12-2019 07:42:17 6 C 42 %
1056 22-12-2019 07:52:17 6.1 C 41 %
1057 22-12-2019 08:02:18 6.3 C 41 %
1058 22-12-2019 08:12:18 6.2 C 40 %
1059 22-12-2019 08:22:17 5.9 C 40 %
1060 22-12-2019 08:32:17 5.8 C 41 %
1061 22-12-2019 08:42:17 6.3 C 41 %
1062 22-12-2019 08:52:18 6.2 C 39 %
1063 22-12-2019 09:02:17 6 C 39 %
1064 22-12-2019 09:12:17 6.2 C 40 %
1065 22-12-2019 09:22:17 6.4 C 39 %
1066 22-12-2019 09:32:17 6.3 C 39 %
1067 22-12-2019 09:42:17 6.8 C 39 %
1068 22-12-2019 09:52:17 7 C 37 %
1069 22-12-2019 10:02:17 7.1 C 37 %
1070 22-12-2019 10:12:17 7.9 C 33 %
1071 22-12-2019 10:22:17 8.1 C 33 %
1072 22-12-2019 10:32:17 8.8 C 30 %
1073 22-12-2019 10:42:17 9 C 29 %
1074 22-12-2019 10:52:17 9.3 C 28 %
1075 22-12-2019 11:02:17 9.5 C 28 %
Sensor: Nr:Datum:Temp:Feuchte:
Aussen-T/F 1076 22-12-2019 11:12:17 10 C 26 %
1077 22-12-2019 11:22:17 10 C 26 %
1078 22-12-2019 11:32:18 10.4 C 26 %
1079 22-12-2019 11:42:18 10.2 C 26 %
1080 22-12-2019 11:52:17 10.4 C 26 %
1081 22-12-2019 12:02:17 10.5 C 25 %
1082 22-12-2019 12:12:17 10.5 C 26 %
1083 22-12-2019 12:22:17 10.5 C 25 %
1084 22-12-2019 12:32:17 10.7 C 26 %
1085 22-12-2019 12:42:17 10.8 C 26 %
1086 22-12-2019 12:52:17 11.2 C 25 %
1087 22-12-2019 13:02:17 11.1 C 25 %
1088 22-12-2019 13:12:17 10.8 C 25 %
1089 22-12-2019 13:22:17 10.7 C 25 %
1090 22-12-2019 13:32:17 10.7 C 25 %
1091 22-12-2019 13:42:17 10.7 C 25 %
1092 22-12-2019 13:52:17 10.8 C 25 %
1093 22-12-2019 14:02:17 11.1 C 23 %
1094 22-12-2019 14:12:17 11 C 23 %
1095 22-12-2019 14:22:17 10.8 C 23 %
1096 22-12-2019 14:32:17 10.9 C 23 %
1097 22-12-2019 14:42:17 10.8 C 23 %
1098 22-12-2019 14:52:17 10.7 C 25 %
1099 22-12-2019 15:02:17 10.6 C 25 %
1100 22-12-2019 15:12:17 10.3 C 25 %
Sensor: Nr:Datum:Temp:Feuchte:
Aussen-T/F 1101 22-12-2019 15:22:17 10.1 C 25 %
1102 22-12-2019 15:32:17 9.9 C 26 %
1103 22-12-2019 15:42:17 9.7 C 26 %
1104 22-12-2019 15:52:18 9.6 C 25 %
1105 22-12-2019 16:02:18 9.6 C 25 %
1106 22-12-2019 16:12:18 9.3 C 25 %
1107 22-12-2019 16:22:17 8.9 C 26 %
1108 22-12-2019 16:32:17 8.3 C 26 %
1109 22-12-2019 16:42:17 8.4 C 27 %
1110 22-12-2019 16:52:17 7.9 C 28 %
1111 22-12-2019 17:02:18 7.5 C 30 %
1112 22-12-2019 17:12:18 7.5 C 30 %
1113 22-12-2019 17:22:17 7.4 C 30 %
1114 22-12-2019 17:32:17 7.5 C 29 %
1115 22-12-2019 17:42:17 7.5 C 28 %
1116 22-12-2019 17:52:17 7.2 C 28 %
1117 22-12-2019 18:02:17 7.2 C 30 %
1118 22-12-2019 18:12:17 7.1 C 30 %
1119 22-12-2019 18:22:17 7.3 C 30 %
1120 22-12-2019 18:32:17 7.4 C 29 %
1121 22-12-2019 18:42:17 7.5 C 29 %
1122 22-12-2019 18:52:17 7.2 C 29 %
1123 22-12-2019 19:02:17 7.1 C 30 %
1124 22-12-2019 19:12:17 7 C 31 %
1125 22-12-2019 19:22:17 7 C 32 %
Sensor: Nr:Datum:Temp:Feuchte:
Aussen-T/F 1126 22-12-2019 19:32:17 7.1 C 31 %
1127 22-12-2019 19:42:17 7.5 C 30 %
1128 22-12-2019 19:52:17 8 C 27 %
1129 22-12-2019 20:02:17 7.9 C 27 %
1130 22-12-2019 20:12:17 8.1 C 26 %
1131 22-12-2019 20:22:17 8.3 C 25 %
1132 22-12-2019 20:32:17 8.2 C 25 %
1133 22-12-2019 20:42:17 8 C 25 %
1134 22-12-2019 20:52:17 8 C 25 %
1135 22-12-2019 21:02:17 8.1 C 25 %
1136 22-12-2019 21:12:17 8.1 C 25 %
1137 22-12-2019 21:22:17 7.8 C 25 %
1138 22-12-2019 21:32:17 8.1 C 25 %
1139 22-12-2019 21:42:17 7.8 C 26 %
1140 22-12-2019 21:52:17 7.7 C 26 %
1141 22-12-2019 22:02:17 7.9 C 26 %
1142 22-12-2019 22:12:17 7.6 C 26 %
1143 22-12-2019 22:22:17 7.5 C 26 %
1144 22-12-2019 22:32:17 7.1 C 27 %
1145 22-12-2019 22:42:17 6.9 C 28 %
1146 22-12-2019 22:52:17 6.7 C 29 %
1147 22-12-2019 23:02:17 6.2 C 31 %
1148 22-12-2019 23:12:17 6.4 C 31 %
1149 22-12-2019 23:22:17 6.6 C 31 %
1150 22-12-2019 23:32:17 6.6 C 31 %
Sensor: Nr:Datum:Temp:Feuchte:
Aussen-T/F 1151 22-12-2019 23:42:17 6.7 C 31 %
1152 22-12-2019 23:52:17 6.7 C 31 %
1153 23-12-2019 00:02:17 6.6 C 32 %
1154 23-12-2019 00:12:17 6.5 C 31 %
1155 23-12-2019 00:22:17 6.4 C 32 %
1156 23-12-2019 00:32:17 6.6 C 31 %
1157 23-12-2019 00:42:17 7 C 30 %
1158 23-12-2019 00:52:17 6.9 C 30 %
1159 23-12-2019 01:02:17 6.8 C 30 %
1160 23-12-2019 01:12:17 7.1 C 28 %
1161 23-12-2019 01:22:17 7 C 28 %
1162 23-12-2019 01:32:17 7.1 C 28 %
1163 23-12-2019 01:42:17 7.4 C 27 %
1164 23-12-2019 01:52:17 7.4 C 27 %
1165 23-12-2019 02:02:17 6.8 C 29 %
1166 23-12-2019 02:12:17 6.5 C 30 %
1167 23-12-2019 02:22:17 6.8 C 29 %
1168 23-12-2019 02:32:17 6.9 C 29 %
1169 23-12-2019 02:42:17 7.3 C 28 %
1170 23-12-2019 02:52:17 6.9 C 30 %
1171 23-12-2019 03:02:17 6.8 C 31 %
1172 23-12-2019 03:12:17 6.4 C 31 %
1173 23-12-2019 03:22:17 6.5 C 30 %
1174 23-12-2019 03:32:17 7 C 28 %
1175 23-12-2019 03:42:17 6.6 C 29 %
Sensor: Nr:Datum:Temp:Feuchte:
Aussen-T/F 1176 23-12-2019 03:52:17 7 C 28 %
1177 23-12-2019 04:02:17 6.9 C 30 %
1178 23-12-2019 04:12:17 7.1 C 28 %
1179 23-12-2019 04:22:17 6.8 C 30 %
1180 23-12-2019 04:32:17 6.9 C 31 %
1181 23-12-2019 04:42:17 6.5 C 31 %
1182 23-12-2019 04:52:17 6.1 C 31 %
1183 23-12-2019 05:02:17 6.4 C 32 %
1184 23-12-2019 05:12:17 7 C 30 %
1185 23-12-2019 05:22:17 7.1 C 30 %
1186 23-12-2019 05:32:17 7 C 30 %
1187 23-12-2019 05:42:17 6.8 C 31 %
1188 23-12-2019 05:52:17 6.3 C 32 %
1189 23-12-2019 06:02:18 6.3 C 34 %
1190 23-12-2019 06:12:18 6.6 C 33 %
1191 23-12-2019 06:22:17 6.9 C 31 %
1192 23-12-2019 06:32:18 7.1 C 30 %
1193 23-12-2019 06:42:18 6.9 C 31 %
1194 23-12-2019 06:52:17 6.9 C 31 %
1195 23-12-2019 07:02:17 6.8 C 32 %
1196 23-12-2019 07:12:17 6.8 C 34 %
1197 23-12-2019 07:22:17 6.8 C 32 %
1198 23-12-2019 07:32:17 7.1 C 30 %
1199 23-12-2019 07:42:17 7.4 C 29 %
1200 23-12-2019 07:52:17 7.1 C 30 %
Sensor: Nr:Datum:Temp:Feuchte:
Aussen-T/F 1201 23-12-2019 08:02:17 7.3 C 30 %
1202 23-12-2019 08:12:17 7.4 C 28 %
1203 23-12-2019 08:22:17 7.5 C 28 %
1204 23-12-2019 08:32:18 7.5 C 28 %
1205 23-12-2019 08:42:18 7.6 C 28 %
1206 23-12-2019 08:52:17 7.6 C 27 %
1207 23-12-2019 09:02:17 7.6 C 27 %
1208 23-12-2019 09:12:18 7.7 C 27 %
1209 23-12-2019 09:22:17 7.8 C 27 %
1210 23-12-2019 09:32:18 7.8 C 27 %
1211 23-12-2019 09:42:18 7.8 C 27 %
1212 23-12-2019 09:52:18 7.9 C 26 %
1213 23-12-2019 10:02:17 7.3 C 30 %
1214 23-12-2019 10:12:18 7 C 33 %
1215 23-12-2019 10:22:17 7 C 35 %
1216 23-12-2019 10:32:18 6.8 C 35 %
1217 23-12-2019 10:42:18 6.9 C 34 %
1218 23-12-2019 10:52:17 7.4 C 30 %
1219 23-12-2019 11:02:18 7.8 C 28 %
1220 23-12-2019 11:12:18 8.1 C 28 %
1221 23-12-2019 11:22:17 8.4 C 26 %
1222 23-12-2019 11:32:18 8.3 C 26 %
1223 23-12-2019 11:42:18 8.6 C 26 %
1224 23-12-2019 11:52:17 8.9 C 25 %
1225 23-12-2019 12:02:18 9.1 C 25 %
Sensor: Nr:Datum:Temp:Feuchte:
Aussen-T/F 1226 23-12-2019 12:12:18 9.1 C 25 %
1227 23-12-2019 12:22:17 8.9 C 25 %
1228 23-12-2019 12:32:17 9 C 25 %
1229 23-12-2019 12:42:17 9.3 C 25 %
1230 23-12-2019 12:52:17 8.4 C 26 %
1231 23-12-2019 13:02:17 8.4 C 26 %
1232 23-12-2019 13:12:17 8.3 C 27 %
1233 23-12-2019 13:22:17 8.2 C 27 %
1234 23-12-2019 13:32:18 8.1 C 29 %
1235 23-12-2019 13:42:18 8.2 C 28 %
1236 23-12-2019 13:52:17 8.5 C 28 %
1237 23-12-2019 14:02:17 8.9 C 27 %
1238 23-12-2019 14:12:17 8.9 C 26 %
1239 23-12-2019 14:22:18 9 C 25 %
1240 23-12-2019 14:32:17 9.1 C 25 %
1241 23-12-2019 14:42:17 9.1 C 25 %
1242 23-12-2019 14:52:17 8.9 C 25 %
1243 23-12-2019 15:02:18 8.7 C 26 %
1244 23-12-2019 15:12:18 9.1 C 25 %
1245 23-12-2019 15:22:17 9.1 C 25 %
1246 23-12-2019 15:32:17 9 C 25 %
1247 23-12-2019 15:42:17 9 C 25 %
1248 23-12-2019 15:52:17 8.8 C 25 %
1249 23-12-2019 16:02:17 8.8 C 25 %
1250 23-12-2019 16:12:17 8.6 C 26 %
Sensor: Nr:Datum:Temp:Feuchte:
Aussen-T/F 1251 23-12-2019 16:22:18 8.5 C 25 %
1252 23-12-2019 16:32:17 8.4 C 25 %
1253 23-12-2019 16:42:17 8.5 C 25 %
1254 23-12-2019 16:52:18 8.5 C 25 %
1255 23-12-2019 17:02:17 8.2 C 25 %
1256 23-12-2019 17:12:17 8.4 C 25 %
1257 23-12-2019 17:22:17 8 C 25 %
1258 23-12-2019 17:32:17 7.9 C 25 %
1259 23-12-2019 17:42:18 7.8 C 25 %
1260 23-12-2019 17:52:17 7.8 C 25 %
1261 23-12-2019 18:02:17 7.9 C 25 %
1262 23-12-2019 18:12:17 8 C 23 %
1263 23-12-2019 18:22:17 7.9 C 23 %
1264 23-12-2019 18:32:17 7.9 C 25 %
1265 23-12-2019 18:42:17 7.6 C 25 %
1266 23-12-2019 18:52:17 7.5 C 26 %
1267 23-12-2019 19:02:17 7.3 C 26 %
1268 23-12-2019 19:12:17 6.7 C 29 %
1269 23-12-2019 19:22:17 6.4 C 30 %
1270 23-12-2019 19:32:17 7.4 C 26 %
1271 23-12-2019 19:42:17 7 C 26 %
1272 23-12-2019 19:52:17 7 C 27 %
1273 23-12-2019 20:02:17 7 C 28 %
1274 23-12-2019 20:12:17 6.5 C 30 %
1275 23-12-2019 20:22:17 6.8 C 30 %
Sensor: Nr:Datum:Temp:Feuchte:
Aussen-T/F 1276 23-12-2019 20:32:18 6.8 C 30 %
1277 23-12-2019 20:42:18 6.9 C 30 %
1278 23-12-2019 20:52:17 6.9 C 30 %
1279 23-12-2019 21:02:18 6.7 C 30 %
1280 23-12-2019 21:12:18 7.1 C 28 %
1281 23-12-2019 21:22:17 7 C 28 %
1282 23-12-2019 21:32:17 6.7 C 31 %
1283 23-12-2019 21:42:17 6.5 C 31 %
1284 23-12-2019 21:52:17 6.5 C 32 %
1285 23-12-2019 22:02:18 6.4 C 31 %
1286 23-12-2019 22:12:18 5.8 C 32 %
1287 23-12-2019 22:22:17 5.4 C 37 %
1288 23-12-2019 22:32:17 5.7 C 33 %
1289 23-12-2019 22:42:17 5.3 C 34 %
1290 23-12-2019 22:52:17 5.5 C 34 %
1291 23-12-2019 23:02:17 5.4 C 33 %
1292 23-12-2019 23:12:17 5.5 C 32 %
1293 23-12-2019 23:22:18 5.4 C 30 %
1294 23-12-2019 23:32:17 5.8 C 30 %
1295 23-12-2019 23:42:17 4.8 C 33 %
1296 23-12-2019 23:52:17 4.8 C 36 %
1297 24-12-2019 00:02:17 5.6 C 35 %
1298 24-12-2019 00:12:17 5.8 C 32 %
1299 24-12-2019 00:22:17 5.7 C 32 %
1300 24-12-2019 00:32:18 6 C 32 %
Sensor: Nr:Datum:Temp:Feuchte:
Aussen-T/F 1301 24-12-2019 00:42:18 6.1 C 31 %
1302 24-12-2019 00:52:17 6.3 C 31 %
1303 24-12-2019 01:02:17 5.6 C 32 %
1304 24-12-2019 01:12:17 5.9 C 32 %
1305 24-12-2019 01:22:17 6.1 C 30 %
1306 24-12-2019 01:32:17 6.3 C 30 %
1307 24-12-2019 01:42:17 5.9 C 31 %
1308 24-12-2019 01:52:17 5.7 C 33 %
1309 24-12-2019 02:02:17 5.7 C 35 %
1310 24-12-2019 02:12:17 5.8 C 35 %
1311 24-12-2019 02:22:17 5.6 C 35 %
1312 24-12-2019 02:32:18 5.5 C 36 %
1313 24-12-2019 02:42:18 5.5 C 36 %
1314 24-12-2019 02:52:17 6.6 C 30 %
1315 24-12-2019 03:02:18 6.7 C 29 %
1316 24-12-2019 03:12:18 6.3 C 30 %
1317 24-12-2019 03:22:17 5.7 C 31 %
1318 24-12-2019 03:32:17 5.5 C 31 %
1319 24-12-2019 03:42:17 5.7 C 31 %
1320 24-12-2019 03:52:17 5 C 32 %
1321 24-12-2019 04:02:17 5 C 38 %
1322 24-12-2019 04:12:17 5.2 C 37 %
1323 24-12-2019 04:22:17 5.2 C 36 %
1324 24-12-2019 04:32:17 4.8 C 37 %
1325 24-12-2019 04:42:17 4.8 C 39 %
Sensor: Nr:Datum:Temp:Feuchte:
Aussen-T/F 1326 24-12-2019 04:52:17 5.3 C 38 %
1327 24-12-2019 05:02:18 5.4 C 35 %
1328 24-12-2019 05:12:18 5.2 C 35 %
1329 24-12-2019 05:22:17 4.7 C 37 %
1330 24-12-2019 05:32:18 5 C 37 %
1331 24-12-2019 05:42:18 4.6 C 36 %
1332 24-12-2019 05:52:17 4.9 C 37 %
1333 24-12-2019 06:02:18 4.3 C 36 %
1334 24-12-2019 06:12:18 4.6 C 39 %
1335 24-12-2019 06:22:17 4.6 C 38 %
1336 24-12-2019 06:32:17 4.6 C 39 %
1337 24-12-2019 06:42:17 4.5 C 38 %
1338 24-12-2019 06:52:17 4.5 C 39 %
1339 24-12-2019 07:02:17 4.8 C 37 %
1340 24-12-2019 07:12:17 5 C 36 %
1341 24-12-2019 07:22:17 5.4 C 34 %
1342 24-12-2019 07:32:17 5.6 C 33 %
1343 24-12-2019 07:42:17 5.6 C 32 %
1344 24-12-2019 07:52:17 5.8 C 32 %
1345 24-12-2019 08:02:17 5.8 C 31 %
1346 24-12-2019 08:12:17 6 C 30 %
1347 24-12-2019 08:22:17 6.2 C 29 %
1348 24-12-2019 08:32:17 6.2 C 30 %
1349 24-12-2019 08:42:17 6.3 C 30 %
1350 24-12-2019 08:52:18 6.4 C 30 %
Sensor: Nr:Datum:Temp:Feuchte:
Aussen-T/F 1351 24-12-2019 09:02:17 6.5 C 29 %
1352 24-12-2019 09:12:17 6.8 C 29 %
1353 24-12-2019 09:22:17 6.8 C 28 %
1354 24-12-2019 09:32:17 6.8 C 29 %
1355 24-12-2019 09:42:17 6.8 C 28 %
1356 24-12-2019 09:52:17 6.5 C 30 %
1357 24-12-2019 10:02:17 6.4 C 30 %
1358 24-12-2019 10:12:17 6.2 C 31 %
1359 24-12-2019 10:22:17 6.2 C 33 %
1360 24-12-2019 10:32:17 6.3 C 37 %
1361 24-12-2019 10:42:17 6.8 C 37 %
1362 24-12-2019 10:52:17 6.7 C 33 %
1363 24-12-2019 11:02:17 6.8 C 35 %
1364 24-12-2019 11:12:17 6.9 C 34 %
1365 24-12-2019 11:22:17 7.5 C 32 %
1366 24-12-2019 11:32:17 8 C 30 %
1367 24-12-2019 11:42:17 8.2 C 29 %
1368 24-12-2019 11:52:18 8 C 29 %
1369 24-12-2019 12:02:17 7.8 C 30 %
1370 24-12-2019 12:12:17 7.6 C 30 %
1371 24-12-2019 12:22:17 8 C 28 %
1372 24-12-2019 12:32:17 8.2 C 27 %
1373 24-12-2019 12:42:17 8.4 C 27 %
1374 24-12-2019 12:52:18 8.9 C 27 %
1375 24-12-2019 13:02:17 9.2 C 25 %
Sensor: Nr:Datum:Temp:Feuchte:
Aussen-T/F 1376 24-12-2019 13:12:17 9.3 C 25 %
1377 24-12-2019 13:22:17 9.3 C 25 %
1378 24-12-2019 13:32:17 9.2 C 26 %
1379 24-12-2019 13:42:17 9.3 C 26 %
1380 24-12-2019 13:52:17 9.3 C 26 %
1381 24-12-2019 14:02:18 9.4 C 25 %
1382 24-12-2019 14:12:18 9.5 C 25 %
1383 24-12-2019 14:22:17 9.6 C 25 %
1384 24-12-2019 14:32:18 9.7 C 25 %
1385 24-12-2019 14:42:18 9.3 C 26 %
1386 24-12-2019 14:52:17 9.2 C 27 %
1387 24-12-2019 15:02:18 9.1 C 27 %
1388 24-12-2019 15:12:18 9.5 C 26 %
1389 24-12-2019 15:22:17 9.8 C 25 %
1390 24-12-2019 15:32:17 10 C 22 %
1391 24-12-2019 15:42:17 10.1 C 20 %
1392 24-12-2019 15:52:17 10.5 C 20 %
1393 24-12-2019 16:02:17 10.1 C 20 %
1394 24-12-2019 16:12:17 10 C 20 %
1395 24-12-2019 16:22:17 10.2 C 20 %
1396 24-12-2019 16:32:17 9.8 C 20 %
1397 24-12-2019 16:42:17 9.7 C 21 %
1398 24-12-2019 16:52:17 10.1 C 20 %
1399 24-12-2019 17:02:17 9.8 C 20 %
1400 24-12-2019 17:12:17 9.4 C 20 %
Sensor: Nr:Datum:Temp:Feuchte:
Aussen-T/F 1401 24-12-2019 17:22:18 9.6 C 20 %
1402 24-12-2019 17:32:17 8.8 C 20 %
1403 24-12-2019 17:42:17 9.1 C 20 %
1404 24-12-2019 17:52:17 9.3 C 20 %
1405 24-12-2019 18:02:17 9 C 20 %
1406 24-12-2019 18:12:17 8.5 C 26 %
1407 24-12-2019 18:22:17 8.9 C 25 %
1408 24-12-2019 18:32:17 8.2 C 28 %
1409 24-12-2019 18:42:17 7.8 C 31 %
1410 24-12-2019 18:52:17 7.5 C 35 %
1411 24-12-2019 19:02:17 7.6 C 31 %
1412 24-12-2019 19:12:17 7.3 C 31 %
1413 24-12-2019 19:22:17 6.7 C 35 %
1414 24-12-2019 19:32:17 6.5 C 40 %
1415 24-12-2019 19:42:17 6.5 C 36 %
1416 24-12-2019 19:52:17 6.2 C 36 %
1417 24-12-2019 20:02:17 6.7 C 35 %
1418 24-12-2019 20:12:17 7.3 C 30 %
1419 24-12-2019 20:22:17 7.2 C 32 %
1420 24-12-2019 20:32:18 7.1 C 30 %
1421 24-12-2019 20:42:18 7.3 C 31 %
1422 24-12-2019 20:52:17 7.3 C 30 %
1423 24-12-2019 21:02:17 7.1 C 31 %
1424 24-12-2019 21:12:17 7.7 C 30 %
1425 24-12-2019 21:22:17 7.4 C 30 %
Sensor: Nr:Datum:Temp:Feuchte:
Aussen-T/F 1426 24-12-2019 21:32:17 7.6 C 30 %
1427 24-12-2019 21:42:17 7.9 C 29 %
1428 24-12-2019 21:52:17 8.1 C 28 %
1429 24-12-2019 22:02:17 8.6 C 26 %
1430 24-12-2019 22:12:17 8.5 C 26 %
1431 24-12-2019 22:22:17 8.3 C 26 %
1432 24-12-2019 22:32:17 8.4 C 26 %
1433 24-12-2019 22:42:17 8.2 C 27 %
1434 24-12-2019 22:52:17 8 C 28 %
1435 24-12-2019 23:02:17 8.4 C 27 %
1436 24-12-2019 23:12:17 8.4 C 27 %
1437 24-12-2019 23:22:17 8.4 C 27 %
1438 24-12-2019 23:32:17 8.5 C 27 %
1439 24-12-2019 23:42:17 8.5 C 27 %
1440 24-12-2019 23:52:17 8.4 C 27 %
1441 25-12-2019 00:02:17 8.4 C 27 %
1442 25-12-2019 00:12:17 8.4 C 27 %
1443 25-12-2019 00:22:17 8.4 C 28 %
1444 25-12-2019 00:32:17 8.3 C 28 %
1445 25-12-2019 00:42:18 8.2 C 29 %
1446 25-12-2019 00:52:17 8.2 C 29 %
1447 25-12-2019 01:02:17 7.8 C 32 %
1448 25-12-2019 01:12:17 7.7 C 33 %
1449 25-12-2019 01:22:17 7.5 C 35 %
1450 25-12-2019 01:32:18 7.3 C 35 %
Sensor: Nr:Datum:Temp:Feuchte:
Aussen-T/F 1451 25-12-2019 01:42:18 7.5 C 35 %
1452 25-12-2019 01:52:17 7.6 C 33 %
1453 25-12-2019 02:02:17 7.7 C 32 %
1454 25-12-2019 02:12:17 8 C 31 %
1455 25-12-2019 02:22:17 7.9 C 31 %
1456 25-12-2019 02:32:18 7.9 C 31 %
1457 25-12-2019 02:42:18 7.9 C 31 %
1458 25-12-2019 02:52:17 7.9 C 31 %
1459 25-12-2019 03:02:17 7.8 C 31 %
1460 25-12-2019 03:12:17 7.9 C 32 %
1461 25-12-2019 03:22:17 8.1 C 31 %
1462 25-12-2019 03:32:17 8.3 C 30 %
1463 25-12-2019 03:42:17 8.2 C 30 %
1464 25-12-2019 03:52:18 8.2 C 30 %
1465 25-12-2019 04:02:17 7.9 C 34 %
1466 25-12-2019 04:12:17 8 C 34 %
1467 25-12-2019 04:22:18 7.9 C 35 %
1468 25-12-2019 04:32:17 7.9 C 36 %
1469 25-12-2019 04:42:17 7.9 C 38 %
1470 25-12-2019 04:52:17 7.9 C 36 %
1471 25-12-2019 05:02:17 7.9 C 37 %
1472 25-12-2019 05:12:17 7.8 C 37 %
1473 25-12-2019 05:22:18 7.6 C 38 %
1474 25-12-2019 05:32:17 8 C 36 %
1475 25-12-2019 05:42:17 7.9 C 35 %
Sensor: Nr:Datum:Temp:Feuchte:
Aussen-T/F 1476 25-12-2019 05:52:17 7.5 C 35 %
1477 25-12-2019 06:02:18 7.5 C 35 %
1478 25-12-2019 06:12:18 7.2 C 36 %
1479 25-12-2019 06:22:17 7.2 C 37 %
1480 25-12-2019 06:32:18 7.3 C 37 %
1481 25-12-2019 06:42:18 7.3 C 36 %
1482 25-12-2019 06:52:17 7.1 C 39 %
1483 25-12-2019 07:02:18 7.3 C 33 %
1484 25-12-2019 07:12:18 7.1 C 32 %
1485 25-12-2019 07:22:17 6.9 C 35 %
1486 25-12-2019 07:32:18 6.8 C 38 %
1487 25-12-2019 07:42:18 6.9 C 38 %
1488 25-12-2019 07:52:17 7 C 35 %
1489 25-12-2019 08:02:18 6.8 C 32 %
1490 25-12-2019 08:12:18 6.4 C 32 %
1491 25-12-2019 08:22:17 6.2 C 33 %
1492 25-12-2019 08:32:17 6.2 C 32 %
1493 25-12-2019 08:42:17 6.5 C 32 %
1494 25-12-2019 08:52:17 6.7 C 31 %
1495 25-12-2019 09:02:17 6.9 C 30 %
1496 25-12-2019 09:12:17 6.9 C 30 %
1497 25-12-2019 09:22:18 6.8 C 30 %
1498 25-12-2019 09:32:17 7.3 C 28 %
1499 25-12-2019 09:42:17 7.3 C 27 %
1500 25-12-2019 09:52:17 7.3 C 27 %
Sensor: Nr:Datum:Temp:Feuchte:
Aussen-T/F 1501 25-12-2019 10:02:17 7.1 C 29 %
1502 25-12-2019 10:12:17 7.3 C 27 %
1503 25-12-2019 10:22:18 7.6 C 26 %
1504 25-12-2019 10:32:17 7.7 C 26 %
1505 25-12-2019 10:42:17 7.8 C 25 %
1506 25-12-2019 10:52:17 7.5 C 26 %
1507 25-12-2019 11:02:17 7.5 C 26 %
1508 25-12-2019 11:12:17 7.5 C 26 %
1509 25-12-2019 11:22:17 7.7 C 26 %
1510 25-12-2019 11:32:17 7.4 C 26 %
1511 25-12-2019 11:42:17 7.4 C 27 %
1512 25-12-2019 11:52:18 7.1 C 28 %
1513 25-12-2019 12:02:17 7.1 C 29 %
1514 25-12-2019 12:12:17 7.6 C 27 %
1515 25-12-2019 12:22:17 7.6 C 27 %
1516 25-12-2019 12:32:17 7.7 C 27 %
1517 25-12-2019 12:42:17 7.8 C 27 %
1518 25-12-2019 12:52:18 7.6 C 27 %
1519 25-12-2019 13:02:17 7.1 C 29 %
1520 25-12-2019 13:12:17 7 C 31 %
1521 25-12-2019 13:22:18 6.9 C 31 %
1522 25-12-2019 13:32:17 7.1 C 30 %
1523 25-12-2019 13:42:17 7 C 30 %
1524 25-12-2019 13:52:17 6.9 C 30 %
1525 25-12-2019 14:02:17 7.1 C 30 %
Sensor: Nr:Datum:Temp:Feuchte:
Aussen-T/F 1526 25-12-2019 14:12:17 7.4 C 29 %
1527 25-12-2019 14:22:18 7.6 C 28 %
1528 25-12-2019 14:32:17 7.7 C 29 %
1529 25-12-2019 14:42:17 7.6 C 29 %
1530 25-12-2019 14:52:17 7.1 C 31 %
1531 25-12-2019 15:02:17 7.1 C 32 %
1532 25-12-2019 15:12:17 7.1 C 30 %
1533 25-12-2019 15:22:18 7.1 C 31 %
1534 25-12-2019 15:32:17 7.4 C 30 %
1535 25-12-2019 15:42:17 7.3 C 31 %
1536 25-12-2019 15:52:17 7.2 C 30 %
1537 25-12-2019 16:02:17 7.2 C 30 %
1538 25-12-2019 16:12:17 6.9 C 31 %
1539 25-12-2019 16:22:17 6.8 C 32 %
1540 25-12-2019 16:32:17 6.7 C 35 %
1541 25-12-2019 16:42:17 6.9 C 32 %
1542 25-12-2019 16:52:17 6.9 C 31 %
1543 25-12-2019 17:02:17 6.8 C 30 %
1544 25-12-2019 17:12:17 6.7 C 30 %
1545 25-12-2019 17:22:18 6.6 C 31 %
1546 25-12-2019 17:32:17 6.2 C 31 %
1547 25-12-2019 17:42:17 5.7 C 35 %
1548 25-12-2019 17:52:18 5.9 C 35 %
1549 25-12-2019 18:02:17 6 C 33 %
1550 25-12-2019 18:12:17 6.1 C 32 %
Sensor: Nr:Datum:Temp:Feuchte:
Aussen-T/F 1551 25-12-2019 18:22:17 6.2 C 33 %
1552 25-12-2019 18:32:17 6.2 C 33 %
1553 25-12-2019 18:42:17 6.2 C 32 %
1554 25-12-2019 18:52:17 6.2 C 32 %
1555 25-12-2019 19:02:17 6 C 33 %
1556 25-12-2019 19:12:17 5.9 C 33 %
1557 25-12-2019 19:22:17 6.1 C 32 %
1558 25-12-2019 19:32:18 6.1 C 32 %
1559 25-12-2019 19:42:18 6 C 33 %
1560 25-12-2019 19:52:17 5.9 C 33 %
1561 25-12-2019 20:02:17 5.8 C 35 %
1562 25-12-2019 20:12:17 5.9 C 35 %
1563 25-12-2019 20:22:18 5.9 C 34 %
1564 25-12-2019 20:32:17 5.8 C 34 %
1565 25-12-2019 20:42:17 5.6 C 37 %
1566 25-12-2019 20:52:17 5.5 C 38 %
1567 25-12-2019 21:02:18 5.5 C 38 %
1568 25-12-2019 21:12:18 5.4 C 40 %
1569 25-12-2019 21:22:17 5.3 C 41 %
1570 25-12-2019 21:32:17 5.3 C 43 %
1571 25-12-2019 21:42:17 5.3 C 42 %
1572 25-12-2019 21:52:17 5.2 C 42 %
1573 25-12-2019 22:02:18 5.2 C 42 %
1574 25-12-2019 22:12:18 5.1 C 43 %
1575 25-12-2019 22:22:17 5.2 C 42 %
Sensor: Nr:Datum:Temp:Feuchte:
Aussen-T/F 1576 25-12-2019 22:32:18 5.1 C 41 %
1577 25-12-2019 22:42:18 5.1 C 42 %
1578 25-12-2019 22:52:17 5.2 C 42 %
1579 25-12-2019 23:02:18 5.2 C 42 %
1580 25-12-2019 23:12:18 5.2 C 42 %
1581 25-12-2019 23:22:17 5.2 C 42 %
1582 25-12-2019 23:32:17 5.1 C 42 %
1583 25-12-2019 23:42:17 4.7 C 42 %
1584 25-12-2019 23:52:17 4.5 C 42 %
1585 26-12-2019 00:02:17 4.6 C 43 %
1586 26-12-2019 00:12:18 4 C 42 %
1587 26-12-2019 00:22:17 3.6 C 42 %
1588 26-12-2019 00:32:18 3.9 C 44 %
1589 26-12-2019 00:42:18 3.9 C 44 %
1590 26-12-2019 00:52:17 4.1 C 43 %
1591 26-12-2019 01:02:18 4.4 C 43 %
1592 26-12-2019 01:12:18 4.3 C 43 %
1593 26-12-2019 01:22:17 4.3 C 43 %
1594 26-12-2019 01:32:17 4.4 C 43 %
1595 26-12-2019 01:42:17 4.4 C 43 %
1596 26-12-2019 01:52:17 4.3 C 42 %
1597 26-12-2019 02:02:18 4.3 C 42 %
1598 26-12-2019 02:12:18 4.4 C 42 %
1599 26-12-2019 02:22:17 4.2 C 42 %
1600 26-12-2019 02:32:17 4 C 42 %
Sensor: Nr:Datum:Temp:Feuchte:
Aussen-T/F 1601 26-12-2019 02:42:17 4 C 42 %
1602 26-12-2019 02:52:17 4.2 C 42 %
1603 26-12-2019 03:02:18 4.2 C 42 %
1604 26-12-2019 03:12:18 4.1 C 42 %
1605 26-12-2019 03:22:17 4.1 C 42 %
1606 26-12-2019 03:32:17 4.1 C 42 %
1607 26-12-2019 03:42:17 4.1 C 42 %
1608 26-12-2019 03:52:17 3.9 C 43 %
1609 26-12-2019 04:02:17 3.6 C 42 %
1610 26-12-2019 04:12:17 3.6 C 42 %
1611 26-12-2019 04:22:18 3.4 C 42 %
1612 26-12-2019 04:32:17 3 C 42 %
1613 26-12-2019 04:42:17 3.1 C 42 %
1614 26-12-2019 04:52:17 3.1 C 43 %
1615 26-12-2019 05:02:17 3.3 C 43 %
1616 26-12-2019 05:12:17 3.5 C 43 %
1617 26-12-2019 05:22:17 3.4 C 43 %
1618 26-12-2019 05:32:18 3.5 C 43 %
1619 26-12-2019 05:42:18 3.4 C 43 %
1620 26-12-2019 05:52:17 3.5 C 43 %
1621 26-12-2019 06:02:17 3.6 C 43 %
1622 26-12-2019 06:12:18 3.6 C 43 %
1623 26-12-2019 06:22:17 3.5 C 43 %
1624 26-12-2019 06:32:18 3.6 C 43 %
1625 26-12-2019 06:42:18 3.5 C 43 %
Sensor: Nr:Datum:Temp:Feuchte:
Aussen-T/F 1626 26-12-2019 06:52:17 3.5 C 43 %
1627 26-12-2019 07:02:18 3.5 C 43 %
1628 26-12-2019 07:12:18 3.5 C 43 %
1629 26-12-2019 07:22:17 3.4 C 43 %
1630 26-12-2019 07:32:17 3.4 C 43 %
1631 26-12-2019 07:42:17 3.4 C 43 %
1632 26-12-2019 07:52:17 3.4 C 43 %
1633 26-12-2019 08:02:18 3.4 C 43 %
1634 26-12-2019 08:12:18 3.4 C 43 %
1635 26-12-2019 08:22:17 3.5 C 43 %
1636 26-12-2019 08:32:17 3.4 C 43 %
1637 26-12-2019 08:42:17 3.4 C 43 %
1638 26-12-2019 08:52:17 3.5 C 43 %
1639 26-12-2019 09:02:17 3.5 C 43 %
1640 26-12-2019 09:12:17 3.5 C 43 %
1641 26-12-2019 09:22:17 3.4 C 42 %
1642 26-12-2019 09:32:17 3.5 C 43 %
1643 26-12-2019 09:42:17 3.6 C 42 %
1644 26-12-2019 09:52:18 3.6 C 42 %
1645 26-12-2019 10:02:17 3.6 C 42 %
1646 26-12-2019 10:12:17 3.6 C 42 %
1647 26-12-2019 10:22:18 3.8 C 42 %
1648 26-12-2019 10:32:17 4 C 41 %
1649 26-12-2019 10:42:17 4.3 C 41 %
1650 26-12-2019 10:52:18 4.5 C 41 %
Sensor: Nr:Datum:Temp:Feuchte:
Aussen-T/F 1651 26-12-2019 11:02:17 4.7 C 41 %
1652 26-12-2019 11:12:17 4.8 C 41 %
1653 26-12-2019 11:22:17 5 C 40 %
1654 26-12-2019 11:32:17 5.4 C 40 %
1655 26-12-2019 11:42:17 5.5 C 39 %
1656 26-12-2019 11:52:17 5.6 C 37 %
1657 26-12-2019 12:02:17 5.7 C 36 %
1658 26-12-2019 12:12:17 5.7 C 36 %
1659 26-12-2019 12:22:17 5.7 C 35 %
1660 26-12-2019 12:32:18 5.9 C 35 %
1661 26-12-2019 12:42:18 6 C 35 %
1662 26-12-2019 12:52:17 6 C 36 %
1663 26-12-2019 13:02:18 5.9 C 36 %
1664 26-12-2019 13:12:18 5.9 C 37 %
1665 26-12-2019 13:22:17 5.8 C 36 %
1666 26-12-2019 13:32:18 5.8 C 36 %
1667 26-12-2019 13:42:18 5.7 C 36 %
1668 26-12-2019 13:52:17 5.7 C 36 %
1669 26-12-2019 14:02:18 5.7 C 36 %
1670 26-12-2019 14:12:18 5.8 C 35 %
1671 26-12-2019 14:22:17 6 C 35 %
1672 26-12-2019 14:32:17 6 C 35 %
1673 26-12-2019 14:42:17 5.7 C 35 %
1674 26-12-2019 14:52:17 5.6 C 36 %
1675 26-12-2019 15:02:17 5.5 C 36 %
Sensor: Nr:Datum:Temp:Feuchte:
Aussen-T/F 1676 26-12-2019 15:12:17 5.4 C 36 %
1677 26-12-2019 15:22:17 5.1 C 38 %
1678 26-12-2019 15:32:17 5 C 37 %
1679 26-12-2019 15:42:17 4.8 C 39 %
1680 26-12-2019 15:52:18 4.8 C 39 %
1681 26-12-2019 16:02:17 4.7 C 38 %
1682 26-12-2019 16:12:17 4.6 C 39 %
1683 26-12-2019 16:22:17 4.5 C 40 %
1684 26-12-2019 16:32:17 4.4 C 41 %
1685 26-12-2019 16:42:18 4.4 C 40 %
1686 26-12-2019 16:53:17 4.3 C 41 %
1687 26-12-2019 17:02:17 4.4 C 40 %
1688 26-12-2019 17:12:17 4.3 C 40 %
1689 26-12-2019 17:22:17 4.3 C 40 %
1690 26-12-2019 17:32:17 4.4 C 40 %
1691 26-12-2019 17:42:17 4.1 C 40 %
1692 26-12-2019 17:52:17 4.1 C 40 %
1693 26-12-2019 18:02:17 4 C 40 %
1694 26-12-2019 18:12:17 4 C 41 %
1695 26-12-2019 18:22:17 4.1 C 41 %
1696 26-12-2019 18:32:17 4.1 C 41 %
1697 26-12-2019 18:42:18 4.1 C 40 %
1698 26-12-2019 18:53:17 4.1 C 40 %
1699 26-12-2019 19:02:17 4 C 40 %
1700 26-12-2019 19:12:17 4 C 41 %
Sensor: Nr:Datum:Temp:Feuchte:
Aussen-T/F 1701 26-12-2019 19:23:17 4 C 41 %
1702 26-12-2019 19:32:17 3.8 C 41 %
1703 26-12-2019 19:42:17 4 C 41 %
1704 26-12-2019 19:53:17 3.8 C 41 %
1705 26-12-2019 20:02:17 3.8 C 42 %
1706 26-12-2019 20:12:17 3.9 C 42 %
1707 26-12-2019 20:23:17 4 C 41 %
1708 26-12-2019 20:32:17 4.1 C 40 %
1709 26-12-2019 20:42:17 4.2 C 39 %
1710 26-12-2019 20:53:17 4.1 C 38 %
1711 26-12-2019 21:02:17 4.3 C 37 %
1712 26-12-2019 21:12:17 4.2 C 38 %
1713 26-12-2019 21:23:17 4.1 C 38 %
1714 26-12-2019 21:32:18 4.1 C 38 %
1715 26-12-2019 21:42:18 4.2 C 37 %
1716 26-12-2019 21:52:17 4.3 C 37 %
1717 26-12-2019 22:02:18 4.1 C 39 %
1718 26-12-2019 22:12:18 4.1 C 41 %
1719 26-12-2019 22:22:17 4.1 C 41 %
1720 26-12-2019 22:33:17 4.1 C 41 %
1721 26-12-2019 22:43:17 4.1 C 42 %
1722 26-12-2019 22:52:17 4.1 C 42 %
1723 26-12-2019 23:03:17 4.1 C 43 %
1724 26-12-2019 23:13:17 4.1 C 43 %
1725 26-12-2019 23:23:17 4 C 43 %
Sensor: Nr:Datum:Temp:Feuchte:
Aussen-T/F 1726 26-12-2019 23:32:17 4 C 43 %
1727 26-12-2019 23:42:17 4 C 42 %
1728 26-12-2019 23:53:17 4 C 42 %
1729 27-12-2019 00:02:17 4 C 42 %
1730 27-12-2019 00:12:17 4 C 42 %
1731 27-12-2019 00:23:17 4 C 42 %
1732 27-12-2019 00:32:17 4 C 42 %
1733 27-12-2019 00:42:18 4.1 C 42 %
1734 27-12-2019 00:53:17 4.1 C 42 %
1735 27-12-2019 01:03:18 4.1 C 42 %
1736 27-12-2019 01:13:18 4.1 C 42 %
1737 27-12-2019 01:23:17 4.1 C 42 %
1738 27-12-2019 01:33:17 4.1 C 42 %
1739 27-12-2019 01:43:17 4.1 C 42 %
1740 27-12-2019 01:53:18 4.1 C 42 %
1741 27-12-2019 02:03:17 4.1 C 42 %
1742 27-12-2019 02:13:17 4.1 C 42 %
1743 27-12-2019 02:23:17 4.1 C 42 %
1744 27-12-2019 02:33:18 4.1 C 42 %
1745 27-12-2019 02:43:19 4.1 C 42 %
1746 27-12-2019 02:53:17 4.2 C 42 %
1747 27-12-2019 03:03:17 4.3 C 42 %
1748 27-12-2019 03:13:17 4.2 C 42 %
1749 27-12-2019 03:23:17 4.3 C 42 %
1750 27-12-2019 03:33:17 4.3 C 42 %
Sensor: Nr:Datum:Temp:Feuchte:
Aussen-T/F 1751 27-12-2019 03:43:18 4.3 C 42 %
1752 27-12-2019 03:53:17 4.3 C 42 %
1753 27-12-2019 04:03:17 4.3 C 42 %
1754 27-12-2019 04:13:17 4.3 C 42 %
1755 27-12-2019 04:23:17 4.3 C 42 %
1756 27-12-2019 04:33:17 4.3 C 42 %
1757 27-12-2019 04:43:17 4.3 C 42 %
1758 27-12-2019 04:53:18 4.4 C 42 %
1759 27-12-2019 05:03:17 4.4 C 42 %
1760 27-12-2019 05:13:17 4.4 C 42 %
1761 27-12-2019 05:23:17 4.4 C 42 %
1762 27-12-2019 05:33:17 4.3 C 42 %
1763 27-12-2019 05:43:17 4.4 C 42 %
1764 27-12-2019 05:53:17 4.4 C 42 %
1765 27-12-2019 06:03:17 4.4 C 42 %
1766 27-12-2019 06:13:17 4.4 C 42 %
1767 27-12-2019 06:23:17 4.4 C 42 %
1768 27-12-2019 06:33:17 4.4 C 42 %
1769 27-12-2019 06:43:17 4.4 C 42 %
1770 27-12-2019 06:53:17 4.4 C 42 %
1771 27-12-2019 07:03:17 4.5 C 42 %
1772 27-12-2019 07:13:17 4.4 C 42 %
1773 27-12-2019 07:23:18 4.4 C 42 %
1774 27-12-2019 07:33:17 4.4 C 42 %
1775 27-12-2019 07:43:17 4.4 C 42 %
Sensor: Nr:Datum:Temp:Feuchte:
Aussen-T/F 1776 27-12-2019 07:53:17 4.3 C 42 %
1777 27-12-2019 08:03:17 4.3 C 42 %
1778 27-12-2019 08:13:17 4.3 C 42 %
1779 27-12-2019 08:23:17 4.3 C 42 %
1780 27-12-2019 08:33:17 4.3 C 42 %
1781 27-12-2019 08:43:17 4.3 C 42 %
1782 27-12-2019 08:53:18 4.3 C 42 %
1783 27-12-2019 09:03:17 4.4 C 42 %
1784 27-12-2019 09:13:17 4.4 C 42 %
1785 27-12-2019 09:23:17 4.3 C 42 %
1786 27-12-2019 09:33:17 4.5 C 42 %
1787 27-12-2019 09:43:17 4.6 C 42 %
1788 27-12-2019 09:53:17 4.8 C 41 %
1789 27-12-2019 10:03:17 4.9 C 41 %
1790 27-12-2019 10:13:17 4.8 C 40 %
1791 27-12-2019 10:23:17 4.8 C 40 %
1792 27-12-2019 10:33:18 4.9 C 40 %
1793 27-12-2019 10:43:18 4.9 C 40 %
1794 27-12-2019 10:53:17 5 C 38 %
1795 27-12-2019 11:03:18 5 C 38 %
1796 27-12-2019 11:13:18 5.1 C 37 %
1797 27-12-2019 11:23:17 5.1 C 37 %
1798 27-12-2019 11:33:17 5.2 C 36 %
1799 27-12-2019 11:43:17 5.7 C 33 %
1800 27-12-2019 11:53:17 6 C 31 %
Sensor: Nr:Datum:Temp:Feuchte:
Aussen-T/F 1801 27-12-2019 12:03:17 6.1 C 31 %
1802 27-12-2019 12:13:17 5.9 C 31 %
1803 27-12-2019 12:23:17 5.9 C 31 %
1804 27-12-2019 12:33:17 6 C 31 %
1805 27-12-2019 12:43:17 6 C 31 %
1806 27-12-2019 12:53:17 5.9 C 31 %
1807 27-12-2019 13:03:17 5.7 C 31 %
1808 27-12-2019 13:13:17 5.7 C 31 %
1809 27-12-2019 13:23:17 5.6 C 31 %
1810 27-12-2019 13:33:17 5.7 C 31 %
1811 27-12-2019 13:43:17 5.7 C 30 %
1812 27-12-2019 13:53:17 5.8 C 30 %
1813 27-12-2019 14:03:18 5.9 C 30 %
1814 27-12-2019 14:13:18 6.1 C 29 %
1815 27-12-2019 14:23:18 5.9 C 29 %
1816 27-12-2019 14:33:17 6 C 30 %
1817 27-12-2019 14:43:17 5.9 C 28 %
1818 27-12-2019 14:53:18 5.8 C 26 %
1819 27-12-2019 15:03:17 5.7 C 27 %
1820 27-12-2019 15:13:17 5.7 C 28 %
1821 27-12-2019 15:23:18 5.6 C 29 %
1822 27-12-2019 15:33:17 5.6 C 29 %
1823 27-12-2019 15:43:17 5.4 C 30 %
1824 27-12-2019 15:53:17 5.3 C 31 %
1825 27-12-2019 16:03:17 5.1 C 33 %
Sensor: Nr:Datum:Temp:Feuchte:
Aussen-T/F 1826 27-12-2019 16:13:17 4.9 C 33 %
1827 27-12-2019 16:23:17 4.9 C 33 %
1828 27-12-2019 16:33:17 4.8 C 34 %
1829 27-12-2019 16:43:17 4.7 C 33 %
1830 27-12-2019 16:53:17 4.6 C 34 %
1831 27-12-2019 17:03:17 4.5 C 34 %
1832 27-12-2019 17:13:17 4.5 C 35 %
1833 27-12-2019 17:23:17 4.5 C 33 %
1834 27-12-2019 17:33:18 4.5 C 34 %
1835 27-12-2019 17:43:18 4.5 C 34 %
1836 27-12-2019 17:53:17 4.4 C 34 %
1837 27-12-2019 18:03:18 4.4 C 33 %
1838 27-12-2019 18:13:18 4.4 C 33 %
1839 27-12-2019 18:23:17 4.4 C 32 %
1840 27-12-2019 18:33:18 4.4 C 34 %
1841 27-12-2019 18:43:18 4.3 C 34 %
1842 27-12-2019 18:53:17 4.2 C 33 %
1843 27-12-2019 19:03:17 4.2 C 33 %
1844 27-12-2019 19:13:17 4.2 C 33 %
1845 27-12-2019 19:23:17 4.3 C 32 %
1846 27-12-2019 19:33:17 4.2 C 33 %
1847 27-12-2019 19:43:17 4.1 C 34 %
1848 27-12-2019 19:53:18 3.9 C 35 %
1849 27-12-2019 20:03:17 3.8 C 34 %
1850 27-12-2019 20:13:17 4 C 32 %
Sensor: Nr:Datum:Temp:Feuchte:
Aussen-T/F 1851 27-12-2019 20:23:17 4 C 32 %
1852 27-12-2019 20:33:18 4 C 32 %
1853 27-12-2019 20:43:18 4 C 31 %
1854 27-12-2019 20:53:17 4.1 C 31 %
1855 27-12-2019 21:03:18 4.1 C 31 %
1856 27-12-2019 21:13:18 4 C 31 %
1857 27-12-2019 21:23:17 4 C 31 %
1858 27-12-2019 21:33:18 3.9 C 33 %
1859 27-12-2019 21:43:18 3.9 C 32 %
1860 27-12-2019 21:53:17 3.7 C 32 %
1861 27-12-2019 22:03:17 3.6 C 32 %
1862 27-12-2019 22:13:17 3.3 C 32 %
1863 27-12-2019 22:23:17 3.2 C 32 %
1864 27-12-2019 22:33:17 2.7 C 33 %
1865 27-12-2019 22:43:17 2.2 C 34 %
1866 27-12-2019 22:53:17 2 C 35 %
1867 27-12-2019 23:03:18 1.7 C 38 %
1868 27-12-2019 23:13:18 1.3 C 39 %
1869 27-12-2019 23:23:17 1.2 C 41 %
1870 27-12-2019 23:33:17 0.9 C 42 %
1871 27-12-2019 23:43:17 0.8 C 41 %
1872 27-12-2019 23:53:17 0.7 C 41 %
1873 28-12-2019 00:03:17 0.5 C 40 %
1874 28-12-2019 00:13:17 0.4 C 41 %
1875 28-12-2019 00:23:18 0.4 C 41 %
Sensor: Nr:Datum:Temp:Feuchte:
Aussen-T/F 1876 28-12-2019 00:33:17 0.3 C 41 %
1877 28-12-2019 00:43:17 0.3 C 41 %
1878 28-12-2019 00:53:17 0.2 C 40 %
1879 28-12-2019 01:03:17 0.1 C 40 %
1880 28-12-2019 01:13:17 -0.2 C 43 %
1881 28-12-2019 01:23:17 -0.5 C 43 %
1882 28-12-2019 01:33:17 -0.3 C 44 %
1883 28-12-2019 01:43:17 -0.7 C 42 %
1884 28-12-2019 01:53:17 -1.1 C 43 %
1885 28-12-2019 02:03:17 -1.3 C 45 %
1886 28-12-2019 02:13:17 -1.5 C 44 %
1887 28-12-2019 02:23:17 -1.7 C 44 %
1888 28-12-2019 02:33:18 -1.5 C 45 %
1889 28-12-2019 02:43:18 -1.5 C 45 %
1890 28-12-2019 02:53:17 -1.6 C 45 %
1891 28-12-2019 03:03:17 -1.9 C 45 %
1892 28-12-2019 03:13:18 -1.7 C 45 %
1893 28-12-2019 03:23:17 -2.1 C 45 %
1894 28-12-2019 03:33:17 -2.1 C 45 %
1895 28-12-2019 03:43:17 -2.1 C 45 %
1896 28-12-2019 03:53:18 -2.4 C 45 %
1897 28-12-2019 04:03:17 -2.4 C 45 %
1898 28-12-2019 04:13:17 -2.4 C 45 %
1899 28-12-2019 04:23:17 -2.3 C 45 %
1900 28-12-2019 04:33:17 -2.4 C 45 %
Sensor: Nr:Datum:Temp:Feuchte:
Aussen-T/F 1901 28-12-2019 04:43:18 -2.3 C 45 %
1902 28-12-2019 04:53:17 -2.4 C 45 %
1903 28-12-2019 05:03:18 -2.6 C 44 %
1904 28-12-2019 05:13:18 -2.7 C 44 %
1905 28-12-2019 05:23:17 -2.5 C 45 %
1906 28-12-2019 05:33:18 -2.5 C 45 %
1907 28-12-2019 05:43:18 -2.1 C 45 %
1908 28-12-2019 05:53:17 -2.3 C 45 %
1909 28-12-2019 06:03:17 -1.8 C 45 %
1910 28-12-2019 06:13:18 -2.1 C 44 %
1911 28-12-2019 06:23:17 -2.2 C 43 %
1912 28-12-2019 06:33:17 -2 C 44 %
1913 28-12-2019 06:43:18 -1.9 C 44 %
1914 28-12-2019 06:53:17 -2.1 C 43 %
1915 28-12-2019 07:03:18 -2 C 43 %
1916 28-12-2019 07:13:18 -2.3 C 43 %
1917 28-12-2019 07:23:17 -2.8 C 42 %
1918 28-12-2019 07:33:17 -2.3 C 43 %
1919 28-12-2019 07:43:17 -2.4 C 43 %
1920 28-12-2019 07:53:17 -2.2 C 44 %
1921 28-12-2019 08:03:17 -2.6 C 43 %
1922 28-12-2019 08:13:17 -3 C 42 %
1923 28-12-2019 08:23:18 -3.1 C 42 %
1924 28-12-2019 08:33:17 -3.2 C 42 %
1925 28-12-2019 08:43:17 -3.2 C 42 %
Sensor: Nr:Datum:Temp:Feuchte:
Aussen-T/F 1926 28-12-2019 08:53:17 -2.9 C 43 %
1927 28-12-2019 09:03:18 -2.9 C 43 %
1928 28-12-2019 09:13:18 -2.8 C 43 %
1929 28-12-2019 09:23:17 -2.7 C 43 %
1930 28-12-2019 09:33:17 -2.5 C 43 %
1931 28-12-2019 09:43:17 -1.9 C 45 %
1932 28-12-2019 09:53:17 -1.7 C 45 %
1933 28-12-2019 10:03:17 -1.6 C 45 %
1934 28-12-2019 10:13:17 -1.4 C 45 %
1935 28-12-2019 10:23:17 -1.5 C 45 %
1936 28-12-2019 10:33:18 -1.3 C 45 %
1937 28-12-2019 10:43:18 -1.3 C 45 %
1938 28-12-2019 10:53:17 -1.1 C 45 %
1939 28-12-2019 11:03:18 -1 C 44 %
1940 28-12-2019 11:13:18 -0.9 C 44 %
1941 28-12-2019 11:23:17 -0.6 C 44 %
1942 28-12-2019 11:33:17 -0.5 C 43 %
1943 28-12-2019 11:43:18 -0.3 C 42 %
1944 28-12-2019 11:53:17 -0.2 C 42 %
1945 28-12-2019 12:03:17 -0.2 C 41 %
1946 28-12-2019 12:13:17 0 C 41 %
1947 28-12-2019 12:23:17 0.2 C 41 %
1948 28-12-2019 12:33:17 0.3 C 41 %
1949 28-12-2019 12:43:18 0.4 C 40 %
1950 28-12-2019 12:53:17 0.5 C 40 %
Sensor: Nr:Datum:Temp:Feuchte:
Aussen-T/F 1951 28-12-2019 13:03:18 0.7 C 40 %
1952 28-12-2019 13:13:18 0.8 C 40 %
1953 28-12-2019 13:23:17 0.8 C 40 %
1954 28-12-2019 13:33:17 0.9 C 40 %
1955 28-12-2019 13:43:17 0.8 C 40 %
1956 28-12-2019 13:53:17 0.6 C 40 %
1957 28-12-2019 14:03:17 0.6 C 41 %
1958 28-12-2019 14:13:17 0.7 C 41 %
1959 28-12-2019 14:23:17 0.8 C 40 %
1960 28-12-2019 14:33:17 0.7 C 40 %
1961 28-12-2019 14:43:17 0.6 C 40 %
1962 28-12-2019 14:53:17 0.5 C 40 %
1963 28-12-2019 15:03:17 0.5 C 40 %
1964 28-12-2019 15:13:18 0.5 C 40 %
1965 28-12-2019 15:23:17 0.2 C 40 %
1966 28-12-2019 15:33:17 0.4 C 40 %
1967 28-12-2019 15:43:17 0.3 C 39 %
1968 28-12-2019 15:53:18 0.4 C 39 %
1969 28-12-2019 16:03:17 0.3 C 38 %
1970 28-12-2019 16:13:17 0.2 C 38 %
1971 28-12-2019 16:23:17 0 C 39 %
1972 28-12-2019 16:33:17 0 C 39 %
1973 28-12-2019 16:43:17 -0.1 C 38 %
1974 28-12-2019 16:53:17 -0.3 C 39 %
1975 28-12-2019 17:03:17 -0.4 C 39 %
Sensor: Nr:Datum:Temp:Feuchte:
Aussen-T/F 1976 28-12-2019 17:13:17 -0.4 C 40 %
1977 28-12-2019 17:23:17 -0.5 C 40 %
1978 28-12-2019 17:33:18 -0.6 C 40 %
1979 28-12-2019 17:43:18 -0.7 C 41 %
1980 28-12-2019 17:53:17 -1.3 C 41 %
1981 28-12-2019 18:03:17 -1.2 C 44 %
1982 28-12-2019 18:13:17 -1.1 C 43 %
1983 28-12-2019 18:23:17 -1.1 C 43 %
1984 28-12-2019 18:33:17 -0.9 C 43 %
1985 28-12-2019 18:43:17 -1.2 C 43 %
1986 28-12-2019 18:53:17 -0.9 C 43 %
1987 28-12-2019 19:03:17 -1.2 C 42 %
1988 28-12-2019 19:13:18 -1.7 C 42 %
1989 28-12-2019 19:23:17 -1.9 C 43 %
1990 28-12-2019 19:33:18 -1.9 C 44 %
1991 28-12-2019 19:43:18 -1.9 C 44 %
1992 28-12-2019 19:53:17 -1.8 C 44 %
1993 28-12-2019 20:03:17 -1.9 C 44 %
1994 28-12-2019 20:13:17 -1.7 C 45 %
1995 28-12-2019 20:23:17 -1.2 C 45 %
1996 28-12-2019 20:33:18 -1.2 C 43 %
1997 28-12-2019 20:43:18 -1.4 C 43 %
1998 28-12-2019 20:53:18 -1.2 C 44 %
1999 28-12-2019 21:03:17 -1.6 C 43 %
2000 28-12-2019 21:13:17 -1.3 C 44 %
Sensor: Nr:Datum:Temp:Feuchte:
Aussen-T/F 2001 28-12-2019 21:23:17 -1.4 C 41 %
2002 28-12-2019 21:33:17 -1.8 C 41 %
2003 28-12-2019 21:43:18 -1.6 C 43 %
2004 28-12-2019 21:53:17 -1.7 C 42 %
2005 28-12-2019 22:03:18 -1.7 C 42 %
2006 28-12-2019 22:13:18 -2.2 C 41 %
2007 28-12-2019 22:23:17 -2.3 C 42 %
2008 28-12-2019 22:33:17 -2.3 C 42 %
2009 28-12-2019 22:43:17 -2.5 C 42 %
2010 28-12-2019 22:53:17 -2.2 C 43 %
2011 28-12-2019 23:03:17 -2.5 C 42 %
2012 28-12-2019 23:13:17 -2.3 C 43 %
2013 28-12-2019 23:23:17 -2.3 C 43 %
2014 28-12-2019 23:33:17 -2.7 C 42 %
2015 28-12-2019 23:43:17 -2.6 C 43 %
2016 28-12-2019 23:53:17 -2.9 C 42 %
2017 29-12-2019 00:03:18 -2.6 C 43 %
2018 29-12-2019 00:13:18 -2.9 C 43 %
2019 29-12-2019 00:23:17 -3.1 C 42 %
2020 29-12-2019 00:33:17 -3.2 C 43 %
2021 29-12-2019 00:43:17 -3.1 C 43 %
2022 29-12-2019 00:53:17 -3.1 C 43 %
2023 29-12-2019 01:03:17 -3.3 C 42 %
2024 29-12-2019 01:13:17 -3.3 C 43 %
2025 29-12-2019 01:23:17 -3.5 C 42 %
Sensor: Nr:Datum:Temp:Feuchte:
Aussen-T/F 2026 29-12-2019 01:33:17 -3.7 C 42 %
2027 29-12-2019 01:43:17 -3 C 44 %
2028 29-12-2019 01:53:17 -3.5 C 42 %
2029 29-12-2019 02:03:17 -3.7 C 41 %
2030 29-12-2019 02:13:17 -3.8 C 42 %
2031 29-12-2019 02:23:17 -3.3 C 43 %
2032 29-12-2019 02:33:17 -3.7 C 41 %
2033 29-12-2019 02:43:17 -3.7 C 42 %
2034 29-12-2019 02:53:18 -3.8 C 41 %
2035 29-12-2019 03:03:17 -4 C 41 %
2036 29-12-2019 03:13:17 -4 C 42 %
2037 29-12-2019 03:23:17 -4 C 41 %
2038 29-12-2019 03:33:17 -4.1 C 41 %
2039 29-12-2019 03:43:17 -4.1 C 41 %
2040 29-12-2019 03:53:18 -4 C 42 %
2041 29-12-2019 04:03:17 -4.2 C 41 %
2042 29-12-2019 04:13:17 -3.9 C 42 %
2043 29-12-2019 04:23:17 -4.1 C 41 %
2044 29-12-2019 04:33:17 -4.1 C 41 %
2045 29-12-2019 04:43:17 -4.4 C 41 %
2046 29-12-2019 04:53:17 -4.2 C 41 %
2047 29-12-2019 05:03:17 -4.3 C 41 %
2048 29-12-2019 05:13:17 -4.5 C 41 %
2049 29-12-2019 05:23:17 -4.5 C 41 %
2050 29-12-2019 05:33:18 -4.4 C 41 %
Sensor: Nr:Datum:Temp:Feuchte:
Aussen-T/F 2051 29-12-2019 05:43:18 -4.5 C 41 %
2052 29-12-2019 05:53:17 -4.7 C 41 %
2053 29-12-2019 06:03:17 -4.6 C 41 %
2054 29-12-2019 06:13:17 -4.7 C 41 %
2055 29-12-2019 06:23:17 -4.8 C 41 %
2056 29-12-2019 06:33:17 -4.8 C 41 %
2057 29-12-2019 06:43:17 -4.8 C 41 %
2058 29-12-2019 06:53:17 -4.8 C 41 %
2059 29-12-2019 07:03:17 -4.9 C 41 %
2060 29-12-2019 07:13:17 -4.9 C 41 %
2061 29-12-2019 07:23:17 -5 C 41 %
2062 29-12-2019 07:33:17 -4.5 C 42 %
2063 29-12-2019 07:43:17 -4.7 C 41 %
2064 29-12-2019 07:53:17 -4.7 C 41 %
2065 29-12-2019 08:03:17 -4.4 C 42 %
2066 29-12-2019 08:13:17 -4.3 C 42 %
2067 29-12-2019 08:23:18 -3.9 C 43 %
2068 29-12-2019 08:33:17 -4.1 C 41 %
2069 29-12-2019 08:43:17 -4.3 C 41 %
2070 29-12-2019 08:53:17 -4.5 C 40 %
2071 29-12-2019 09:03:17 -4.1 C 42 %
2072 29-12-2019 09:13:17 -3.9 C 42 %
2073 29-12-2019 09:23:18 -4 C 41 %
2074 29-12-2019 09:33:17 -4.1 C 41 %
2075 29-12-2019 09:43:17 -4 C 41 %
Sensor: Nr:Datum:Temp:Feuchte:
Aussen-T/F 2076 29-12-2019 09:53:17 -4 C 41 %
2077 29-12-2019 10:03:18 -4 C 40 %
2078 29-12-2019 10:13:18 -3.9 C 41 %
2079 29-12-2019 10:23:17 -3.5 C 42 %
2080 29-12-2019 10:33:17 -3.3 C 42 %
2081 29-12-2019 10:43:17 -3.1 C 42 %
2082 29-12-2019 10:53:17 -2.6 C 43 %
2083 29-12-2019 11:03:17 -2.1 C 43 %
2084 29-12-2019 11:13:17 -1.8 C 42 %
2085 29-12-2019 11:23:17 -1.4 C 43 %
2086 29-12-2019 11:33:17 -1.3 C 42 %
2087 29-12-2019 11:43:18 -0.8 C 43 %
2088 29-12-2019 11:53:17 -0.4 C 42 %
2089 29-12-2019 12:03:18 -0.5 C 41 %
2090 29-12-2019 12:13:18 -0.3 C 41 %
2091 29-12-2019 12:23:17 0.1 C 40 %
2092 29-12-2019 12:33:17 0.3 C 40 %
2093 29-12-2019 12:43:17 0.5 C 40 %
2094 29-12-2019 12:53:17 0.4 C 40 %
2095 29-12-2019 13:03:17 0.7 C 38 %
2096 29-12-2019 13:13:17 1 C 37 %
2097 29-12-2019 13:23:17 1 C 37 %
2098 29-12-2019 13:33:18 1.4 C 36 %
2099 29-12-2019 13:43:18 1.4 C 38 %
2100 29-12-2019 13:53:17 1.5 C 37 %
Sensor: Nr:Datum:Temp:Feuchte:
Aussen-T/F 2101 29-12-2019 14:03:17 1.5 C 36 %
2102 29-12-2019 14:13:17 1.4 C 37 %
2103 29-12-2019 14:23:17 1.7 C 36 %
2104 29-12-2019 14:33:18 1.9 C 36 %
2105 29-12-2019 14:43:18 2.2 C 34 %
2106 29-12-2019 14:53:17 2.1 C 33 %
2107 29-12-2019 15:03:17 1.9 C 34 %
2108 29-12-2019 15:13:18 2 C 31 %
2109 29-12-2019 15:23:17 2 C 27 %
2110 29-12-2019 15:33:17 1.9 C 30 %
2111 29-12-2019 15:43:17 1.5 C 32 %
2112 29-12-2019 15:53:18 1.1 C 32 %
2113 29-12-2019 16:03:17 0.5 C 35 %
2114 29-12-2019 16:13:17 0.2 C 38 %
2115 29-12-2019 16:23:17 0.2 C 39 %
2116 29-12-2019 16:33:18 -0.3 C 39 %
2117 29-12-2019 16:43:18 -0.1 C 40 %
2118 29-12-2019 16:53:17 -0.2 C 40 %
2119 29-12-2019 17:03:17 -0.2 C 40 %
2120 29-12-2019 17:13:17 -0.3 C 39 %
2121 29-12-2019 17:23:17 -0.3 C 37 %
2122 29-12-2019 17:33:17 -0.3 C 37 %
2123 29-12-2019 17:43:17 -0.1 C 36 %
2124 29-12-2019 17:53:17 -0.2 C 38 %
2125 29-12-2019 18:03:17 -0.1 C 37 %
Sensor: Nr:Datum:Temp:Feuchte:
Aussen-T/F 2126 29-12-2019 18:13:17 0.1 C 37 %
2127 29-12-2019 18:23:17 0.2 C 36 %
2128 29-12-2019 18:33:17 -0.2 C 38 %
2129 29-12-2019 18:43:17 -0.5 C 40 %
2130 29-12-2019 18:53:17 -0.8 C 40 %
2131 29-12-2019 19:03:17 -0.5 C 41 %
2132 29-12-2019 19:13:17 -0.7 C 38 %
2133 29-12-2019 19:23:18 -0.6 C 37 %
2134 29-12-2019 19:33:18 -0.6 C 35 %
2135 29-12-2019 19:43:18 -1 C 35 %
2136 29-12-2019 19:53:17 -1.1 C 36 %
2137 29-12-2019 20:03:18 -0.9 C 34 %
2138 29-12-2019 20:13:18 -1.2 C 36 %
2139 29-12-2019 20:23:17 -0.7 C 35 %
2140 29-12-2019 20:33:17 -1.3 C 37 %
2141 29-12-2019 20:43:17 -0.9 C 39 %
2142 29-12-2019 20:53:17 -1.5 C 39 %
2143 29-12-2019 21:03:17 -1.2 C 38 %
2144 29-12-2019 21:13:17 -1.8 C 37 %
2145 29-12-2019 21:23:17 -1.8 C 40 %
2146 29-12-2019 21:33:18 -1.8 C 41 %
2147 29-12-2019 21:43:18 -2.1 C 42 %
2148 29-12-2019 21:53:17 -2.3 C 42 %
2149 29-12-2019 22:03:17 -2.2 C 43 %
2150 29-12-2019 22:13:17 -2.1 C 43 %
Sensor: Nr:Datum:Temp:Feuchte:
Aussen-T/F 2151 29-12-2019 22:23:17 -2.4 C 42 %
2152 29-12-2019 22:33:17 -2.7 C 42 %
2153 29-12-2019 22:43:18 -2.7 C 43 %
2154 29-12-2019 22:53:17 -2.7 C 43 %
2155 29-12-2019 23:03:17 -2.8 C 43 %
2156 29-12-2019 23:13:17 -2.7 C 44 %
2157 29-12-2019 23:23:17 -2.8 C 43 %
2158 29-12-2019 23:33:18 -3 C 43 %
2159 29-12-2019 23:43:18 -3 C 43 %
2160 29-12-2019 23:53:17 -3 C 42 %
2161 30-12-2019 00:03:17 -3 C 42 %
2162 30-12-2019 00:13:17 -3.1 C 41 %
2163 30-12-2019 00:23:17 -3.1 C 41 %
2164 30-12-2019 00:33:17 -3 C 42 %
2165 30-12-2019 00:43:17 -3.2 C 42 %
2166 30-12-2019 00:53:17 -3.2 C 42 %
2167 30-12-2019 01:03:17 -3.2 C 42 %
2168 30-12-2019 01:13:18 -3.1 C 44 %
2169 30-12-2019 01:23:17 -3.1 C 43 %
2170 30-12-2019 01:33:18 -3.2 C 42 %
2171 30-12-2019 01:43:18 -3.4 C 42 %
2172 30-12-2019 01:53:17 -3.5 C 42 %
2173 30-12-2019 02:03:17 -3.2 C 43 %
2174 30-12-2019 02:13:17 -3.4 C 43 %
2175 30-12-2019 02:23:17 -3.4 C 43 %
Sensor: Nr:Datum:Temp:Feuchte:
Aussen-T/F 2176 30-12-2019 02:33:18 -3.4 C 43 %
2177 30-12-2019 02:43:18 -3.4 C 43 %
2178 30-12-2019 02:53:17 -3.4 C 43 %
2179 30-12-2019 03:03:17 -3.3 C 43 %
2180 30-12-2019 03:13:17 -3.4 C 43 %
2181 30-12-2019 03:23:17 -3.1 C 43 %
2182 30-12-2019 03:33:18 -3.2 C 43 %
2183 30-12-2019 03:43:18 -3.3 C 43 %
2184 30-12-2019 03:53:17 -3.5 C 43 %
2185 30-12-2019 04:03:17 -3.7 C 42 %
2186 30-12-2019 04:13:17 -3.8 C 42 %
2187 30-12-2019 04:23:17 -3.8 C 42 %
2188 30-12-2019 04:33:17 -3.9 C 42 %
2189 30-12-2019 04:43:17 -3.9 C 42 %
2190 30-12-2019 04:53:17 -4 C 42 %
2191 30-12-2019 05:03:17 -3.9 C 42 %
2192 30-12-2019 05:13:17 -3.8 C 42 %
2193 30-12-2019 05:23:17 -3.9 C 42 %
2194 30-12-2019 05:33:17 -3.7 C 43 %
2195 30-12-2019 05:43:17 -3.8 C 43 %
2196 30-12-2019 05:53:18 -4 C 42 %
2197 30-12-2019 06:03:17 -4 C 42 %
2198 30-12-2019 06:13:17 -4 C 42 %
2199 30-12-2019 06:23:17 -3.9 C 42 %
2200 30-12-2019 06:33:17 -3.7 C 43 %
Sensor: Nr:Datum:Temp:Feuchte:
Aussen-T/F 2201 30-12-2019 06:43:17 -3.9 C 42 %
2202 30-12-2019 06:53:17 -4 C 42 %
2203 30-12-2019 07:03:17 -4 C 42 %
2204 30-12-2019 07:13:17 -4.2 C 41 %
2205 30-12-2019 07:23:17 -4.4 C 42 %
2206 30-12-2019 07:33:18 -4.4 C 41 %
2207 30-12-2019 07:43:18 -4.4 C 42 %
2208 30-12-2019 07:53:17 -4.2 C 42 %
2209 30-12-2019 08:03:17 -4.4 C 41 %
2210 30-12-2019 08:13:17 -4.3 C 42 %
2211 30-12-2019 08:23:17 -4.4 C 42 %
2212 30-12-2019 08:33:17 -4.5 C 41 %
2213 30-12-2019 08:43:17 -4 C 43 %
2214 30-12-2019 08:53:17 -4.2 C 41 %
2215 30-12-2019 09:03:18 -4.1 C 42 %
2216 30-12-2019 09:13:18 -3.9 C 42 %
2217 30-12-2019 09:23:17 -3.8 C 42 %
2218 30-12-2019 09:33:17 -3.6 C 43 %
2219 30-12-2019 09:43:17 -3.7 C 42 %
2220 30-12-2019 09:53:17 -3.7 C 42 %
2221 30-12-2019 10:03:17 -3.5 C 42 %
2222 30-12-2019 10:13:17 -3.3 C 43 %
2223 30-12-2019 10:23:17 -3.3 C 42 %
2224 30-12-2019 10:33:17 -3.3 C 42 %
2225 30-12-2019 10:43:17 -3 C 43 %
Sensor: Nr:Datum:Temp:Feuchte:
Aussen-T/F 2226 30-12-2019 10:53:17 -2.9 C 42 %
2227 30-12-2019 11:03:17 -2.9 C 42 %
2228 30-12-2019 11:13:17 -2.8 C 42 %
2229 30-12-2019 11:23:17 -2.4 C 43 %
2230 30-12-2019 11:33:17 -2.1 C 42 %
2231 30-12-2019 11:43:17 -2 C 41 %
2232 30-12-2019 11:53:18 -2.1 C 40 %
2233 30-12-2019 12:03:17 -1.7 C 41 %
2234 30-12-2019 12:13:17 -1.5 C 40 %
2235 30-12-2019 12:23:17 -1.6 C 40 %
2236 30-12-2019 12:33:17 -1.4 C 41 %
2237 30-12-2019 12:43:17 -0.7 C 39 %
2238 30-12-2019 12:53:17 -0.8 C 39 %
2239 30-12-2019 13:03:17 -0.8 C 38 %
2240 30-12-2019 13:13:17 -1 C 40 %
2241 30-12-2019 13:23:17 -1 C 41 %
2242 30-12-2019 13:33:17 -1 C 42 %
2243 30-12-2019 13:43:17 -0.6 C 42 %
2244 30-12-2019 13:53:17 -0.2 C 41 %
2245 30-12-2019 14:03:17 0.3 C 37 %
2246 30-12-2019 14:13:17 0.1 C 35 %
2247 30-12-2019 14:23:17 0.6 C 35 %
2248 30-12-2019 14:33:17 0.5 C 35 %
2249 30-12-2019 14:43:17 1 C 32 %
2250 30-12-2019 14:53:17 0.6 C 35 %
Sensor: Nr:Datum:Temp:Feuchte:
Aussen-T/F 2251 30-12-2019 15:03:17 0.9 C 36 %
2252 30-12-2019 15:13:17 1.1 C 33 %
2253 30-12-2019 15:23:17 0.6 C 35 %
2254 30-12-2019 15:33:18 0.6 C 36 %
2255 30-12-2019 15:43:18 0.7 C 35 %
2256 30-12-2019 15:53:17 1.6 C 32 %
2257 30-12-2019 16:03:18 1.7 C 32 %
2258 30-12-2019 16:13:18 1.9 C 31 %
2259 30-12-2019 16:23:18 1.6 C 33 %
2260 30-12-2019 16:33:17 1.1 C 35 %
2261 30-12-2019 16:43:17 0.8 C 37 %
2262 30-12-2019 16:53:17 0.6 C 40 %
2263 30-12-2019 17:03:17 0.7 C 40 %
2264 30-12-2019 17:13:17 0.7 C 40 %
2265 30-12-2019 17:23:18 0.6 C 40 %
2266 30-12-2019 17:33:17 0.5 C 40 %
2267 30-12-2019 17:43:17 0.5 C 40 %
2268 30-12-2019 17:53:17 0.5 C 37 %
2269 30-12-2019 18:03:17 0.3 C 36 %
2270 30-12-2019 18:13:17 -0.3 C 36 %
2271 30-12-2019 18:23:18 -0.7 C 37 %
2272 30-12-2019 18:33:18 -0.4 C 36 %
2273 30-12-2019 18:43:18 -0.2 C 36 %
2274 30-12-2019 18:53:17 -0.6 C 34 %
2275 30-12-2019 19:03:17 -1.3 C 36 %
Sensor: Nr:Datum:Temp:Feuchte:
Aussen-T/F 2276 30-12-2019 19:13:17 -1 C 36 %
2277 30-12-2019 19:23:18 -1.4 C 36 %
2278 30-12-2019 19:33:17 -1.4 C 39 %
2279 30-12-2019 19:43:17 -0.4 C 33 %
2280 30-12-2019 19:53:18 0 C 32 %
2281 30-12-2019 20:03:17 -0.3 C 31 %
2282 30-12-2019 20:13:17 -1.2 C 32 %
2283 30-12-2019 20:23:17 -1.6 C 35 %
2284 30-12-2019 20:33:17 -1.6 C 36 %
2285 30-12-2019 20:43:17 -1.7 C 36 %
2286 30-12-2019 20:53:17 -1.5 C 37 %
2287 30-12-2019 21:03:17 -1.9 C 37 %
2288 30-12-2019 21:13:17 -0.8 C 35 %
2289 30-12-2019 21:23:17 -1.1 C 35 %
2290 30-12-2019 21:33:17 -0.9 C 35 %
2291 30-12-2019 21:43:17 -0.8 C 36 %
2292 30-12-2019 21:53:17 -1.1 C 33 %
2293 30-12-2019 22:03:17 -1.5 C 35 %
2294 30-12-2019 22:13:17 -1.7 C 35 %
2295 30-12-2019 22:23:17 -1.7 C 35 %
2296 30-12-2019 22:33:17 -2.3 C 35 %
2297 30-12-2019 22:43:17 -1.8 C 35 %
2298 30-12-2019 22:53:17 -2 C 36 %
2299 30-12-2019 23:03:17 -2.3 C 36 %
2300 30-12-2019 23:13:17 -1.5 C 36 %
Sensor: Nr:Datum:Temp:Feuchte:
Aussen-T/F 2301 30-12-2019 23:23:17 -0.9 C 32 %
2302 30-12-2019 23:33:17 -0.3 C 31 %
2303 30-12-2019 23:43:17 -0.9 C 31 %
2304 30-12-2019 23:53:17 -1 C 31 %
2305 31-12-2019 00:03:17 -1.2 C 32 %
2306 31-12-2019 00:13:18 -1.4 C 34 %
2307 31-12-2019 00:23:17 -1.6 C 36 %
2308 31-12-2019 00:33:18 -1.2 C 35 %
2309 31-12-2019 00:43:18 -1.5 C 35 %
2310 31-12-2019 00:53:17 -1.5 C 36 %
2311 31-12-2019 01:03:17 -1.5 C 36 %
2312 31-12-2019 01:13:17 -0.8 C 34 %
2313 31-12-2019 01:23:18 -1.3 C 34 %
2314 31-12-2019 01:33:17 -1.6 C 37 %
2315 31-12-2019 01:43:17 -2 C 37 %
2316 31-12-2019 01:53:17 -2.3 C 38 %
2317 31-12-2019 02:03:17 -2.5 C 40 %
2318 31-12-2019 02:13:17 -2.7 C 40 %
2319 31-12-2019 02:23:18 -2.8 C 41 %
2320 31-12-2019 02:33:17 -3 C 41 %
2321 31-12-2019 02:43:17 -2.9 C 43 %
2322 31-12-2019 02:53:17 -2 C 45 %
2323 31-12-2019 03:03:17 -1.7 C 42 %
2324 31-12-2019 03:13:18 -2 C 40 %
2325 31-12-2019 03:23:17 -2.4 C 40 %
Sensor: Nr:Datum:Temp:Feuchte:
Aussen-T/F 2326 31-12-2019 03:33:18 -2.5 C 41 %
2327 31-12-2019 03:43:18 -2.9 C 41 %
2328 31-12-2019 03:53:17 -2.8 C 42 %
2329 31-12-2019 04:03:17 -2.6 C 43 %
2330 31-12-2019 04:13:17 -3.1 C 42 %
2331 31-12-2019 04:23:17 -3.2 C 42 %
2332 31-12-2019 04:33:17 -3.3 C 42 %
2333 31-12-2019 04:43:18 -3.3 C 42 %
2334 31-12-2019 04:53:17 -3.2 C 43 %
2335 31-12-2019 05:03:17 -3.3 C 42 %
2336 31-12-2019 05:13:17 -3.6 C 42 %
2337 31-12-2019 05:23:17 -3.4 C 43 %
2338 31-12-2019 05:33:17 -3.1 C 44 %
2339 31-12-2019 05:43:17 -3 C 44 %
2340 31-12-2019 05:53:17 -2.9 C 44 %
2341 31-12-2019 06:03:17 -3.1 C 43 %
2342 31-12-2019 06:13:17 -3.3 C 43 %
2343 31-12-2019 06:23:17 -3.2 C 43 %
2344 31-12-2019 06:33:17 -3.3 C 43 %
2345 31-12-2019 06:43:17 -3.4 C 43 %
2346 31-12-2019 06:53:18 -3.2 C 44 %
2347 31-12-2019 07:03:17 -3.2 C 44 %
2348 31-12-2019 07:13:17 -3 C 44 %
2349 31-12-2019 07:23:17 -3.1 C 44 %
2350 31-12-2019 07:33:17 -3 C 44 %
Sensor: Nr:Datum:Temp:Feuchte:
Aussen-T/F 2351 31-12-2019 07:43:17 -2.6 C 45 %
2352 31-12-2019 07:53:18 -2.1 C 45 %
2353 31-12-2019 08:03:17 -2 C 45 %
2354 31-12-2019 08:13:17 -2 C 45 %
2355 31-12-2019 08:23:17 -1.3 C 45 %
2356 31-12-2019 08:33:17 -1 C 44 %
2357 31-12-2019 08:43:17 -1 C 43 %
2358 31-12-2019 08:53:17 -1.1 C 42 %
2359 31-12-2019 09:03:17 -1 C 43 %
2360 31-12-2019 09:13:17 -0.9 C 44 %
2361 31-12-2019 09:23:17 -1.1 C 42 %
2362 31-12-2019 09:33:17 -1.1 C 42 %
2363 31-12-2019 09:43:17 -1.1 C 42 %
2364 31-12-2019 09:53:17 -0.9 C 43 %
2365 31-12-2019 10:03:17 -0.6 C 44 %
2366 31-12-2019 10:13:17 -0.2 C 43 %
2367 31-12-2019 10:23:17 0.1 C 41 %
2368 31-12-2019 10:33:17 0.3 C 40 %
2369 31-12-2019 10:43:17 0.3 C 38 %
2370 31-12-2019 10:53:18 0.5 C 40 %
2371 31-12-2019 11:03:17 0.8 C 41 %
2372 31-12-2019 11:13:17 0.7 C 41 %
2373 31-12-2019 11:23:17 1.2 C 40 %
2374 31-12-2019 11:33:17 1.1 C 38 %
2375 31-12-2019 11:43:17 1.5 C 40 %
Sensor: Nr:Datum:Temp:Feuchte:
Aussen-T/F 2376 31-12-2019 11:53:17 1.5 C 40 %
2377 31-12-2019 12:03:18 1.8 C 31 %
2378 31-12-2019 12:13:18 2.4 C 35 %
2379 31-12-2019 12:23:17 2.6 C 33 %
2380 31-12-2019 12:33:18 2.4 C 32 %
2381 31-12-2019 12:43:18 2.8 C 30 %
2382 31-12-2019 12:53:17 2.3 C 29 %
2383 31-12-2019 13:03:18 2.4 C 28 %
2384 31-12-2019 13:13:18 2.4 C 27 %
2385 31-12-2019 13:23:17 2.8 C 27 %
2386 31-12-2019 13:33:17 2.8 C 26 %
2387 31-12-2019 13:43:17 3.3 C 26 %
2388 31-12-2019 13:53:17 2.9 C 26 %
2389 31-12-2019 14:03:18 2.7 C 27 %
2390 31-12-2019 14:13:18 2.9 C 27 %
2391 31-12-2019 14:23:17 3.1 C 26 %
2392 31-12-2019 14:33:17 3.4 C 26 %
2393 31-12-2019 14:43:17 3.2 C 26 %
2394 31-12-2019 14:53:17 3 C 26 %
2395 31-12-2019 15:03:17 2.8 C 27 %
2396 31-12-2019 15:13:17 2.9 C 27 %
2397 31-12-2019 15:23:18 3 C 27 %
2398 31-12-2019 15:33:17 3 C 27 %
2399 31-12-2019 15:43:17 2.9 C 28 %
2400 31-12-2019 15:53:17 2.7 C 29 %
Sensor: Nr:Datum:Temp:Feuchte:
Aussen-T/F 2401 31-12-2019 16:03:17 2.1 C 30 %
2402 31-12-2019 16:13:17 0.9 C 35 %
2403 31-12-2019 16:23:18 0.6 C 38 %
2404 31-12-2019 16:33:17 0.3 C 40 %
2405 31-12-2019 16:43:17 0.2 C 39 %
2406 31-12-2019 16:53:18 0.2 C 40 %
2407 31-12-2019 17:03:17 -0.1 C 41 %
2408 31-12-2019 17:13:17 -0.4 C 41 %
2409 31-12-2019 17:23:17 -0.3 C 40 %
2410 31-12-2019 17:33:17 -0.3 C 41 %
2411 31-12-2019 17:43:17 -0.6 C 43 %
2412 31-12-2019 17:53:18 -0.7 C 43 %
2413 31-12-2019 18:03:17 -1.1 C 43 %
2414 31-12-2019 18:13:17 -1.2 C 45 %
2415 31-12-2019 18:23:17 -0.9 C 45 %
2416 31-12-2019 18:33:17 -0.8 C 45 %
2417 31-12-2019 18:43:17 -0.4 C 46 %
2418 31-12-2019 18:53:18 -0.4 C 46 %
2419 31-12-2019 19:03:17 -0.3 C 45 %
2420 31-12-2019 19:13:17 -0.1 C 46 %
2421 31-12-2019 19:23:18 0 C 45 %
2422 31-12-2019 19:33:17 0.1 C 45 %
2423 31-12-2019 19:43:17 0.2 C 45 %
2424 31-12-2019 19:53:17 0.4 C 45 %
2425 31-12-2019 20:03:18 0.5 C 45 %
Sensor: Nr:Datum:Temp:Feuchte:
Aussen-T/F 2426 31-12-2019 20:13:18 0.5 C 45 %
2427 31-12-2019 20:23:17 0.4 C 45 %
2428 31-12-2019 20:33:17 0.4 C 45 %
2429 31-12-2019 20:43:17 0.3 C 43 %
2430 31-12-2019 20:53:17 0.2 C 43 %
2431 31-12-2019 21:03:17 0.2 C 43 %
2432 31-12-2019 21:13:17 0.4 C 44 %
2433 31-12-2019 21:23:18 0.4 C 44 %
2434 31-12-2019 21:33:17 0.5 C 44 %
2435 31-12-2019 21:43:17 0.6 C 43 %
2436 31-12-2019 21:53:17 0.5 C 43 %
2437 31-12-2019 22:03:17 0.6 C 42 %
2438 31-12-2019 22:13:17 0.5 C 42 %
2439 31-12-2019 22:23:18 0.2 C 41 %
2440 31-12-2019 22:33:17 0 C 41 %
2441 31-12-2019 22:43:17 -0.2 C 42 %
2442 31-12-2019 22:53:17 -0.4 C 43 %
2443 31-12-2019 23:03:17 -0.3 C 44 %
2444 31-12-2019 23:13:17 -0.1 C 45 %
2445 31-12-2019 23:23:18 0 C 45 %
2446 31-12-2019 23:33:17 0 C 45 %
2447 31-12-2019 23:43:17 0.4 C 45 %
2448 31-12-2019 23:53:18 0.3 C 45 %
2449 01-01-2020 00:03:17 0.4 C 45 %
2450 01-01-2020 00:13:17 0.4 C 45 %
Sensor: Nr:Datum:Temp:Feuchte:
Aussen-T/F 2451 01-01-2020 00:23:17 0.3 C 45 %
2452 01-01-2020 00:33:17 -0.9 C 41 %
2453 01-01-2020 00:43:17 -0.3 C 45 %
2454 01-01-2020 00:53:18 -0.5 C 44 %
2455 01-01-2020 01:03:17 -0.5 C 44 %
2456 01-01-2020 01:13:17 -0.6 C 44 %
2457 01-01-2020 01:23:17 -0.6 C 45 %
2458 01-01-2020 01:33:17 -0.7 C 45 %
2459 01-01-2020 01:43:17 -1.1 C 44 %
2460 01-01-2020 01:53:18 -0.9 C 45 %
2461 01-01-2020 02:03:17 -0.9 C 45 %
2462 01-01-2020 02:13:17 -0.5 C 46 %
2463 01-01-2020 02:23:17 -0.2 C 45 %
2464 01-01-2020 02:33:18 -0.1 C 45 %
2465 01-01-2020 02:43:18 0 C 45 %
2466 01-01-2020 02:53:17 0.1 C 45 %
2467 01-01-2020 03:03:17 0.1 C 45 %
2468 01-01-2020 03:13:18 0.1 C 45 %
2469 01-01-2020 03:23:17 0.2 C 45 %
2470 01-01-2020 03:33:18 0.1 C 45 %
2471 01-01-2020 03:43:18 0.1 C 45 %
2472 01-01-2020 03:53:17 0.1 C 45 %
2473 01-01-2020 04:03:18 0.2 C 45 %
2474 01-01-2020 04:13:18 0.2 C 45 %
2475 01-01-2020 04:23:17 0.3 C 45 %
Sensor: Nr:Datum:Temp:Feuchte:
Aussen-T/F 2476 01-01-2020 04:33:18 0.3 C 45 %
2477 01-01-2020 04:43:18 0.3 C 44 %
2478 01-01-2020 04:53:17 0.3 C 44 %
2479 01-01-2020 05:03:18 0.4 C 44 %
2480 01-01-2020 05:13:18 0.5 C 44 %
2481 01-01-2020 05:23:17 0.4 C 44 %
2482 01-01-2020 05:33:18 0.4 C 44 %
2483 01-01-2020 05:43:18 0.4 C 44 %
2484 01-01-2020 05:53:17 0.4 C 43 %
2485 01-01-2020 06:03:17 0.4 C 43 %
2486 01-01-2020 06:13:17 0.5 C 43 %
2487 01-01-2020 06:23:17 0.4 C 42 %
2488 01-01-2020 06:33:17 0.6 C 42 %
2489 01-01-2020 06:43:17 0.6 C 42 %
2490 01-01-2020 06:53:17 0.6 C 42 %
2491 01-01-2020 07:03:18 0.6 C 41 %
2492 01-01-2020 07:13:18 0.6 C 41 %
2493 01-01-2020 07:23:17 0.6 C 41 %
2494 01-01-2020 07:33:17 0.6 C 41 %
2495 01-01-2020 07:43:17 0.6 C 41 %
2496 01-01-2020 07:53:17 0.6 C 41 %
2497 01-01-2020 08:03:17 0.6 C 41 %
2498 01-01-2020 08:13:17 0.6 C 41 %
2499 01-01-2020 08:23:18 0.7 C 40 %
2500 01-01-2020 08:33:17 0.7 C 40 %
Sensor: Nr:Datum:Temp:Feuchte:
Aussen-T/F 2501 01-01-2020 08:43:17 0.7 C 40 %
2502 01-01-2020 08:53:17 0.8 C 40 %
2503 01-01-2020 09:03:17 0.8 C 40 %
2504 01-01-2020 09:13:17 1.1 C 38 %
2505 01-01-2020 09:23:17 1.3 C 38 %
2506 01-01-2020 09:33:17 1.4 C 37 %
2507 01-01-2020 09:43:17 1.5 C 37 %
2508 01-01-2020 09:53:17 1.7 C 36 %
2509 01-01-2020 10:03:18 1.9 C 36 %
2510 01-01-2020 10:13:18 2 C 34 %
2511 01-01-2020 10:23:17 2.1 C 33 %
2512 01-01-2020 10:33:17 2.2 C 32 %
2513 01-01-2020 10:43:17 2.3 C 32 %
2514 01-01-2020 10:53:17 2.4 C 32 %
2515 01-01-2020 11:03:17 2.4 C 31 %
2516 01-01-2020 11:13:17 2.7 C 31 %
2517 01-01-2020 11:23:18 2.7 C 30 %
2518 01-01-2020 11:33:17 2.7 C 30 %
2519 01-01-2020 11:43:17 2.8 C 30 %
2520 01-01-2020 11:53:18 2.9 C 30 %
2521 01-01-2020 12:03:17 3.2 C 28 %
2522 01-01-2020 12:13:17 3 C 29 %
2523 01-01-2020 12:23:18 2.7 C 30 %
2524 01-01-2020 12:33:17 2.7 C 30 %
2525 01-01-2020 12:43:17 2.5 C 30 %
Sensor: Nr:Datum:Temp:Feuchte:
Aussen-T/F 2526 01-01-2020 12:53:18 2.1 C 32 %
2527 01-01-2020 13:03:17 1.6 C 36 %
2528 01-01-2020 13:13:17 1.6 C 37 %
2529 01-01-2020 13:23:18 1.4 C 37 %
2530 01-01-2020 13:33:17 1.5 C 38 %
2531 01-01-2020 13:43:17 1.5 C 38 %
2532 01-01-2020 13:53:17 1.6 C 39 %
2533 01-01-2020 14:03:17 1.6 C 39 %
2534 01-01-2020 14:13:17 1.6 C 39 %
2535 01-01-2020 14:23:17 1.6 C 40 %
2536 01-01-2020 14:33:17 1.4 C 40 %
2537 01-01-2020 14:43:17 1.3 C 41 %
2538 01-01-2020 14:53:17 1.2 C 41 %
2539 01-01-2020 15:03:17 1.3 C 41 %
2540 01-01-2020 15:13:17 1.2 C 41 %
2541 01-01-2020 15:23:17 1.6 C 41 %
2542 01-01-2020 15:33:17 1.7 C 38 %
2543 01-01-2020 15:43:17 1.1 C 38 %
2544 01-01-2020 15:53:17 0.7 C 40 %
2545 01-01-2020 16:03:17 0.5 C 43 %
2546 01-01-2020 16:13:17 -0.1 C 43 %
2547 01-01-2020 16:23:17 -0.3 C 44 %
2548 01-01-2020 16:33:18 -0.7 C 44 %
2549 01-01-2020 16:43:18 -0.7 C 45 %
2550 01-01-2020 16:53:17 -0.8 C 45 %
Sensor: Nr:Datum:Temp:Feuchte:
Aussen-T/F 2551 01-01-2020 17:03:17 -1 C 45 %
2552 01-01-2020 17:13:17 -1.3 C 45 %
2553 01-01-2020 17:23:18 -1.5 C 45 %
2554 01-01-2020 17:33:17 -1.8 C 45 %
2555 01-01-2020 17:43:17 -1.9 C 45 %
2556 01-01-2020 17:53:18 -1.8 C 45 %
2557 01-01-2020 18:03:17 -1.9 C 45 %
2558 01-01-2020 18:13:17 -1.9 C 45 %
2559 01-01-2020 18:23:17 -2.1 C 45 %
2560 01-01-2020 18:33:17 -2.1 C 45 %
2561 01-01-2020 18:43:18 -2.1 C 45 %
2562 01-01-2020 18:53:17 -2.2 C 45 %
2563 01-01-2020 19:03:17 -2.4 C 45 %
2564 01-01-2020 19:13:18 -2.5 C 45 %
2565 01-01-2020 19:23:17 -2.4 C 45 %
2566 01-01-2020 19:33:17 -2.3 C 45 %
2567 01-01-2020 19:43:17 -2.2 C 45 %
2568 01-01-2020 19:53:17 -2.4 C 45 %
2569 01-01-2020 20:03:17 -2.2 C 45 %
2570 01-01-2020 20:13:17 -2.1 C 45 %
2571 01-01-2020 20:23:18 -2.3 C 45 %
2572 01-01-2020 20:33:17 -2.1 C 45 %
2573 01-01-2020 20:43:17 -2.6 C 43 %
2574 01-01-2020 20:53:17 -2.8 C 43 %
2575 01-01-2020 21:03:17 -2.8 C 43 %
Sensor: Nr:Datum:Temp:Feuchte:
Aussen-T/F 2576 01-01-2020 21:13:17 -3 C 43 %
2577 01-01-2020 21:23:18 -3.1 C 43 %
2578 01-01-2020 21:33:17 -3.1 C 43 %
2579 01-01-2020 21:43:17 -3.2 C 42 %
2580 01-01-2020 21:53:17 -2.8 C 43 %
2581 01-01-2020 22:03:17 -3.1 C 42 %
2582 01-01-2020 22:13:17 -3.2 C 42 %
2583 01-01-2020 22:23:17 -3 C 43 %
2584 01-01-2020 22:33:17 -2.8 C 43 %
2585 01-01-2020 22:43:17 -2.8 C 43 %
2586 01-01-2020 22:53:17 -3.2 C 42 %
2587 01-01-2020 23:03:17 -3.2 C 42 %
2588 01-01-2020 23:13:17 -2.7 C 44 %
2589 01-01-2020 23:23:17 -2.3 C 45 %
2590 01-01-2020 23:33:17 -2.4 C 44 %
2591 01-01-2020 23:43:17 -2.2 C 45 %
2592 01-01-2020 23:53:17 -2.2 C 45 %
2593 02-01-2020 00:03:17 -2.3 C 44 %
2594 02-01-2020 00:13:17 -2.4 C 44 %
2595 02-01-2020 00:23:17 -2.6 C 43 %
2596 02-01-2020 00:33:17 -2.4 C 43 %
2597 02-01-2020 00:43:17 -2.4 C 44 %
2598 02-01-2020 00:53:17 -2.6 C 43 %
2599 02-01-2020 01:03:17 -2.3 C 44 %
2600 02-01-2020 01:13:17 -2.1 C 45 %
Sensor: Nr:Datum:Temp:Feuchte:
Aussen-T/F 2601 02-01-2020 01:23:17 -1.9 C 45 %
2602 02-01-2020 01:33:17 -1.9 C 45 %
2603 02-01-2020 01:43:17 -1.8 C 45 %
2604 02-01-2020 01:53:17 -1.7 C 45 %
2605 02-01-2020 02:03:17 -1.6 C 45 %
2606 02-01-2020 02:13:17 -1.5 C 45 %
2607 02-01-2020 02:23:17 -1.4 C 45 %
2608 02-01-2020 02:33:17 -1.3 C 45 %
2609 02-01-2020 02:43:17 -1.3 C 45 %
2610 02-01-2020 02:53:17 -1.3 C 45 %
2611 02-01-2020 03:03:17 -1.2 C 45 %
2612 02-01-2020 03:13:18 -1.1 C 45 %
2613 02-01-2020 03:23:17 -1.1 C 45 %
2614 02-01-2020 03:33:18 -1 C 45 %
2615 02-01-2020 03:43:18 -0.9 C 45 %
2616 02-01-2020 03:53:17 -0.9 C 45 %
2617 02-01-2020 04:03:18 -0.8 C 45 %
2618 02-01-2020 04:13:18 -0.7 C 45 %
2619 02-01-2020 04:23:17 -0.7 C 45 %
2620 02-01-2020 04:33:17 -0.7 C 45 %
2621 02-01-2020 04:43:17 -0.7 C 45 %
2622 02-01-2020 04:53:17 -0.8 C 45 %
2623 02-01-2020 05:03:17 -0.9 C 45 %
2624 02-01-2020 05:13:17 -0.9 C 45 %
2625 02-01-2020 05:23:18 -0.9 C 45 %
Sensor: Nr:Datum:Temp:Feuchte:
Aussen-T/F 2626 02-01-2020 05:33:17 -0.9 C 45 %
2627 02-01-2020 05:43:17 -0.8 C 44 %
2628 02-01-2020 05:53:18 -0.8 C 44 %
2629 02-01-2020 06:03:17 -0.9 C 44 %
2630 02-01-2020 06:13:17 -0.9 C 43 %
2631 02-01-2020 06:23:17 -0.9 C 43 %
2632 02-01-2020 06:33:18 -0.7 C 42 %
2633 02-01-2020 06:43:18 -0.7 C 41 %
2634 02-01-2020 06:53:17 -0.7 C 40 %
2635 02-01-2020 07:03:18 -0.7 C 40 %
2636 02-01-2020 07:13:18 -0.7 C 40 %
2637 02-01-2020 07:23:17 -0.7 C 39 %
2638 02-01-2020 07:33:17 -0.7 C 39 %
2639 02-01-2020 07:43:17 -0.7 C 40 %
2640 02-01-2020 07:53:17 -0.6 C 41 %
2641 02-01-2020 08:03:18 -0.6 C 41 %
2642 02-01-2020 08:13:18 -0.5 C 41 %
2643 02-01-2020 08:23:17 -0.4 C 41 %
2644 02-01-2020 08:33:17 -0.3 C 40 %
2645 02-01-2020 08:43:17 -0.3 C 41 %
2646 02-01-2020 08:53:17 -0.2 C 42 %
2647 02-01-2020 09:03:17 -0.1 C 42 %
2648 02-01-2020 09:13:17 0.1 C 42 %
2649 02-01-2020 09:23:17 0.1 C 40 %
2650 02-01-2020 09:33:18 0.4 C 38 %
Sensor: Nr:Datum:Temp:Feuchte:
Aussen-T/F 2651 02-01-2020 09:43:18 0.5 C 37 %
2652 02-01-2020 09:53:17 0.4 C 39 %
2653 02-01-2020 10:03:17 0.4 C 40 %
2654 02-01-2020 10:13:18 0.7 C 41 %
2655 02-01-2020 10:23:17 1.1 C 42 %
2656 02-01-2020 10:33:18 1.1 C 39 %
2657 02-01-2020 10:43:18 1.3 C 39 %
2658 02-01-2020 10:53:17 1.5 C 38 %
2659 02-01-2020 11:03:18 1.7 C 38 %
2660 02-01-2020 11:13:18 1.6 C 35 %
2661 02-01-2020 11:23:17 1.9 C 37 %
2662 02-01-2020 11:33:17 2.1 C 36 %
2663 02-01-2020 11:43:17 2.1 C 35 %
2664 02-01-2020 11:53:17 2.1 C 34 %
2665 02-01-2020 12:03:17 2.2 C 34 %
2666 02-01-2020 12:13:17 2.3 C 35 %
2667 02-01-2020 12:23:17 2.3 C 35 %
2668 02-01-2020 12:33:17 2.6 C 34 %
2669 02-01-2020 12:43:17 3 C 35 %
2670 02-01-2020 12:53:17 2.8 C 32 %
2671 02-01-2020 13:03:17 2.9 C 31 %
2672 02-01-2020 13:13:17 3.1 C 30 %
2673 02-01-2020 13:23:17 3.3 C 29 %
2674 02-01-2020 13:33:17 3.6 C 29 %
2675 02-01-2020 13:43:17 3.3 C 29 %
Sensor: Nr:Datum:Temp:Feuchte:
Aussen-T/F 2676 02-01-2020 13:53:18 3.1 C 30 %
2677 02-01-2020 14:03:17 3.4 C 30 %
2678 02-01-2020 14:13:17 3.4 C 30 %
2679 02-01-2020 14:23:18 3.5 C 30 %
2680 02-01-2020 14:33:17 3.4 C 30 %
2681 02-01-2020 14:43:17 3.7 C 30 %
2682 02-01-2020 14:53:17 3.4 C 30 %
2683 02-01-2020 15:03:17 3.1 C 31 %
2684 02-01-2020 15:13:17 3 C 31 %
2685 02-01-2020 15:23:18 2.7 C 32 %
2686 02-01-2020 15:33:17 2.5 C 33 %
2687 02-01-2020 15:43:17 2.5 C 34 %
2688 02-01-2020 15:53:17 2.4 C 35 %
2689 02-01-2020 16:03:17 2.4 C 35 %
2690 02-01-2020 16:13:17 2.3 C 35 %
2691 02-01-2020 16:23:18 2.2 C 36 %
2692 02-01-2020 16:33:17 2.2 C 37 %
2693 02-01-2020 16:43:17 2.3 C 37 %
2694 02-01-2020 16:53:17 2.2 C 37 %
2695 02-01-2020 17:03:17 2.1 C 38 %
2696 02-01-2020 17:13:17 2 C 38 %
2697 02-01-2020 17:23:18 2.1 C 40 %
2698 02-01-2020 17:33:17 2.1 C 40 %
2699 02-01-2020 17:43:17 2.1 C 40 %
2700 02-01-2020 17:53:17 2.1 C 40 %
Sensor: Nr:Datum:Temp:Feuchte:
Aussen-T/F 2701 02-01-2020 18:03:17 2.1 C 40 %
2702 02-01-2020 18:13:17 2.1 C 40 %
2703 02-01-2020 18:23:17 2.1 C 40 %
2704 02-01-2020 18:33:17 2.1 C 40 %
2705 02-01-2020 18:43:18 2.2 C 39 %
2706 02-01-2020 18:53:17 2.3 C 40 %
2707 02-01-2020 19:03:17 2.2 C 40 %
2708 02-01-2020 19:13:18 2.2 C 40 %
2709 02-01-2020 19:23:17 2.3 C 40 %
2710 02-01-2020 19:33:17 2.3 C 40 %
2711 02-01-2020 19:43:18 2.3 C 40 %
2712 02-01-2020 19:53:17 2.3 C 40 %
2713 02-01-2020 20:03:18 2.3 C 40 %
2714 02-01-2020 20:13:18 2.4 C 40 %
2715 02-01-2020 20:23:17 2.5 C 40 %
2716 02-01-2020 20:33:17 2.6 C 40 %
2717 02-01-2020 20:43:17 2.6 C 40 %
2718 02-01-2020 20:53:17 2.5 C 39 %
2719 02-01-2020 21:03:18 2.5 C 40 %
2720 02-01-2020 21:13:18 2.5 C 40 %
2721 02-01-2020 21:23:17 2.5 C 40 %
2722 02-01-2020 21:33:18 2.5 C 40 %
2723 02-01-2020 21:43:18 2.3 C 40 %
2724 02-01-2020 21:53:17 1.9 C 42 %
2725 02-01-2020 22:03:17 2.3 C 43 %
Sensor: Nr:Datum:Temp:Feuchte:
Aussen-T/F 2726 02-01-2020 22:13:17 2.4 C 43 %
2727 02-01-2020 22:23:17 2.5 C 43 %
2728 02-01-2020 22:33:17 2.6 C 43 %
2729 02-01-2020 22:43:18 2.7 C 43 %
2730 02-01-2020 22:53:17 2.7 C 42 %
2731 02-01-2020 23:03:17 2.8 C 42 %
2732 02-01-2020 23:13:17 2.8 C 42 %
2733 02-01-2020 23:23:17 2.8 C 41 %
2734 02-01-2020 23:33:18 2.8 C 42 %
2735 02-01-2020 23:43:18 2.9 C 42 %
2736 02-01-2020 23:53:17 2.8 C 41 %
2737 03-01-2020 00:03:18 2.9 C 42 %
2738 03-01-2020 00:13:18 3 C 41 %
2739 03-01-2020 00:23:17 3.1 C 41 %
2740 03-01-2020 00:33:17 3.2 C 41 %
2741 03-01-2020 00:43:17 3.2 C 41 %
2742 03-01-2020 00:53:17 3.4 C 42 %
2743 03-01-2020 01:03:17 3.4 C 42 %
2744 03-01-2020 01:13:17 3.5 C 42 %
2745 03-01-2020 01:23:18 3.5 C 42 %
2746 03-01-2020 01:33:17 3.5 C 42 %
2747 03-01-2020 01:43:17 3.6 C 42 %
2748 03-01-2020 01:53:18 3.6 C 42 %
2749 03-01-2020 02:03:17 3.7 C 42 %
2750 03-01-2020 02:13:17 3.7 C 42 %
Sensor: Nr:Datum:Temp:Feuchte:
Aussen-T/F 2751 03-01-2020 02:23:17 3.9 C 42 %
2752 03-01-2020 02:33:17 3.7 C 42 %
2753 03-01-2020 02:43:18 3.7 C 43 %
2754 03-01-2020 02:53:17 3.9 C 44 %
2755 03-01-2020 03:03:17 3.8 C 44 %
2756 03-01-2020 03:13:17 3.8 C 44 %
2757 03-01-2020 03:23:17 3.8 C 44 %
2758 03-01-2020 03:33:17 3.9 C 44 %
2759 03-01-2020 03:43:17 3.9 C 44 %
2760 03-01-2020 03:53:18 3.9 C 44 %
2761 03-01-2020 04:03:17 4 C 43 %
2762 03-01-2020 04:13:17 4 C 43 %
2763 03-01-2020 04:23:18 4 C 42 %
2764 03-01-2020 04:33:17 4.1 C 42 %
2765 03-01-2020 04:43:17 4.1 C 42 %
2766 03-01-2020 04:53:17 4.2 C 42 %
2767 03-01-2020 05:03:17 4.2 C 41 %
2768 03-01-2020 05:13:17 4.3 C 40 %
2769 03-01-2020 05:23:17 4.3 C 40 %
2770 03-01-2020 05:33:17 4.4 C 40 %
2771 03-01-2020 05:43:17 4.4 C 40 %
2772 03-01-2020 05:53:17 4.4 C 40 %
2773 03-01-2020 06:03:17 4.4 C 40 %
2774 03-01-2020 06:13:17 4.4 C 40 %
2775 03-01-2020 06:23:18 4.4 C 40 %
Sensor: Nr:Datum:Temp:Feuchte:
Aussen-T/F 2776 03-01-2020 06:33:17 4.7 C 40 %
2777 03-01-2020 06:43:17 5.3 C 40 %
2778 03-01-2020 06:53:18 6.7 C 34 %
2779 03-01-2020 07:03:18 7.1 C 31 %
2780 03-01-2020 07:13:18 7.7 C 30 %
2781 03-01-2020 07:23:17 8 C 29 %
2782 03-01-2020 07:33:17 7.9 C 30 %
2783 03-01-2020 07:43:17 7.8 C 30 %
2784 03-01-2020 07:53:17 7.9 C 29 %
2785 03-01-2020 08:03:18 7.9 C 30 %
2786 03-01-2020 08:13:18 8 C 29 %
2787 03-01-2020 08:23:17 7.9 C 29 %
2788 03-01-2020 08:33:18 7.8 C 29 %
2789 03-01-2020 08:43:18 7.9 C 29 %
2790 03-01-2020 08:53:17 8 C 29 %
2791 03-01-2020 09:03:17 8.2 C 28 %
2792 03-01-2020 09:13:17 8.2 C 28 %
2793 03-01-2020 09:23:17 8.2 C 28 %
2794 03-01-2020 09:33:17 8.4 C 28 %
2795 03-01-2020 09:43:17 8.4 C 27 %
2796 03-01-2020 09:53:17 8.4 C 27 %
2797 03-01-2020 10:03:17 8.6 C 27 %
2798 03-01-2020 10:13:17 8.6 C 27 %
2799 03-01-2020 10:23:17 8.6 C 27 %
2800 03-01-2020 10:33:17 8.6 C 27 %
Sensor: Nr:Datum:Temp:Feuchte:
Aussen-T/F 2801 03-01-2020 10:43:18 8.6 C 27 %
2802 03-01-2020 10:53:17 8.6 C 27 %
2803 03-01-2020 11:03:18 8.3 C 27 %
2804 03-01-2020 11:13:18 8.5 C 27 %
2805 03-01-2020 11:23:18 8.6 C 27 %
2806 03-01-2020 11:33:17 8.9 C 27 %
2807 03-01-2020 11:43:17 8.9 C 27 %
2808 03-01-2020 11:53:17 8.7 C 27 %
2809 03-01-2020 12:03:17 8.6 C 27 %
2810 03-01-2020 12:13:17 8.4 C 27 %
2811 03-01-2020 12:23:17 8.6 C 27 %
2812 03-01-2020 12:33:17 8.7 C 27 %
2813 03-01-2020 12:43:17 8.5 C 27 %
2814 03-01-2020 12:53:17 8.6 C 27 %
2815 03-01-2020 13:03:17 8.5 C 27 %
2816 03-01-2020 13:13:18 8.5 C 28 %
2817 03-01-2020 13:23:17 8.6 C 28 %
2818 03-01-2020 13:33:17 8.8 C 27 %
2819 03-01-2020 13:43:18 8.8 C 28 %
2820 03-01-2020 13:53:17 8.7 C 28 %
2821 03-01-2020 14:03:17 8.7 C 28 %
2822 03-01-2020 14:13:17 8.5 C 28 %
2823 03-01-2020 14:23:18 8.5 C 29 %
2824 03-01-2020 14:33:17 8.5 C 29 %
2825 03-01-2020 14:43:17 8.5 C 29 %
Sensor: Nr:Datum:Temp:Feuchte:
Aussen-T/F 2826 03-01-2020 14:53:17 8.5 C 30 %
2827 03-01-2020 15:03:17 9 C 28 %
2828 03-01-2020 15:13:17 9 C 28 %
2829 03-01-2020 15:23:17 9 C 28 %
2830 03-01-2020 15:33:17 9.1 C 28 %
2831 03-01-2020 15:43:18 9.2 C 28 %
2832 03-01-2020 15:53:17 9 C 28 %
2833 03-01-2020 16:03:17 9 C 28 %
2834 03-01-2020 16:13:17 9 C 29 %
2835 03-01-2020 16:23:17 8.9 C 30 %
2836 03-01-2020 16:33:17 9 C 29 %
2837 03-01-2020 16:43:17 9 C 29 %
2838 03-01-2020 16:53:17 9 C 29 %
2839 03-01-2020 17:03:17 8.6 C 31 %
2840 03-01-2020 17:13:17 8.6 C 31 %
2841 03-01-2020 17:23:17 8.9 C 31 %
2842 03-01-2020 17:33:17 8.8 C 30 %
2843 03-01-2020 17:43:17 8.9 C 30 %
2844 03-01-2020 17:53:17 9 C 30 %
2845 03-01-2020 18:03:17 9 C 30 %
2846 03-01-2020 18:13:18 9.1 C 30 %
2847 03-01-2020 18:23:18 9.3 C 30 %
2848 03-01-2020 18:33:18 9.3 C 30 %
2849 03-01-2020 18:43:18 9.2 C 30 %
2850 03-01-2020 18:53:17 9.3 C 30 %
Sensor: Nr:Datum:Temp:Feuchte:
Aussen-T/F 2851 03-01-2020 19:03:18 9.2 C 30 %
2852 03-01-2020 19:13:18 8.9 C 32 %
2853 03-01-2020 19:23:17 8.9 C 32 %
2854 03-01-2020 19:33:17 9.2 C 31 %
2855 03-01-2020 19:43:17 9.3 C 31 %
2856 03-01-2020 19:53:17 9.2 C 31 %
2857 03-01-2020 20:03:18 9 C 31 %
2858 03-01-2020 20:13:18 8.9 C 35 %
2859 03-01-2020 20:23:17 8.9 C 35 %
2860 03-01-2020 20:33:17 8.8 C 35 %
2861 03-01-2020 20:43:17 8.7 C 36 %
2862 03-01-2020 20:53:18 8.6 C 39 %
2863 03-01-2020 21:03:17 8.2 C 37 %
2864 03-01-2020 21:13:17 7.8 C 35 %
2865 03-01-2020 21:23:17 7.5 C 35 %
2866 03-01-2020 21:33:18 7.4 C 36 %
2867 03-01-2020 21:43:18 7.2 C 35 %
2868 03-01-2020 21:53:17 6.8 C 35 %
2869 03-01-2020 22:03:18 6.8 C 34 %
2870 03-01-2020 22:13:18 6.7 C 35 %
2871 03-01-2020 22:23:17 6.5 C 33 %
2872 03-01-2020 22:33:17 6.4 C 34 %
2873 03-01-2020 22:43:17 6 C 33 %
2874 03-01-2020 22:53:17 6 C 34 %
2875 03-01-2020 23:03:17 5.7 C 35 %
Sensor: Nr:Datum:Temp:Feuchte:
Aussen-T/F 2876 03-01-2020 23:13:17 5.9 C 34 %
2877 03-01-2020 23:23:17 5.8 C 35 %
2878 03-01-2020 23:33:17 5.8 C 33 %
2879 03-01-2020 23:43:17 5.7 C 35 %
2880 03-01-2020 23:53:17 5.8 C 35 %
2881 04-01-2020 00:03:18 5.7 C 35 %
2882 04-01-2020 00:13:18 5.6 C 35 %
2883 04-01-2020 00:23:17 5.4 C 35 %
2884 04-01-2020 00:33:17 5.6 C 33 %
2885 04-01-2020 00:43:17 5.6 C 33 %
2886 04-01-2020 00:53:17 5.4 C 34 %
2887 04-01-2020 01:03:17 5.3 C 34 %
2888 04-01-2020 01:13:17 4.6 C 36 %
2889 04-01-2020 01:23:17 4.6 C 36 %
2890 04-01-2020 01:33:17 4.6 C 36 %
2891 04-01-2020 01:43:17 3.6 C 37 %
2892 04-01-2020 01:53:18 3.6 C 41 %
2893 04-01-2020 02:03:17 3.5 C 41 %
2894 04-01-2020 02:13:17 3.9 C 37 %
2895 04-01-2020 02:23:17 3.8 C 35 %
2896 04-01-2020 02:33:17 3.5 C 37 %
2897 04-01-2020 02:43:17 3.4 C 40 %
2898 04-01-2020 02:53:17 3.8 C 39 %
2899 04-01-2020 03:03:18 3.7 C 39 %
2900 04-01-2020 03:13:18 3.9 C 40 %
Sensor: Nr:Datum:Temp:Feuchte:
Aussen-T/F 2901 04-01-2020 03:23:17 3.3 C 39 %
2902 04-01-2020 03:33:17 3 C 41 %
2903 04-01-2020 03:43:17 3.4 C 42 %
2904 04-01-2020 03:53:17 3.7 C 36 %
2905 04-01-2020 04:03:17 3.7 C 35 %
2906 04-01-2020 04:13:17 3.4 C 35 %
2907 04-01-2020 04:23:17 3.3 C 36 %
2908 04-01-2020 04:33:17 3.1 C 37 %
2909 04-01-2020 04:43:17 2.8 C 38 %
2910 04-01-2020 04:53:17 2.6 C 39 %
2911 04-01-2020 05:03:17 2.9 C 40 %
2912 04-01-2020 05:13:17 2.4 C 38 %
2913 04-01-2020 05:23:17 2.5 C 40 %
2914 04-01-2020 05:33:17 1.8 C 40 %
2915 04-01-2020 05:43:18 2 C 41 %
2916 04-01-2020 05:53:17 2.3 C 40 %
2917 04-01-2020 06:03:17 2.2 C 39 %
2918 04-01-2020 06:13:17 2.8 C 36 %
2919 04-01-2020 06:23:17 2.6 C 35 %
2920 04-01-2020 06:33:17 2.4 C 37 %
2921 04-01-2020 06:43:17 2.7 C 37 %
2922 04-01-2020 06:53:17 2.7 C 34 %
2923 04-01-2020 07:03:17 2.7 C 34 %
2924 04-01-2020 07:13:17 2.5 C 34 %
2925 04-01-2020 07:23:17 2.5 C 34 %
Sensor: Nr:Datum:Temp:Feuchte:
Aussen-T/F 2926 04-01-2020 07:33:17 2 C 36 %
2927 04-01-2020 07:43:17 2 C 36 %
2928 04-01-2020 07:53:17 2.1 C 37 %
2929 04-01-2020 08:03:17 1.7 C 39 %
2930 04-01-2020 08:13:17 1.6 C 41 %
2931 04-01-2020 08:23:17 1.3 C 41 %
2932 04-01-2020 08:33:17 1.2 C 43 %
2933 04-01-2020 08:43:17 1.3 C 42 %
2934 04-01-2020 08:53:17 1.2 C 41 %
2935 04-01-2020 09:03:17 1 C 41 %
2936 04-01-2020 09:13:17 0.8 C 44 %
2937 04-01-2020 09:23:17 1 C 44 %
2938 04-01-2020 09:33:18 1.4 C 45 %
2939 04-01-2020 09:43:18 1.7 C 44 %
2940 04-01-2020 09:53:17 1.9 C 41 %
2941 04-01-2020 10:03:18 2.1 C 39 %
2942 04-01-2020 10:13:18 2.3 C 38 %
2943 04-01-2020 10:23:17 3.1 C 35 %
2944 04-01-2020 10:33:17 3.6 C 33 %
2945 04-01-2020 10:43:17 5.1 C 27 %
2946 04-01-2020 10:53:17 5.1 C 27 %
2947 04-01-2020 11:03:17 5.4 C 27 %
2948 04-01-2020 11:13:17 5.4 C 27 %
2949 04-01-2020 11:23:17 5.6 C 27 %
2950 04-01-2020 11:33:17 5.6 C 27 %
Sensor: Nr:Datum:Temp:Feuchte:
Aussen-T/F 2951 04-01-2020 11:43:17 5.6 C 26 %
2952 04-01-2020 11:53:17 5.8 C 26 %
2953 04-01-2020 12:03:17 5.9 C 26 %
2954 04-01-2020 12:13:18 6 C 26 %
2955 04-01-2020 12:23:17 6.2 C 26 %
2956 04-01-2020 12:33:17 6.2 C 26 %
2957 04-01-2020 12:43:17 6.3 C 26 %
2958 04-01-2020 12:53:17 6.5 C 26 %
2959 04-01-2020 13:03:17 6.7 C 26 %
2960 04-01-2020 13:13:17 6.7 C 26 %
2961 04-01-2020 13:23:17 6.7 C 26 %
2962 04-01-2020 13:33:17 6.8 C 25 %
2963 04-01-2020 13:43:17 7 C 25 %
2964 04-01-2020 13:53:18 7 C 25 %
2965 04-01-2020 14:03:18 7 C 25 %
2966 04-01-2020 14:13:18 7 C 25 %
2967 04-01-2020 14:23:18 7.1 C 25 %
2968 04-01-2020 14:33:17 7.1 C 25 %
2969 04-01-2020 14:43:18 7 C 25 %
2970 04-01-2020 14:53:17 7 C 25 %
2971 04-01-2020 15:03:17 7.1 C 25 %
2972 04-01-2020 15:13:17 7 C 25 %
2973 04-01-2020 15:23:17 7 C 25 %
2974 04-01-2020 15:33:18 7 C 25 %
2975 04-01-2020 15:43:18 7 C 25 %
Sensor: Nr:Datum:Temp:Feuchte:
Aussen-T/F 2976 04-01-2020 15:53:18 6.9 C 25 %
2977 04-01-2020 16:03:17 6.9 C 25 %
2978 04-01-2020 16:13:18 6.9 C 25 %
2979 04-01-2020 16:23:17 6.9 C 25 %
2980 04-01-2020 16:33:17 6.8 C 25 %
2981 04-01-2020 16:43:17 6.8 C 25 %
2982 04-01-2020 16:53:17 6.8 C 25 %
2983 04-01-2020 17:03:17 6.8 C 25 %
2984 04-01-2020 17:13:17 6.8 C 25 %
2985 04-01-2020 17:23:17 6.7 C 25 %
2986 04-01-2020 17:33:18 6.7 C 25 %
2987 04-01-2020 17:43:18 6.6 C 25 %
2988 04-01-2020 17:53:17 6.6 C 25 %
2989 04-01-2020 18:03:17 6.7 C 25 %
2990 04-01-2020 18:13:17 6.6 C 25 %
2991 04-01-2020 18:23:17 6.8 C 25 %
2992 04-01-2020 18:33:17 6.7 C 25 %
2993 04-01-2020 18:43:17 6.6 C 25 %
2994 04-01-2020 18:53:17 6.5 C 25 %
2995 04-01-2020 19:03:17 6.6 C 25 %
2996 04-01-2020 19:13:17 6.7 C 25 %
2997 04-01-2020 19:23:17 6.5 C 26 %
2998 04-01-2020 19:33:17 6 C 27 %
2999 04-01-2020 19:43:17 5.8 C 30 %
3000 04-01-2020 19:53:17 5.6 C 30 %
Sensor: Nr:Datum:Temp:Feuchte:
Aussen-T/F 3001 04-01-2020 20:03:17 5.5 C 31 %
3002 04-01-2020 20:13:17 5.6 C 31 %
3003 04-01-2020 20:23:18 5.7 C 30 %
3004 04-01-2020 20:33:18 5.8 C 30 %
3005 04-01-2020 20:43:18 6 C 29 %
3006 04-01-2020 20:53:17 6.1 C 29 %
3007 04-01-2020 21:03:17 5.8 C 30 %
3008 04-01-2020 21:13:17 5.5 C 33 %
3009 04-01-2020 21:23:17 5.3 C 35 %
3010 04-01-2020 21:33:17 5.3 C 38 %
3011 04-01-2020 21:43:17 5.2 C 37 %
3012 04-01-2020 21:53:18 5.3 C 40 %
3013 04-01-2020 22:03:17 5.3 C 40 %
3014 04-01-2020 22:13:17 5.3 C 39 %
3015 04-01-2020 22:23:17 5.3 C 37 %
3016 04-01-2020 22:33:17 5.4 C 37 %
3017 04-01-2020 22:43:17 5.4 C 37 %
3018 04-01-2020 22:53:17 5.4 C 36 %
3019 04-01-2020 23:03:17 5.5 C 35 %
3020 04-01-2020 23:13:17 5.6 C 35 %
3021 04-01-2020 23:23:17 5.6 C 34 %
3022 04-01-2020 23:33:18 5.6 C 35 %
3023 04-01-2020 23:43:18 5.7 C 34 %
3024 04-01-2020 23:53:17 5.6 C 35 %
3025 05-01-2020 00:03:17 5.6 C 33 %
Sensor: Nr:Datum:Temp:Feuchte:
Aussen-T/F 3026 05-01-2020 00:13:17 5.5 C 35 %
3027 05-01-2020 00:23:17 5.4 C 35 %
3028 05-01-2020 00:33:18 5.4 C 35 %
3029 05-01-2020 00:43:18 5.3 C 36 %
3030 05-01-2020 00:53:17 5.3 C 36 %
3031 05-01-2020 01:03:17 5.1 C 37 %
3032 05-01-2020 01:13:17 5 C 40 %
3033 05-01-2020 01:23:17 4.9 C 42 %
3034 05-01-2020 01:33:17 4.8 C 41 %
3035 05-01-2020 01:43:18 4.8 C 42 %
3036 05-01-2020 01:53:17 4.7 C 42 %
3037 05-01-2020 02:03:18 4.8 C 41 %
3038 05-01-2020 02:13:18 4.7 C 41 %
3039 05-01-2020 02:23:17 4.6 C 43 %
3040 05-01-2020 02:33:17 4.5 C 44 %
3041 05-01-2020 02:43:17 4.6 C 44 %
3042 05-01-2020 02:53:17 4.6 C 42 %
3043 05-01-2020 03:03:17 4.6 C 42 %
3044 05-01-2020 03:13:17 4.6 C 41 %
3045 05-01-2020 03:23:17 4.3 C 42 %
3046 05-01-2020 03:33:17 4.3 C 43 %
3047 05-01-2020 03:43:17 4.4 C 44 %
3048 05-01-2020 03:53:17 4.5 C 44 %
3049 05-01-2020 04:03:17 4.4 C 43 %
3050 05-01-2020 04:13:17 4.4 C 43 %
Sensor: Nr:Datum:Temp:Feuchte:
Aussen-T/F 3051 05-01-2020 04:23:17 4.3 C 42 %
3052 05-01-2020 04:33:17 4.3 C 43 %
3053 05-01-2020 04:43:17 4.4 C 43 %
3054 05-01-2020 04:53:17 4.4 C 42 %
3055 05-01-2020 05:03:17 4.4 C 42 %
3056 05-01-2020 05:13:17 4.4 C 42 %
3057 05-01-2020 05:23:17 4.4 C 42 %
3058 05-01-2020 05:33:18 4.5 C 43 %
3059 05-01-2020 05:43:18 4.6 C 43 %
3060 05-01-2020 05:53:17 4.5 C 43 %
3061 05-01-2020 06:03:17 4.6 C 43 %
3062 05-01-2020 06:13:17 4.6 C 43 %
3063 05-01-2020 06:23:17 4.6 C 42 %
3064 05-01-2020 06:33:17 4.7 C 41 %
3065 05-01-2020 06:43:17 4.7 C 40 %
3066 05-01-2020 06:53:17 4.6 C 41 %
3067 05-01-2020 07:03:17 4.6 C 41 %
3068 05-01-2020 07:13:17 4.6 C 42 %
3069 05-01-2020 07:23:17 4.5 C 42 %
3070 05-01-2020 07:33:17 4.5 C 41 %
3071 05-01-2020 07:43:17 4.4 C 41 %
3072 05-01-2020 07:53:17 4.4 C 41 %
3073 05-01-2020 08:03:18 4.3 C 42 %
3074 05-01-2020 08:13:18 4.3 C 42 %
3075 05-01-2020 08:23:17 4.3 C 41 %
Sensor: Nr:Datum:Temp:Feuchte:
Aussen-T/F 3076 05-01-2020 08:33:17 4.4 C 42 %
3077 05-01-2020 08:43:17 4.4 C 41 %
3078 05-01-2020 08:53:17 4.6 C 40 %
3079 05-01-2020 09:03:18 4.6 C 39 %
3080 05-01-2020 09:13:18 4.6 C 40 %
3081 05-01-2020 09:23:17 4.7 C 38 %
3082 05-01-2020 09:33:18 4.8 C 38 %
3083 05-01-2020 09:43:18 5 C 36 %
3084 05-01-2020 09:53:17 5.1 C 35 %
3085 05-01-2020 10:03:17 5.3 C 35 %
3086 05-01-2020 10:13:18 5.4 C 34 %
3087 05-01-2020 10:23:18 5.4 C 34 %
3088 05-01-2020 10:33:18 5.5 C 33 %
3089 05-01-2020 10:43:18 5.5 C 33 %
3090 05-01-2020 10:53:17 5.5 C 34 %
3091 05-01-2020 11:03:17 5.7 C 34 %
3092 05-01-2020 11:13:17 5.7 C 33 %
3093 05-01-2020 11:23:17 5.7 C 33 %
3094 05-01-2020 11:33:17 5.9 C 32 %
3095 05-01-2020 11:43:17 5.9 C 32 %
3096 05-01-2020 11:53:17 6 C 32 %
3097 05-01-2020 12:03:17 6 C 31 %
3098 05-01-2020 12:13:17 6 C 31 %
3099 05-01-2020 12:23:17 6.1 C 31 %
3100 05-01-2020 12:33:17 6.2 C 31 %
Sensor: Nr:Datum:Temp:Feuchte:
Aussen-T/F 3101 05-01-2020 12:43:17 6.2 C 31 %
3102 05-01-2020 12:53:17 6.2 C 31 %
3103 05-01-2020 13:03:17 6.3 C 31 %
3104 05-01-2020 13:13:17 6.5 C 30 %
3105 05-01-2020 13:23:17 6.5 C 30 %
3106 05-01-2020 13:33:18 6.5 C 30 %
3107 05-01-2020 13:43:18 6.6 C 30 %
3108 05-01-2020 13:53:18 6.6 C 30 %
3109 05-01-2020 14:03:18 6.7 C 30 %
3110 05-01-2020 14:13:18 6.6 C 30 %
3111 05-01-2020 14:23:18 6.7 C 30 %
3112 05-01-2020 14:33:18 6.7 C 30 %
3113 05-01-2020 14:43:18 6.7 C 30 %
3114 05-01-2020 14:53:17 6.7 C 30 %
3115 05-01-2020 15:03:18 6.6 C 30 %
3116 05-01-2020 15:13:18 6.6 C 30 %
3117 05-01-2020 15:23:18 6.5 C 31 %
3118 05-01-2020 15:33:18 6.3 C 33 %
3119 05-01-2020 15:43:18 6.1 C 34 %
3120 05-01-2020 15:53:18 6 C 35 %
3121 05-01-2020 16:03:18 6 C 35 %
3122 05-01-2020 16:13:18 5.9 C 36 %
3123 05-01-2020 16:23:17 5.8 C 36 %
3124 05-01-2020 16:33:17 5.7 C 36 %
3125 05-01-2020 16:43:17 5.7 C 35 %
Sensor: Nr:Datum:Temp:Feuchte:
Aussen-T/F 3126 05-01-2020 16:53:18 5.6 C 36 %
3127 05-01-2020 17:03:18 5.6 C 35 %
3128 05-01-2020 17:13:18 5.6 C 34 %
3129 05-01-2020 17:23:18 5.7 C 31 %
3130 05-01-2020 17:33:18 5.6 C 31 %
3131 05-01-2020 17:43:18 5.6 C 31 %
3132 05-01-2020 17:53:17 5.7 C 31 %
3133 05-01-2020 18:03:17 5.6 C 31 %
3134 05-01-2020 18:13:17 5.5 C 31 %
3135 05-01-2020 18:23:17 5.6 C 30 %
3136 05-01-2020 18:33:17 5.7 C 29 %
3137 05-01-2020 18:43:17 5.5 C 30 %
3138 05-01-2020 18:53:17 5.6 C 30 %
3139 05-01-2020 19:03:17 5.5 C 30 %
3140 05-01-2020 19:13:17 5.6 C 30 %
3141 05-01-2020 19:23:17 5.4 C 31 %
3142 05-01-2020 19:33:17 5.3 C 31 %
3143 05-01-2020 19:43:17 5.4 C 31 %
3144 05-01-2020 19:53:18 5.3 C 31 %
3145 05-01-2020 20:03:18 5.2 C 32 %
3146 05-01-2020 20:13:18 5.5 C 29 %
3147 05-01-2020 20:23:18 5.3 C 30 %
3148 05-01-2020 20:33:18 5.3 C 30 %
3149 05-01-2020 20:43:18 5.2 C 31 %
3150 05-01-2020 20:53:18 5.2 C 31 %
Sensor: Nr:Datum:Temp:Feuchte:
Aussen-T/F 3151 05-01-2020 21:03:18 5 C 32 %
3152 05-01-2020 21:13:18 5.1 C 32 %
3153 05-01-2020 21:23:18 5 C 32 %
3154 05-01-2020 21:33:17 4.9 C 34 %
3155 05-01-2020 21:43:17 4.8 C 35 %
3156 05-01-2020 21:53:17 4.8 C 35 %
3157 05-01-2020 22:03:17 4.8 C 35 %
3158 05-01-2020 22:13:17 4.8 C 35 %
3159 05-01-2020 22:23:17 4.7 C 35 %
3160 05-01-2020 22:33:17 4.7 C 35 %
3161 05-01-2020 22:43:17 4.7 C 35 %
3162 05-01-2020 22:53:17 4.6 C 36 %
3163 05-01-2020 23:03:17 4.5 C 36 %
3164 05-01-2020 23:13:17 4.4 C 37 %
3165 05-01-2020 23:23:17 4.4 C 36 %
3166 05-01-2020 23:33:17 4.5 C 36 %
3167 05-01-2020 23:43:17 4.4 C 35 %
3168 05-01-2020 23:53:17 4.5 C 33 %
3169 06-01-2020 00:03:18 4.4 C 33 %
3170 06-01-2020 00:13:18 4.5 C 33 %
3171 06-01-2020 00:23:18 4.4 C 32 %
3172 06-01-2020 00:33:18 4.4 C 34 %
3173 06-01-2020 00:43:18 4.4 C 32 %
3174 06-01-2020 00:53:18 4.3 C 33 %
3175 06-01-2020 01:03:18 4.3 C 32 %
Sensor: Nr:Datum:Temp:Feuchte:
Aussen-T/F 3176 06-01-2020 01:13:18 4.3 C 32 %
3177 06-01-2020 01:23:17 4.4 C 31 %
3178 06-01-2020 01:33:18 4.2 C 32 %
3179 06-01-2020 01:43:18 4.2 C 32 %
3180 06-01-2020 01:53:17 4.1 C 33 %
3181 06-01-2020 02:03:18 4.2 C 31 %
3182 06-01-2020 02:13:18 4.2 C 32 %
3183 06-01-2020 02:23:18 4.3 C 32 %
3184 06-01-2020 02:33:18 4.1 C 32 %
3185 06-01-2020 02:43:18 4.2 C 31 %
3186 06-01-2020 02:53:18 4.1 C 30 %
3187 06-01-2020 03:03:18 4.2 C 30 %
3188 06-01-2020 03:13:18 4.2 C 31 %
3189 06-01-2020 03:23:17 4.1 C 31 %
3190 06-01-2020 03:33:18 4.1 C 32 %
3191 06-01-2020 03:43:18 3.9 C 32 %
3192 06-01-2020 03:53:18 4.1 C 31 %
3193 06-01-2020 04:03:18 4.1 C 31 %
3194 06-01-2020 04:13:18 4.1 C 29 %
3195 06-01-2020 04:23:18 4.1 C 30 %
3196 06-01-2020 04:33:18 3.8 C 32 %
3197 06-01-2020 04:43:18 3.8 C 34 %
3198 06-01-2020 04:53:17 3.7 C 33 %
3199 06-01-2020 05:03:18 3.8 C 33 %
3200 06-01-2020 05:13:18 3.8 C 33 %
Sensor: Nr:Datum:Temp:Feuchte:
Aussen-T/F 3201 06-01-2020 05:23:18 3.5 C 35 %
3202 06-01-2020 05:33:18 3.6 C 35 %
3203 06-01-2020 05:43:18 3.6 C 35 %
3204 06-01-2020 05:53:18 3.5 C 35 %
3205 06-01-2020 06:03:18 3.5 C 33 %
3206 06-01-2020 06:13:18 3.5 C 33 %
3207 06-01-2020 06:23:18 3.3 C 35 %
3208 06-01-2020 06:33:18 3.3 C 35 %
3209 06-01-2020 06:43:18 3.2 C 36 %
3210 06-01-2020 06:53:18 3 C 36 %
3211 06-01-2020 07:03:18 3 C 35 %
3212 06-01-2020 07:13:18 2.8 C 36 %
3213 06-01-2020 07:23:18 2.9 C 37 %
3214 06-01-2020 07:33:17 2.7 C 38 %
3215 06-01-2020 07:43:17 2.6 C 38 %
3216 06-01-2020 07:53:18 2.6 C 38 %
3217 06-01-2020 08:03:17 2.7 C 35 %
3218 06-01-2020 08:13:17 2.6 C 35 %
3219 06-01-2020 08:23:17 2.4 C 35 %
3220 06-01-2020 08:33:17 2.2 C 36 %
3221 06-01-2020 08:43:17 2.3 C 38 %
3222 06-01-2020 08:53:17 2.4 C 38 %
3223 06-01-2020 09:03:17 2.6 C 38 %
3224 06-01-2020 09:13:17 2.8 C 36 %
3225 06-01-2020 09:23:18 3 C 35 %
Sensor: Nr:Datum:Temp:Feuchte:
Aussen-T/F 3226 06-01-2020 09:33:18 3.2 C 32 %
3227 06-01-2020 09:43:18 2.7 C 33 %
3228 06-01-2020 09:53:17 2.7 C 34 %
3229 06-01-2020 10:03:18 3.4 C 35 %
3230 06-01-2020 10:13:18 3.3 C 31 %
3231 06-01-2020 10:23:17 3 C 31 %
3232 06-01-2020 10:33:18 2.7 C 32 %
3233 06-01-2020 10:43:18 2.4 C 34 %
3234 06-01-2020 10:53:17 1.9 C 37 %
3235 06-01-2020 11:03:17 1.6 C 40 %
3236 06-01-2020 11:13:17 1.6 C 41 %
3237 06-01-2020 11:23:17 1.7 C 42 %
3238 06-01-2020 11:33:17 2.2 C 40 %
3239 06-01-2020 11:43:17 2 C 37 %
3240 06-01-2020 11:53:17 1.9 C 40 %
3241 06-01-2020 12:03:17 2 C 38 %
3242 06-01-2020 12:13:17 2 C 38 %
3243 06-01-2020 12:23:18 2.1 C 39 %
3244 06-01-2020 12:33:18 2.1 C 38 %
3245 06-01-2020 12:43:18 2.3 C 38 %
3246 06-01-2020 12:53:17 2.3 C 38 %
3247 06-01-2020 13:03:18 2.5 C 38 %
3248 06-01-2020 13:13:18 2.4 C 38 %
3249 06-01-2020 13:23:17 2.1 C 39 %
3250 06-01-2020 13:33:17 2.4 C 40 %
Sensor: Nr:Datum:Temp:Feuchte:
Aussen-T/F 3251 06-01-2020 13:43:17 2.7 C 39 %
3252 06-01-2020 13:53:17 2.6 C 37 %
3253 06-01-2020 14:03:17 2.5 C 38 %
3254 06-01-2020 14:13:17 2.6 C 39 %
3255 06-01-2020 14:23:17 2.5 C 39 %
3256 06-01-2020 14:33:18 2.4 C 39 %
3257 06-01-2020 14:43:18 2.8 C 40 %
3258 06-01-2020 14:53:17 2.7 C 40 %
3259 06-01-2020 15:03:18 2.6 C 39 %
3260 06-01-2020 15:13:18 2.8 C 38 %
3261 06-01-2020 15:23:18 2.8 C 39 %
3262 06-01-2020 15:33:18 2.7 C 39 %
3263 06-01-2020 15:43:18 2.6 C 40 %
3264 06-01-2020 15:53:18 2.4 C 39 %
3265 06-01-2020 16:03:18 2 C 40 %
3266 06-01-2020 16:13:18 1.7 C 42 %
3267 06-01-2020 16:23:17 1.8 C 43 %
3268 06-01-2020 16:33:17 1.8 C 42 %
3269 06-01-2020 16:43:17 1.2 C 41 %
3270 06-01-2020 16:53:18 1.2 C 44 %
3271 06-01-2020 17:03:18 1.3 C 43 %
3272 06-01-2020 17:13:18 0.5 C 43 %
3273 06-01-2020 17:23:18 0.8 C 45 %
3274 06-01-2020 17:33:18 0.8 C 45 %
3275 06-01-2020 17:43:18 0.5 C 43 %
Sensor: Nr:Datum:Temp:Feuchte:
Aussen-T/F 3276 06-01-2020 17:53:17 0.1 C 44 %
3277 06-01-2020 18:03:18 0 C 45 %
3278 06-01-2020 18:13:18 -0.1 C 45 %
3279 06-01-2020 18:23:18 0 C 45 %
3280 06-01-2020 18:33:17 -0.4 C 45 %
3281 06-01-2020 18:43:17 -0.1 C 45 %
3282 06-01-2020 18:53:17 -0.2 C 45 %
3283 06-01-2020 19:03:18 -0.2 C 45 %
3284 06-01-2020 19:13:18 -0.5 C 44 %
3285 06-01-2020 19:23:17 -0.6 C 44 %
3286 06-01-2020 19:33:17 -1.3 C 43 %
3287 06-01-2020 19:43:17 -1 C 45 %
3288 06-01-2020 19:53:18 -1.1 C 45 %
3289 06-01-2020 20:03:18 -1.5 C 44 %
3290 06-01-2020 20:13:18 -1 C 45 %
3291 06-01-2020 20:23:18 -0.8 C 45 %
3292 06-01-2020 20:33:18 -0.7 C 45 %
3293 06-01-2020 20:43:18 -0.8 C 45 %
3294 06-01-2020 20:53:18 -0.9 C 44 %
3295 06-01-2020 21:03:18 -1.1 C 44 %
3296 06-01-2020 21:13:18 -1.1 C 44 %
3297 06-01-2020 21:23:18 -1.3 C 44 %
3298 06-01-2020 21:33:18 -1.2 C 45 %
3299 06-01-2020 21:43:18 -0.8 C 45 %
3300 06-01-2020 21:53:18 -0.5 C 46 %
Sensor: Nr:Datum:Temp:Feuchte:
Aussen-T/F 3301 06-01-2020 22:03:18 -0.3 C 46 %
3302 06-01-2020 22:13:18 0.2 C 46 %
3303 06-01-2020 22:23:17 0.5 C 45 %
3304 06-01-2020 22:33:17 0.6 C 42 %
3305 06-01-2020 22:43:17 0.5 C 42 %
3306 06-01-2020 22:53:18 0.6 C 42 %
3307 06-01-2020 23:03:18 0.7 C 44 %
3308 06-01-2020 23:13:18 0.8 C 44 %
3309 06-01-2020 23:23:18 0.7 C 43 %
3310 06-01-2020 23:33:18 0.6 C 44 %
3311 06-01-2020 23:43:18 0.8 C 45 %
3312 06-01-2020 23:53:18 1 C 43 %
3313 07-01-2020 00:03:18 1.2 C 43 %
3314 07-01-2020 00:13:18 1.8 C 39 %
3315 07-01-2020 00:23:17 2 C 37 %
3316 07-01-2020 00:33:17 1.8 C 39 %
3317 07-01-2020 00:43:17 2.3 C 36 %
3318 07-01-2020 00:53:17 2.5 C 35 %
3319 07-01-2020 01:03:17 2.5 C 36 %
3320 07-01-2020 01:13:17 2.6 C 35 %
3321 07-01-2020 01:23:17 2.8 C 35 %
3322 07-01-2020 01:33:17 3 C 34 %
3323 07-01-2020 01:43:17 3 C 34 %
3324 07-01-2020 01:53:18 3 C 35 %
3325 07-01-2020 02:03:18 3.3 C 33 %
Sensor: Nr:Datum:Temp:Feuchte:
Aussen-T/F 3326 07-01-2020 02:13:18 3.1 C 33 %
3327 07-01-2020 02:23:17 2.8 C 37 %
3328 07-01-2020 02:33:17 2.8 C 38 %
3329 07-01-2020 02:43:17 2.8 C 38 %
3330 07-01-2020 02:53:18 2.8 C 38 %
3331 07-01-2020 03:03:18 2.8 C 38 %
3332 07-01-2020 03:13:18 2.7 C 39 %
3333 07-01-2020 03:23:18 2.7 C 40 %
3334 07-01-2020 03:33:18 2.7 C 40 %
3335 07-01-2020 03:43:18 2.7 C 39 %
3336 07-01-2020 03:53:18 2.9 C 39 %
3337 07-01-2020 04:03:18 2.9 C 40 %
3338 07-01-2020 04:13:18 3 C 37 %
3339 07-01-2020 04:23:18 3 C 37 %
3340 07-01-2020 04:33:18 3.2 C 36 %
3341 07-01-2020 04:43:18 3.2 C 36 %
3342 07-01-2020 04:53:18 3.3 C 38 %
3343 07-01-2020 05:03:18 3.5 C 37 %
3344 07-01-2020 05:13:18 3.3 C 37 %
3345 07-01-2020 05:23:17 3.4 C 37 %
3346 07-01-2020 05:33:17 3.5 C 37 %
3347 07-01-2020 05:43:17 3.5 C 38 %
3348 07-01-2020 05:53:18 3.6 C 37 %
3349 07-01-2020 06:03:18 3.6 C 37 %
3350 07-01-2020 06:13:18 3.7 C 36 %
Sensor: Nr:Datum:Temp:Feuchte:
Aussen-T/F 3351 07-01-2020 06:23:18 3.9 C 36 %
3352 07-01-2020 06:33:18 4 C 35 %
3353 07-01-2020 06:43:18 4.3 C 34 %
3354 07-01-2020 06:53:17 4.3 C 34 %
3355 07-01-2020 07:03:18 4.3 C 34 %
3356 07-01-2020 07:13:18 4.4 C 34 %
3357 07-01-2020 07:23:18 4.4 C 34 %
3358 07-01-2020 07:33:18 4.4 C 34 %
3359 07-01-2020 07:43:18 4.3 C 34 %
3360 07-01-2020 07:53:18 4.3 C 35 %
3361 07-01-2020 08:03:18 4.4 C 35 %
3362 07-01-2020 08:13:18 4.4 C 35 %
3363 07-01-2020 08:23:17 4.3 C 35 %
3364 07-01-2020 08:33:17 3.9 C 37 %
3365 07-01-2020 08:43:17 3.6 C 40 %
3366 07-01-2020 08:53:17 3.8 C 41 %
3367 07-01-2020 09:03:18 4 C 38 %
3368 07-01-2020 09:13:18 3.9 C 40 %
3369 07-01-2020 09:23:17 4 C 37 %
3370 07-01-2020 09:33:17 4.2 C 37 %
3371 07-01-2020 09:43:17 4.5 C 35 %
3372 07-01-2020 09:53:18 4.6 C 35 %
3373 07-01-2020 10:03:17 4.8 C 35 %
3374 07-01-2020 10:13:17 4.9 C 35 %
3375 07-01-2020 10:23:17 5.1 C 33 %
Sensor: Nr:Datum:Temp:Feuchte:
Aussen-T/F 3376 07-01-2020 10:33:17 5.4 C 33 %
3377 07-01-2020 10:43:17 5.5 C 33 %
3378 07-01-2020 10:53:17 5.6 C 33 %
3379 07-01-2020 11:03:17 5.9 C 32 %
3380 07-01-2020 11:13:17 6.1 C 31 %
3381 07-01-2020 11:23:18 6.3 C 31 %
3382 07-01-2020 11:33:18 6.3 C 31 %
3383 07-01-2020 11:43:18 6.4 C 31 %
3384 07-01-2020 11:53:17 6.4 C 30 %
3385 07-01-2020 12:03:18 6.6 C 30 %
3386 07-01-2020 12:13:18 6.8 C 30 %
3387 07-01-2020 12:23:18 6.8 C 29 %
3388 07-01-2020 12:33:17 6.7 C 29 %
3389 07-01-2020 12:43:17 6.5 C 30 %
3390 07-01-2020 12:53:18 6.5 C 30 %
3391 07-01-2020 13:03:17 6.8 C 29 %
3392 07-01-2020 13:13:17 7 C 27 %
3393 07-01-2020 13:23:17 6.9 C 29 %
3394 07-01-2020 13:33:17 6.9 C 28 %
3395 07-01-2020 13:43:17 6.8 C 29 %
3396 07-01-2020 13:53:17 7 C 27 %
3397 07-01-2020 14:03:18 7.1 C 27 %
3398 07-01-2020 14:13:18 7 C 27 %
3399 07-01-2020 14:23:17 7.1 C 27 %
3400 07-01-2020 14:33:17 7.3 C 26 %
Sensor: Nr:Datum:Temp:Feuchte:
Aussen-T/F 3401 07-01-2020 14:43:17 6.8 C 28 %
3402 07-01-2020 14:53:17 7.2 C 26 %
3403 07-01-2020 15:03:17 6.7 C 28 %
3404 07-01-2020 15:13:17 6.4 C 28 %
3405 07-01-2020 15:23:17 6.3 C 28 %
3406 07-01-2020 15:33:17 6 C 29 %
3407 07-01-2020 15:43:17 5.7 C 30 %
3408 07-01-2020 15:53:17 5.5 C 31 %
3409 07-01-2020 16:03:17 5.3 C 31 %
3410 07-01-2020 16:13:17 5.4 C 31 %
3411 07-01-2020 16:23:17 5.4 C 31 %
3412 07-01-2020 16:33:17 4.5 C 35 %
3413 07-01-2020 16:43:17 4 C 37 %
3414 07-01-2020 16:53:17 4.1 C 37 %
3415 07-01-2020 17:03:18 3.6 C 40 %
3416 07-01-2020 17:13:18 3.5 C 40 %
3417 07-01-2020 17:23:18 3.3 C 41 %
3418 07-01-2020 17:33:18 3.3 C 42 %
3419 07-01-2020 17:43:18 3.1 C 41 %
3420 07-01-2020 17:53:17 2.9 C 43 %
3421 07-01-2020 18:03:18 3.1 C 43 %
3422 07-01-2020 18:13:18 3.2 C 43 %
3423 07-01-2020 18:23:18 2.9 C 43 %
3424 07-01-2020 18:33:18 2.7 C 43 %
3425 07-01-2020 18:43:18 2.9 C 44 %
Sensor: Nr:Datum:Temp:Feuchte:
Aussen-T/F 3426 07-01-2020 18:53:18 2.7 C 43 %
3427 07-01-2020 19:03:17 2.8 C 44 %
3428 07-01-2020 19:13:17 2.5 C 43 %
3429 07-01-2020 19:23:17 2.5 C 43 %
3430 07-01-2020 19:33:18 2.5 C 43 %
3431 07-01-2020 19:43:18 2.5 C 43 %
3432 07-01-2020 19:53:17 3 C 43 %
3433 07-01-2020 20:03:18 3.6 C 42 %
3434 07-01-2020 20:13:18 4.1 C 38 %
3435 07-01-2020 20:23:18 3.6 C 38 %
3436 07-01-2020 20:33:18 3.6 C 39 %
3437 07-01-2020 20:43:18 4 C 37 %
3438 07-01-2020 20:53:17 4.7 C 35 %
3439 07-01-2020 21:03:18 5.1 C 32 %
3440 07-01-2020 21:13:18 5.1 C 32 %
3441 07-01-2020 21:23:18 5.3 C 31 %
3442 07-01-2020 21:33:18 5.7 C 31 %
3443 07-01-2020 21:43:18 5.7 C 30 %
3444 07-01-2020 21:53:17 5.7 C 30 %
3445 07-01-2020 22:03:18 6 C 28 %
3446 07-01-2020 22:13:18 5.8 C 29 %
3447 07-01-2020 22:24:17 5.9 C 29 %
3448 07-01-2020 22:33:17 5.7 C 29 %
3449 07-01-2020 22:43:17 5.7 C 30 %
3450 07-01-2020 22:53:17 5.9 C 29 %
Sensor: Nr:Datum:Temp:Feuchte:
Aussen-T/F 3451 07-01-2020 23:03:18 6 C 28 %
3452 07-01-2020 23:13:18 6 C 28 %
3453 07-01-2020 23:23:18 6.1 C 28 %
3454 07-01-2020 23:33:18 5.9 C 28 %
3455 07-01-2020 23:43:18 5.6 C 30 %
3456 07-01-2020 23:53:18 5.7 C 29 %
3457 08-01-2020 00:04:17 5.7 C 29 %
3458 08-01-2020 00:14:17 5.4 C 30 %
3459 08-01-2020 00:24:17 5.6 C 29 %
3460 08-01-2020 00:34:17 5.6 C 28 %
3461 08-01-2020 00:44:17 5.5 C 29 %
3462 08-01-2020 00:53:18 5.7 C 28 %
3463 08-01-2020 01:03:18 5.4 C 28 %
3464 08-01-2020 01:13:18 5.6 C 28 %
3465 08-01-2020 01:24:17 5.4 C 28 %
3466 08-01-2020 01:33:18 5.4 C 28 %
3467 08-01-2020 01:43:18 5.3 C 28 %
3468 08-01-2020 01:53:17 4.7 C 30 %
3469 08-01-2020 02:03:18 4.7 C 30 %
3470 08-01-2020 02:13:18 5 C 30 %
3471 08-01-2020 02:23:18 5 C 30 %
3472 08-01-2020 02:33:18 5.3 C 30 %
3473 08-01-2020 02:43:18 5.4 C 30 %
3474 08-01-2020 02:53:18 5.5 C 30 %
3475 08-01-2020 03:03:18 5.9 C 30 %
Sensor: Nr:Datum:Temp:Feuchte:
Aussen-T/F 3476 08-01-2020 03:13:18 5.8 C 30 %
3477 08-01-2020 03:23:18 5.9 C 30 %
3478 08-01-2020 03:33:18 5.8 C 30 %
3479 08-01-2020 03:43:18 6 C 30 %
3480 08-01-2020 03:53:17 5.9 C 30 %
3481 08-01-2020 04:03:18 5.9 C 30 %
3482 08-01-2020 04:13:18 5.8 C 31 %
3483 08-01-2020 04:23:18 5.8 C 31 %
3484 08-01-2020 04:33:18 5.7 C 32 %
3485 08-01-2020 04:43:18 5.7 C 32 %
3486 08-01-2020 04:54:17 5.6 C 33 %
3487 08-01-2020 05:04:17 5.6 C 33 %
3488 08-01-2020 05:14:17 5.7 C 33 %
3489 08-01-2020 05:24:17 5.8 C 34 %
3490 08-01-2020 05:34:17 5.7 C 34 %
3491 08-01-2020 05:44:17 5.8 C 35 %
3492 08-01-2020 05:54:17 5.8 C 35 %
3493 08-01-2020 06:04:17 6 C 35 %
3494 08-01-2020 06:14:17 5.9 C 35 %
3495 08-01-2020 06:24:17 6 C 35 %
3496 08-01-2020 06:34:17 6.2 C 35 %
3497 08-01-2020 06:44:17 6.1 C 36 %
3498 08-01-2020 06:54:17 6 C 39 %
3499 08-01-2020 07:04:17 5.8 C 41 %
3500 08-01-2020 07:14:17 5.9 C 42 %
Sensor: Nr:Datum:Temp:Feuchte:
Aussen-T/F 3501 08-01-2020 07:24:18 6 C 42 %
3502 08-01-2020 07:34:18 6.1 C 42 %
3503 08-01-2020 07:44:18 6.2 C 42 %
3504 08-01-2020 07:54:17 6.2 C 42 %
3505 08-01-2020 08:04:17 6.3 C 42 %
3506 08-01-2020 08:14:17 6.2 C 42 %
3507 08-01-2020 08:24:17 6.2 C 42 %
3508 08-01-2020 08:34:18 6.1 C 42 %
3509 08-01-2020 08:44:18 6.6 C 41 %
3510 08-01-2020 08:54:17 6.7 C 39 %
3511 08-01-2020 09:04:17 6.8 C 39 %
3512 08-01-2020 09:14:17 6.8 C 39 %
3513 08-01-2020 09:24:17 6.7 C 39 %
3514 08-01-2020 09:34:17 6.7 C 40 %
3515 08-01-2020 09:44:17 6.9 C 39 %
3516 08-01-2020 09:54:17 7.1 C 38 %
3517 08-01-2020 10:04:17 7.1 C 38 %
3518 08-01-2020 10:14:17 7.2 C 37 %
3519 08-01-2020 10:24:17 7.4 C 36 %
3520 08-01-2020 10:34:17 7.3 C 36 %
3521 08-01-2020 10:44:17 7.4 C 36 %
3522 08-01-2020 10:54:17 7.5 C 35 %
3523 08-01-2020 11:04:17 7.7 C 35 %
3524 08-01-2020 11:14:17 7.8 C 35 %
3525 08-01-2020 11:24:17 7.9 C 34 %
Sensor: Nr:Datum:Temp:Feuchte:
Aussen-T/F 3526 08-01-2020 11:34:17 7.8 C 35 %
3527 08-01-2020 11:44:17 7.9 C 34 %
3528 08-01-2020 11:54:17 7.7 C 35 %
3529 08-01-2020 12:04:17 7.6 C 36 %
3530 08-01-2020 12:14:17 7.7 C 36 %
3531 08-01-2020 12:24:16 7.9 C 35 %
3532 08-01-2020 12:34:17 8 C 34 %
3533 08-01-2020 12:44:17 8.1 C 34 %
3534 08-01-2020 12:54:17 8.8 C 33 %
3535 08-01-2020 13:04:17 9 C 31 %
3536 08-01-2020 13:14:17 8.8 C 32 %
3537 08-01-2020 13:24:17 8.7 C 32 %
3538 08-01-2020 13:34:17 8.8 C 32 %
3539 08-01-2020 13:44:17 8.8 C 32 %
3540 08-01-2020 13:54:17 8.7 C 32 %
3541 08-01-2020 14:04:16 8.9 C 32 %
3542 08-01-2020 14:14:16 9 C 32 %
3543 08-01-2020 14:24:16 9 C 32 %
3544 08-01-2020 14:34:16 9 C 32 %
3545 08-01-2020 14:44:16 9.1 C 32 %
3546 08-01-2020 14:54:16 9.3 C 31 %
3547 08-01-2020 15:04:16 9.4 C 31 %
3548 08-01-2020 15:14:16 9.4 C 31 %
3549 08-01-2020 15:24:16 9.4 C 31 %
3550 08-01-2020 15:34:16 9.3 C 32 %
Sensor: Nr:Datum:Temp:Feuchte:
Aussen-T/F 3551 08-01-2020 15:44:16 9.3 C 32 %
3552 08-01-2020 15:54:16 9.4 C 32 %
3553 08-01-2020 16:04:17 9.3 C 32 %
3554 08-01-2020 16:14:17 9.3 C 32 %
3555 08-01-2020 16:24:17 9.2 C 33 %
3556 08-01-2020 16:34:17 9.2 C 33 %
3557 08-01-2020 16:44:17 9.3 C 33 %
3558 08-01-2020 16:54:17 9.3 C 34 %
3559 08-01-2020 17:04:17 9.3 C 34 %
3560 08-01-2020 17:14:17 9.3 C 34 %
3561 08-01-2020 17:24:17 9.3 C 34 %
3562 08-01-2020 17:34:17 9.2 C 35 %
3563 08-01-2020 17:44:17 9.2 C 35 %
3564 08-01-2020 17:54:17 9.1 C 35 %
3565 08-01-2020 18:04:17 9.2 C 35 %
3566 08-01-2020 18:14:17 9.1 C 36 %
3567 08-01-2020 18:24:17 9.1 C 36 %
3568 08-01-2020 18:34:17 9.2 C 35 %
3569 08-01-2020 18:44:17 9.4 C 35 %
3570 08-01-2020 18:54:17 9.4 C 35 %
3571 08-01-2020 19:04:17 9.5 C 36 %
3572 08-01-2020 19:14:17 9.6 C 35 %
3573 08-01-2020 19:24:17 9.7 C 35 %
3574 08-01-2020 19:34:17 9.6 C 35 %
3575 08-01-2020 19:44:17 9.5 C 35 %
Sensor: Nr:Datum:Temp:Feuchte:
Aussen-T/F 3576 08-01-2020 19:54:17 9.3 C 36 %
3577 08-01-2020 20:04:17 9.7 C 36 %
3578 08-01-2020 20:14:17 9.7 C 35 %
3579 08-01-2020 20:24:17 9.9 C 35 %
3580 08-01-2020 20:34:17 9.8 C 35 %
3581 08-01-2020 20:44:17 9.9 C 35 %
3582 08-01-2020 20:54:16 9.9 C 35 %
3583 08-01-2020 21:04:17 10 C 35 %
3584 08-01-2020 21:14:17 9.8 C 35 %
3585 08-01-2020 21:24:17 9.8 C 35 %
3586 08-01-2020 21:34:17 9.9 C 36 %
3587 08-01-2020 21:44:17 10 C 35 %
3588 08-01-2020 21:54:16 9.6 C 37 %
3589 08-01-2020 22:04:16 9.5 C 37 %
3590 08-01-2020 22:14:16 9.6 C 38 %
3591 08-01-2020 22:24:16 9.9 C 36 %
3592 08-01-2020 22:34:16 9.8 C 36 %
3593 08-01-2020 22:44:16 9.6 C 37 %
3594 08-01-2020 22:54:16 9.6 C 38 %
3595 08-01-2020 23:04:16 9.7 C 38 %
3596 08-01-2020 23:14:16 9.5 C 38 %
3597 08-01-2020 23:24:16 9.5 C 39 %
3598 08-01-2020 23:34:16 9.5 C 39 %
3599 08-01-2020 23:44:16 9.5 C 39 %
3600 08-01-2020 23:54:16 9.5 C 40 %
Sensor: Nr:Datum:Temp:Feuchte:
Aussen-T/F 3601 09-01-2020 00:04:16 9.1 C 40 %
3602 09-01-2020 00:14:16 9.2 C 40 %
3603 09-01-2020 00:24:16 9.2 C 40 %
3604 09-01-2020 00:34:16 9.1 C 41 %
3605 09-01-2020 00:44:16 9 C 41 %
3606 09-01-2020 00:54:16 9 C 41 %
3607 09-01-2020 01:04:16 9.1 C 42 %
3608 09-01-2020 01:14:16 9 C 41 %
3609 09-01-2020 01:24:16 9 C 42 %
3610 09-01-2020 01:34:16 8.9 C 42 %
3611 09-01-2020 01:44:16 8.9 C 42 %
3612 09-01-2020 01:54:16 8.9 C 42 %
3613 09-01-2020 02:04:16 8.9 C 42 %
3614 09-01-2020 02:14:16 8.7 C 42 %
3615 09-01-2020 02:24:16 8.8 C 42 %
3616 09-01-2020 02:34:16 8.7 C 42 %
3617 09-01-2020 02:44:16 8.8 C 42 %
3618 09-01-2020 02:54:18 8.8 C 41 %
3619 09-01-2020 03:04:18 8.8 C 40 %
3620 09-01-2020 03:14:18 8.7 C 40 %
3621 09-01-2020 03:24:17 8.7 C 40 %
3622 09-01-2020 03:34:17 8.7 C 40 %
3623 09-01-2020 03:44:17 8.6 C 40 %
3624 09-01-2020 03:54:17 8.5 C 40 %
3625 09-01-2020 04:04:17 8.4 C 41 %
Sensor: Nr:Datum:Temp:Feuchte:
Aussen-T/F 3626 09-01-2020 04:14:17 8.5 C 42 %
3627 09-01-2020 04:24:17 8.5 C 42 %
3628 09-01-2020 04:34:17 8.5 C 42 %
3629 09-01-2020 04:44:17 8.6 C 42 %
3630 09-01-2020 04:54:17 8.5 C 42 %
3631 09-01-2020 05:04:17 8.5 C 42 %
3632 09-01-2020 05:14:17 8.5 C 42 %
3633 09-01-2020 05:24:17 8.5 C 42 %
3634 09-01-2020 05:34:17 8.5 C 41 %
3635 09-01-2020 05:44:17 8.5 C 42 %
3636 09-01-2020 05:54:18 8.5 C 42 %
3637 09-01-2020 06:04:18 8.5 C 41 %
3638 09-01-2020 06:14:18 8.5 C 41 %
3639 09-01-2020 06:24:18 8.6 C 41 %
3640 09-01-2020 06:34:18 8.6 C 41 %
3641 09-01-2020 06:44:18 8.6 C 41 %
3642 09-01-2020 06:54:18 8.7 C 41 %
3643 09-01-2020 07:04:18 8.7 C 41 %
3644 09-01-2020 07:14:18 8.8 C 41 %
3645 09-01-2020 07:24:18 8.8 C 41 %
3646 09-01-2020 07:34:18 9 C 41 %
3647 09-01-2020 07:44:18 9 C 41 %
3648 09-01-2020 07:54:18 9 C 41 %
3649 09-01-2020 08:04:18 9 C 41 %
3650 09-01-2020 08:14:18 9 C 41 %
Sensor: Nr:Datum:Temp:Feuchte:
Aussen-T/F 3651 09-01-2020 08:24:18 9.3 C 41 %
3652 09-01-2020 08:34:18 9.2 C 41 %
3653 09-01-2020 08:44:18 9.5 C 41 %
3654 09-01-2020 08:54:18 9.6 C 41 %
3655 09-01-2020 09:04:18 9.8 C 40 %
3656 09-01-2020 09:14:18 10 C 40 %
3657 09-01-2020 09:24:18 9.8 C 40 %
3658 09-01-2020 09:34:17 9.8 C 39 %
3659 09-01-2020 09:44:17 10.1 C 39 %
3660 09-01-2020 09:54:17 10.3 C 37 %
3661 09-01-2020 10:04:17 10.7 C 35 %
3662 09-01-2020 10:14:17 10.8 C 35 %
3663 09-01-2020 10:24:17 11.1 C 33 %
3664 09-01-2020 10:34:18 11.4 C 32 %
3665 09-01-2020 10:44:18 11.5 C 32 %
3666 09-01-2020 10:54:17 11.6 C 32 %
3667 09-01-2020 11:04:18 11.8 C 31 %
3668 09-01-2020 11:14:18 12 C 30 %
3669 09-01-2020 11:24:18 12.2 C 30 %
3670 09-01-2020 11:34:18 12.3 C 30 %
3671 09-01-2020 11:44:18 12.5 C 30 %
3672 09-01-2020 11:54:17 12.7 C 29 %
3673 09-01-2020 12:04:17 12.8 C 29 %
3674 09-01-2020 12:14:17 12.9 C 28 %
3675 09-01-2020 12:24:17 13 C 27 %
Sensor: Nr:Datum:Temp:Feuchte:
Aussen-T/F 3676 09-01-2020 12:34:17 13 C 27 %
3677 09-01-2020 12:44:17 13.1 C 27 %
3678 09-01-2020 12:54:17 13.2 C 27 %
3679 09-01-2020 13:04:17 13.2 C 27 %
3680 09-01-2020 13:14:17 13.2 C 27 %
3681 09-01-2020 13:24:17 13.2 C 26 %
3682 09-01-2020 13:34:18 13.3 C 27 %
3683 09-01-2020 13:44:18 13.3 C 26 %
3684 09-01-2020 13:54:18 13.1 C 26 %
3685 09-01-2020 14:04:18 13 C 26 %
3686 09-01-2020 14:14:18 12.7 C 28 %
3687 09-01-2020 14:24:17 12.3 C 29 %
3688 09-01-2020 14:34:17 12.2 C 29 %
3689 09-01-2020 14:44:17 12.1 C 30 %
3690 09-01-2020 14:54:17 12.2 C 30 %
3691 09-01-2020 15:04:17 12.3 C 30 %
3692 09-01-2020 15:14:18 12.1 C 29 %
3693 09-01-2020 15:24:18 12.4 C 28 %
3694 09-01-2020 15:34:17 12.4 C 29 %
3695 09-01-2020 15:44:17 12.4 C 29 %
3696 09-01-2020 15:54:17 12.4 C 29 %
3697 09-01-2020 16:04:17 12.4 C 29 %
3698 09-01-2020 16:14:17 12.5 C 28 %
3699 09-01-2020 16:24:17 12.1 C 29 %
3700 09-01-2020 16:34:17 12.3 C 28 %
Sensor: Nr:Datum:Temp:Feuchte:
Aussen-T/F 3701 09-01-2020 16:44:17 12.2 C 29 %
3702 09-01-2020 16:54:17 12 C 29 %
3703 09-01-2020 17:04:17 12.2 C 29 %
3704 09-01-2020 17:14:17 12.3 C 28 %
3705 09-01-2020 17:24:18 12.1 C 28 %
3706 09-01-2020 17:34:17 12.1 C 28 %
3707 09-01-2020 17:44:17 12 C 28 %
3708 09-01-2020 17:54:18 11.7 C 30 %
3709 09-01-2020 18:04:18 11.4 C 30 %
3710 09-01-2020 18:14:18 11.3 C 31 %
3711 09-01-2020 18:24:17 10.9 C 32 %
3712 09-01-2020 18:34:17 11.1 C 30 %
3713 09-01-2020 18:44:17 11 C 30 %
3714 09-01-2020 18:54:17 11 C 30 %
3715 09-01-2020 19:04:17 11.4 C 29 %
3716 09-01-2020 19:14:17 11.3 C 29 %
3717 09-01-2020 19:24:17 11 C 30 %
3718 09-01-2020 19:34:18 10.7 C 31 %
3719 09-01-2020 19:44:18 10.8 C 31 %
3720 09-01-2020 19:54:17 10.1 C 35 %
3721 09-01-2020 20:04:18 10 C 37 %
3722 09-01-2020 20:14:18 9.7 C 37 %
3723 09-01-2020 20:24:17 9.7 C 35 %
3724 09-01-2020 20:34:17 9.9 C 37 %
3725 09-01-2020 20:44:17 9.7 C 36 %
Sensor: Nr:Datum:Temp:Feuchte:
Aussen-T/F 3726 09-01-2020 20:54:17 9.6 C 35 %
3727 09-01-2020 21:04:17 9.4 C 37 %
3728 09-01-2020 21:14:18 9.3 C 38 %
3729 09-01-2020 21:24:18 9.2 C 39 %
3730 09-01-2020 21:34:18 9.1 C 40 %
3731 09-01-2020 21:44:18 9.3 C 37 %
3732 09-01-2020 21:54:17 9.2 C 37 %
3733 09-01-2020 22:04:18 9.2 C 38 %
3734 09-01-2020 22:14:18 9.2 C 38 %
3735 09-01-2020 22:24:17 9.2 C 38 %
3736 09-01-2020 22:34:18 9.2 C 38 %
3737 09-01-2020 22:44:18 9.3 C 36 %
3738 09-01-2020 22:54:18 9.4 C 34 %
3739 09-01-2020 23:04:18 9.8 C 32 %
3740 09-01-2020 23:14:18 9.8 C 31 %
3741 09-01-2020 23:24:18 9.7 C 31 %
3742 09-01-2020 23:34:18 9.6 C 32 %
3743 09-01-2020 23:44:18 10 C 30 %
3744 09-01-2020 23:54:17 10.2 C 30 %
3745 10-01-2020 00:04:17 10.1 C 30 %
3746 10-01-2020 00:14:17 10.1 C 30 %
3747 10-01-2020 00:24:17 9.9 C 30 %
3748 10-01-2020 00:34:17 9.8 C 31 %
3749 10-01-2020 00:44:17 9.6 C 32 %
3750 10-01-2020 00:54:17 9.5 C 32 %
Sensor: Nr:Datum:Temp:Feuchte:
Aussen-T/F 3751 10-01-2020 01:04:17 9.9 C 30 %
3752 10-01-2020 01:14:17 9.7 C 31 %
3753 10-01-2020 01:24:17 9.7 C 31 %
3754 10-01-2020 01:34:17 9.6 C 31 %
3755 10-01-2020 01:44:17 9.3 C 31 %
3756 10-01-2020 01:54:17 9.6 C 31 %
3757 10-01-2020 02:04:17 9.5 C 31 %
3758 10-01-2020 02:14:17 9.7 C 31 %
3759 10-01-2020 02:24:18 9.7 C 30 %
3760 10-01-2020 02:34:17 9.8 C 30 %
3761 10-01-2020 02:44:17 9.8 C 30 %
3762 10-01-2020 02:54:18 9.6 C 30 %
3763 10-01-2020 03:04:17 10.1 C 29 %
3764 10-01-2020 03:14:17 9.8 C 30 %
3765 10-01-2020 03:24:17 9.8 C 30 %
3766 10-01-2020 03:34:18 10.1 C 28 %
3767 10-01-2020 03:44:18 10 C 27 %
3768 10-01-2020 03:54:17 10 C 27 %
3769 10-01-2020 04:04:18 10.1 C 26 %
3770 10-01-2020 04:14:18 10.2 C 26 %
3771 10-01-2020 04:24:18 10 C 26 %
3772 10-01-2020 04:34:18 9.9 C 26 %
3773 10-01-2020 04:44:18 9.8 C 26 %
3774 10-01-2020 04:54:17 9.7 C 26 %
3775 10-01-2020 05:04:18 9.5 C 26 %
Sensor: Nr:Datum:Temp:Feuchte:
Aussen-T/F 3776 10-01-2020 05:14:18 9.8 C 26 %
3777 10-01-2020 05:24:18 9.7 C 26 %
3778 10-01-2020 05:34:18 9.1 C 27 %
3779 10-01-2020 05:44:18 9.2 C 27 %
3780 10-01-2020 05:54:18 9.3 C 27 %
3781 10-01-2020 06:04:18 9.2 C 27 %
3782 10-01-2020 06:14:18 8.9 C 28 %
3783 10-01-2020 06:24:18 8.3 C 32 %
3784 10-01-2020 06:34:17 8 C 36 %
3785 10-01-2020 06:44:17 8 C 39 %
3786 10-01-2020 06:54:17 7.8 C 40 %
3787 10-01-2020 07:04:17 7.8 C 40 %
3788 10-01-2020 07:14:17 7.8 C 40 %
3789 10-01-2020 07:24:17 7.8 C 41 %
3790 10-01-2020 07:34:17 7.7 C 41 %
3791 10-01-2020 07:44:17 7.7 C 40 %
3792 10-01-2020 07:54:18 7.7 C 40 %
3793 10-01-2020 08:04:18 7.7 C 40 %
3794 10-01-2020 08:14:18 7.8 C 38 %
3795 10-01-2020 08:24:17 7.6 C 38 %
3796 10-01-2020 08:34:17 7.7 C 39 %
3797 10-01-2020 08:44:17 8 C 35 %
3798 10-01-2020 08:54:17 8 C 35 %
3799 10-01-2020 09:04:17 8.5 C 32 %
3800 10-01-2020 09:14:17 8.4 C 32 %
Sensor: Nr:Datum:Temp:Feuchte:
Aussen-T/F 3801 10-01-2020 09:24:17 8.7 C 31 %
3802 10-01-2020 09:34:17 8.9 C 31 %
3803 10-01-2020 09:44:17 9 C 30 %
3804 10-01-2020 09:54:17 9.1 C 30 %
3805 10-01-2020 10:04:18 9.1 C 30 %
3806 10-01-2020 10:14:18 9.1 C 30 %
3807 10-01-2020 10:24:18 9.2 C 30 %
3808 10-01-2020 10:34:17 9.2 C 30 %
3809 10-01-2020 10:44:17 9.5 C 30 %
3810 10-01-2020 10:54:18 9.5 C 29 %
3811 10-01-2020 11:04:18 10.2 C 26 %
3812 10-01-2020 11:14:18 10.2 C 26 %
3813 10-01-2020 11:24:17 10.2 C 26 %
3814 10-01-2020 11:34:17 10.4 C 26 %
3815 10-01-2020 11:44:17 10.3 C 26 %
3816 10-01-2020 11:54:17 10.7 C 26 %
3817 10-01-2020 12:04:17 10.8 C 26 %
3818 10-01-2020 12:14:17 11 C 26 %
3819 10-01-2020 12:24:17 10.1 C 27 %
3820 10-01-2020 12:34:17 10.4 C 27 %
3821 10-01-2020 12:44:17 10.6 C 26 %
3822 10-01-2020 12:54:17 9.4 C 31 %
3823 10-01-2020 13:04:17 8.7 C 31 %
3824 10-01-2020 13:14:17 8.3 C 34 %
3825 10-01-2020 13:24:17 8.4 C 32 %
Sensor: Nr:Datum:Temp:Feuchte:
Aussen-T/F 3826 10-01-2020 13:34:17 8.7 C 33 %
3827 10-01-2020 13:44:17 8.7 C 33 %
3828 10-01-2020 13:54:17 8.6 C 35 %
3829 10-01-2020 14:04:18 8.4 C 32 %
3830 10-01-2020 14:14:18 8.8 C 30 %
3831 10-01-2020 14:24:29 9 C 29 %
3832 10-01-2020 14:34:17 9 C 28 %
3833 10-01-2020 14:44:17 9 C 27 %
3834 10-01-2020 14:54:17 9 C 26 %
3835 10-01-2020 15:04:20 8.9 C 27 %
3836 10-01-2020 15:14:20 8.8 C 27 %
3837 10-01-2020 15:24:17 8.7 C 27 %
3838 10-01-2020 15:34:18 8.6 C 27 %
3839 10-01-2020 15:44:18 8.6 C 27 %
3840 10-01-2020 15:54:17 8.6 C 27 %
3841 10-01-2020 16:04:17 8.3 C 28 %
3842 10-01-2020 16:14:17 7.6 C 31 %
3843 10-01-2020 16:24:17 7.5 C 34 %
3844 10-01-2020 16:34:18 7.4 C 32 %
3845 10-01-2020 16:44:18 7.2 C 33 %
3846 10-01-2020 16:54:17 7 C 32 %
3847 10-01-2020 17:04:18 6.7 C 34 %
3848 10-01-2020 17:14:18 6.8 C 34 %
3849 10-01-2020 17:24:17 6.9 C 32 %
3850 10-01-2020 17:34:18 6.7 C 32 %
Sensor: Nr:Datum:Temp:Feuchte:
Aussen-T/F 3851 10-01-2020 17:44:18 6.6 C 32 %
3852 10-01-2020 17:54:17 6.9 C 31 %
3853 10-01-2020 18:04:17 7 C 31 %
3854 10-01-2020 18:14:17 7 C 30 %
3855 10-01-2020 18:24:18 6.8 C 31 %
3856 10-01-2020 18:34:17 7 C 30 %
3857 10-01-2020 18:44:17 7.1 C 30 %
3858 10-01-2020 18:54:17 6.6 C 32 %
3859 10-01-2020 19:04:17 6.5 C 33 %
3860 10-01-2020 19:14:18 6.3 C 35 %
3861 10-01-2020 19:24:17 6 C 37 %
3862 10-01-2020 19:34:17 6 C 36 %
3863 10-01-2020 19:44:17 5.9 C 39 %
3864 10-01-2020 19:54:17 5.8 C 36 %
3865 10-01-2020 20:04:17 5.9 C 38 %
3866 10-01-2020 20:14:18 6 C 34 %
3867 10-01-2020 20:24:17 6 C 34 %
3868 10-01-2020 20:34:18 6 C 32 %
3869 10-01-2020 20:44:18 6 C 31 %
3870 10-01-2020 20:54:17 6 C 31 %
3871 10-01-2020 21:04:17 6.1 C 30 %
3872 10-01-2020 21:14:17 5.8 C 31 %
3873 10-01-2020 21:24:17 5.8 C 31 %
3874 10-01-2020 21:34:17 6 C 30 %
3875 10-01-2020 21:44:17 6.2 C 30 %
Sensor: Nr:Datum:Temp:Feuchte:
Aussen-T/F 3876 10-01-2020 21:54:17 6 C 30 %
3877 10-01-2020 22:04:18 6.1 C 30 %
3878 10-01-2020 22:14:18 6.2 C 30 %
3879 10-01-2020 22:24:17 6.2 C 30 %
3880 10-01-2020 22:34:17 6.2 C 30 %
3881 10-01-2020 22:44:17 6.2 C 29 %
3882 10-01-2020 22:54:17 6.1 C 30 %
3883 10-01-2020 23:04:17 6.2 C 30 %
3884 10-01-2020 23:14:17 6.2 C 30 %
3885 10-01-2020 23:24:17 6.1 C 30 %
3886 10-01-2020 23:34:17 5.9 C 30 %
3887 10-01-2020 23:44:17 5.8 C 30 %
3888 10-01-2020 23:54:18 5.8 C 30 %
3889 11-01-2020 00:04:17 5.5 C 30 %
3890 11-01-2020 00:14:17 5.3 C 30 %
3891 11-01-2020 00:24:17 5.4 C 30 %
3892 11-01-2020 00:34:18 5 C 30 %
3893 11-01-2020 00:44:18 4.7 C 32 %
3894 11-01-2020 00:54:17 4.1 C 35 %
3895 11-01-2020 01:04:18 3.5 C 37 %
3896 11-01-2020 01:14:18 3.8 C 39 %
3897 11-01-2020 01:24:17 4.1 C 38 %
3898 11-01-2020 01:34:17 4.3 C 36 %
3899 11-01-2020 01:44:17 4.5 C 36 %
3900 11-01-2020 01:54:17 4.3 C 35 %
Sensor: Nr:Datum:Temp:Feuchte:
Aussen-T/F 3901 11-01-2020 02:04:17 3.7 C 38 %
3902 11-01-2020 02:14:17 3.7 C 39 %
3903 11-01-2020 02:24:17 3.3 C 39 %
3904 11-01-2020 02:34:18 2.7 C 41 %
3905 11-01-2020 02:44:18 2.9 C 42 %
3906 11-01-2020 02:54:17 3.2 C 42 %
3907 11-01-2020 03:04:18 3 C 41 %
3908 11-01-2020 03:14:18 2.6 C 41 %
3909 11-01-2020 03:24:17 2.3 C 44 %
3910 11-01-2020 03:34:17 2.9 C 45 %
3911 11-01-2020 03:44:17 3 C 43 %
3912 11-01-2020 03:54:17 2.9 C 44 %
3913 11-01-2020 04:04:17 2.9 C 44 %
3914 11-01-2020 04:14:17 3 C 43 %
3915 11-01-2020 04:24:17 3.1 C 44 %
3916 11-01-2020 04:34:18 3.4 C 40 %
3917 11-01-2020 04:44:18 3.3 C 40 %
3918 11-01-2020 04:54:17 3.3 C 40 %
3919 11-01-2020 05:04:18 3.1 C 39 %
3920 11-01-2020 05:14:18 2.9 C 40 %
3921 11-01-2020 05:24:17 2.7 C 41 %
3922 11-01-2020 05:34:17 2.7 C 42 %
3923 11-01-2020 05:44:17 3 C 40 %
3924 11-01-2020 05:54:17 3 C 40 %
3925 11-01-2020 06:04:17 2.9 C 40 %
Sensor: Nr:Datum:Temp:Feuchte:
Aussen-T/F 3926 11-01-2020 06:14:17 2.9 C 40 %
3927 11-01-2020 06:24:17 2.9 C 40 %
3928 11-01-2020 06:34:17 2.8 C 40 %
3929 11-01-2020 06:44:18 2.7 C 40 %
3930 11-01-2020 06:54:17 2.7 C 40 %
3931 11-01-2020 07:04:17 2.8 C 40 %
3932 11-01-2020 07:14:17 2.6 C 40 %
3933 11-01-2020 07:24:17 2.4 C 40 %
3934 11-01-2020 07:34:17 2.5 C 41 %
3935 11-01-2020 07:44:18 1.9 C 41 %
3936 11-01-2020 07:54:17 1 C 40 %
3937 11-01-2020 08:04:17 1 C 45 %
3938 11-01-2020 08:14:17 0.6 C 45 %
3939 11-01-2020 08:24:17 0.4 C 45 %
3940 11-01-2020 08:34:17 0.5 C 46 %
3941 11-01-2020 08:44:18 0.9 C 47 %
3942 11-01-2020 08:54:17 0.2 C 45 %
3943 11-01-2020 09:04:17 1 C 46 %
3944 11-01-2020 09:14:17 1 C 45 %
3945 11-01-2020 09:24:17 1.3 C 45 %
3946 11-01-2020 09:34:17 1.8 C 43 %
3947 11-01-2020 09:44:17 1.9 C 40 %
3948 11-01-2020 09:54:18 1.9 C 40 %
3949 11-01-2020 10:04:18 2 C 38 %
3950 11-01-2020 10:14:18 2.2 C 38 %
Sensor: Nr:Datum:Temp:Feuchte:
Aussen-T/F 3951 11-01-2020 10:24:17 2.4 C 38 %
3952 11-01-2020 10:34:17 2.4 C 37 %
3953 11-01-2020 10:44:17 2.5 C 37 %
3954 11-01-2020 10:54:18 2.7 C 38 %
3955 11-01-2020 11:04:17 3.4 C 37 %
3956 11-01-2020 11:14:17 4.1 C 34 %
3957 11-01-2020 11:24:17 4.1 C 32 %
3958 11-01-2020 11:34:18 4.4 C 30 %
3959 11-01-2020 11:44:18 4.9 C 30 %
3960 11-01-2020 11:54:17 5.5 C 29 %
3961 11-01-2020 12:04:17 5.9 C 29 %
3962 11-01-2020 12:14:17 6.2 C 28 %
3963 11-01-2020 12:24:17 6.6 C 23 %
3964 11-01-2020 12:34:18 7 C 20 %
3965 11-01-2020 12:44:18 7 C 20 %
3966 11-01-2020 12:54:17 7.3 C 20 %
3967 11-01-2020 13:04:17 7.2 C 20 %
3968 11-01-2020 13:14:17 7.2 C 20 %
3969 11-01-2020 13:24:18 7 C 20 %
3970 11-01-2020 13:34:17 7 C 20 %
3971 11-01-2020 13:44:17 6.9 C 20 %
3972 11-01-2020 13:54:17 6.8 C 20 %
3973 11-01-2020 14:04:17 6.9 C 20 %
3974 11-01-2020 14:14:18 6.8 C 20 %
3975 11-01-2020 14:24:17 6.8 C 20 %
Sensor: Nr:Datum:Temp:Feuchte:
Aussen-T/F 3976 11-01-2020 14:34:18 6.7 C 20 %
3977 11-01-2020 14:44:18 6.7 C 20 %
3978 11-01-2020 14:54:17 6.6 C 20 %
3979 11-01-2020 15:04:17 6.6 C 20 %
3980 11-01-2020 15:14:17 6.5 C 20 %
3981 11-01-2020 15:24:18 6.6 C 20 %
3982 11-01-2020 15:34:17 6.4 C 20 %
3983 11-01-2020 15:44:17 6.4 C 20 %
3984 11-01-2020 15:54:17 6.6 C 20 %
3985 11-01-2020 16:04:18 6.4 C 20 %
3986 11-01-2020 16:14:18 6.2 C 20 %
3987 11-01-2020 16:24:17 6.2 C 20 %
3988 11-01-2020 16:34:41 6.1 C 20 %
3989 11-01-2020 16:44:41 6.1 C 20 %
3990 11-01-2020 16:54:17 6 C 20 %
3991 11-01-2020 17:04:18 5.9 C 20 %
3992 11-01-2020 17:14:18 5.8 C 20 %
3993 11-01-2020 17:24:17 5.7 C 20 %
3994 11-01-2020 17:34:18 5.2 C 20 %
3995 11-01-2020 17:44:18 5.3 C 20 %
3996 11-01-2020 17:54:17 5 C 23 %
3997 11-01-2020 18:04:17 5.1 C 20 %
3998 11-01-2020 18:14:17 5 C 20 %
3999 11-01-2020 18:24:17 4.5 C 26 %
4000 11-01-2020 18:34:17 4.1 C 27 %
Sensor: Nr:Datum:Temp:Feuchte:
Aussen-T/F 4001 11-01-2020 18:44:17 3.9 C 30 %
4002 11-01-2020 18:54:17 3.8 C 31 %
4003 11-01-2020 19:04:17 3.6 C 31 %
4004 11-01-2020 19:14:17 3 C 33 %
4005 11-01-2020 19:24:17 2.8 C 35 %
4006 11-01-2020 19:34:17 2.7 C 35 %
4007 11-01-2020 19:44:17 2.7 C 34 %
4008 11-01-2020 19:54:17 2.8 C 34 %
4009 11-01-2020 20:04:17 2.5 C 34 %
4010 11-01-2020 20:14:18 2.4 C 35 %
4011 11-01-2020 20:24:17 2.4 C 34 %
4012 11-01-2020 20:34:17 1.9 C 36 %
4013 11-01-2020 20:44:17 2.2 C 36 %
4014 11-01-2020 20:54:17 2.1 C 36 %
4015 11-01-2020 21:04:17 2.1 C 36 %
4016 11-01-2020 21:14:17 1.9 C 37 %
4017 11-01-2020 21:24:17 1.7 C 37 %
4018 11-01-2020 21:34:17 1.5 C 38 %
4019 11-01-2020 21:44:17 1.1 C 40 %
4020 11-01-2020 21:54:17 1.5 C 40 %
4021 11-01-2020 22:04:17 1.3 C 40 %
4022 11-01-2020 22:14:18 1.1 C 40 %
4023 11-01-2020 22:24:17 0.9 C 42 %
4024 11-01-2020 22:34:17 0.8 C 43 %
4025 11-01-2020 22:44:17 1.2 C 41 %
Sensor: Nr:Datum:Temp:Feuchte:
Aussen-T/F 4026 11-01-2020 22:54:17 0.9 C 41 %
4027 11-01-2020 23:04:17 0.9 C 42 %
4028 11-01-2020 23:14:17 1.7 C 39 %
4029 11-01-2020 23:24:17 1.2 C 38 %
4030 11-01-2020 23:34:17 0.8 C 41 %
4031 11-01-2020 23:44:17 0.5 C 42 %
4032 11-01-2020 23:54:17 0.5 C 43 %
4033 12-01-2020 00:04:17 0.7 C 44 %
4034 12-01-2020 00:14:17 1.1 C 42 %
4035 12-01-2020 00:24:17 0.8 C 41 %
4036 12-01-2020 00:34:17 1.3 C 40 %
4037 12-01-2020 00:44:17 0.7 C 41 %
4038 12-01-2020 00:54:17 0.7 C 42 %
4039 12-01-2020 01:04:17 0.7 C 42 %
4040 12-01-2020 01:14:17 0.8 C 43 %
4041 12-01-2020 01:24:17 1.1 C 42 %
4042 12-01-2020 01:34:17 0.8 C 41 %
4043 12-01-2020 01:44:17 1.2 C 40 %
4044 12-01-2020 01:54:17 1.8 C 39 %
4045 12-01-2020 02:04:17 1.7 C 37 %
4046 12-01-2020 02:14:17 1.9 C 36 %
4047 12-01-2020 02:24:17 1.9 C 36 %
4048 12-01-2020 02:34:17 1.8 C 37 %
4049 12-01-2020 02:44:17 1.9 C 35 %
4050 12-01-2020 02:54:17 1.4 C 37 %
Sensor: Nr:Datum:Temp:Feuchte:
Aussen-T/F 4051 12-01-2020 03:04:17 2.2 C 35 %
4052 12-01-2020 03:14:17 1.5 C 37 %
4053 12-01-2020 03:24:17 1.7 C 36 %
4054 12-01-2020 03:34:17 1.4 C 37 %
4055 12-01-2020 03:44:17 1 C 40 %
4056 12-01-2020 03:54:17 1.5 C 41 %
4057 12-01-2020 04:04:17 1.4 C 41 %
4058 12-01-2020 04:14:17 1.5 C 40 %
4059 12-01-2020 04:24:17 1.8 C 41 %
4060 12-01-2020 04:34:17 2.1 C 38 %
4061 12-01-2020 04:44:17 2.3 C 37 %
4062 12-01-2020 04:54:17 2.7 C 35 %
4063 12-01-2020 05:04:17 3 C 33 %
4064 12-01-2020 05:14:18 3.3 C 31 %
4065 12-01-2020 05:24:17 3.2 C 31 %
4066 12-01-2020 05:34:17 3.2 C 31 %
4067 12-01-2020 05:44:17 3.5 C 31 %
4068 12-01-2020 05:54:17 3.6 C 30 %
4069 12-01-2020 06:04:18 3.7 C 30 %
4070 12-01-2020 06:14:18 3.6 C 30 %
4071 12-01-2020 06:24:17 3.6 C 30 %
4072 12-01-2020 06:34:17 3.7 C 30 %
4073 12-01-2020 06:44:17 3.6 C 30 %
4074 12-01-2020 06:54:17 3.7 C 30 %
4075 12-01-2020 07:04:17 3.7 C 30 %
Sensor: Nr:Datum:Temp:Feuchte:
Aussen-T/F 4076 12-01-2020 07:14:17 4.1 C 29 %
4077 12-01-2020 07:24:17 3.7 C 30 %
4078 12-01-2020 07:34:17 3.7 C 30 %
4079 12-01-2020 07:44:17 3.8 C 29 %
4080 12-01-2020 07:54:17 3.8 C 29 %
4081 12-01-2020 08:04:18 3.7 C 29 %
4082 12-01-2020 08:14:18 3.7 C 29 %
4083 12-01-2020 08:24:17 3.7 C 29 %
4084 12-01-2020 08:34:17 4 C 28 %
4085 12-01-2020 08:44:17 4.2 C 27 %
4086 12-01-2020 08:54:17 4.2 C 27 %
4087 12-01-2020 09:04:17 4.2 C 27 %
4088 12-01-2020 09:14:17 4.2 C 27 %
4089 12-01-2020 09:24:17 4.3 C 27 %
4090 12-01-2020 09:34:17 4.5 C 26 %
4091 12-01-2020 09:44:17 4.7 C 26 %
4092 12-01-2020 09:54:17 4.7 C 26 %
4093 12-01-2020 10:04:17 4.8 C 26 %
4094 12-01-2020 10:14:17 4.8 C 26 %
4095 12-01-2020 10:24:17 4.9 C 25 %
4096 12-01-2020 10:34:18 4.9 C 25 %
4097 12-01-2020 10:44:18 4.9 C 25 %
4098 12-01-2020 10:54:17 5 C 25 %
4099 12-01-2020 11:04:17 5.3 C 23 %
4100 12-01-2020 11:14:17 5.3 C 23 %
Sensor: Nr:Datum:Temp:Feuchte:
Aussen-T/F 4101 12-01-2020 11:24:18 5.3 C 23 %
4102 12-01-2020 11:34:17 5.3 C 23 %
4103 12-01-2020 11:44:17 5.3 C 23 %
4104 12-01-2020 11:54:17 5.5 C 23 %
4105 12-01-2020 12:04:18 5.7 C 23 %
4106 12-01-2020 12:14:18 5.8 C 23 %
4107 12-01-2020 12:24:17 6.1 C 21 %
4108 12-01-2020 12:34:17 6.4 C 21 %
4109 12-01-2020 12:44:17 6.1 C 21 %
4110 12-01-2020 12:54:17 6.1 C 21 %
4111 12-01-2020 13:04:18 6.2 C 21 %
4112 12-01-2020 13:14:18 6.3 C 21 %
4113 12-01-2020 13:24:17 6.5 C 21 %
4114 12-01-2020 13:34:17 6.8 C 21 %
4115 12-01-2020 13:44:17 6.7 C 23 %
4116 12-01-2020 13:54:18 6.7 C 23 %
4117 12-01-2020 14:04:17 6.9 C 21 %
4118 12-01-2020 14:14:17 6.8 C 23 %
4119 12-01-2020 14:24:17 6.9 C 23 %
4120 12-01-2020 14:34:18 6.9 C 25 %
4121 12-01-2020 14:44:18 6.8 C 25 %
4122 12-01-2020 14:54:17 6.8 C 25 %
4123 12-01-2020 15:04:17 6.7 C 25 %
4124 12-01-2020 15:14:17 6.8 C 25 %
4125 12-01-2020 15:24:18 6.8 C 25 %
Sensor: Nr:Datum:Temp:Feuchte:
Aussen-T/F 4126 12-01-2020 15:34:17 6.8 C 25 %
4127 12-01-2020 15:44:17 6.7 C 25 %
4128 12-01-2020 15:54:17 6.6 C 25 %
4129 12-01-2020 16:04:18 6.7 C 25 %
4130 12-01-2020 16:14:18 6.5 C 25 %
4131 12-01-2020 16:24:18 6.3 C 26 %
4132 12-01-2020 16:34:17 6.3 C 27 %
4133 12-01-2020 16:44:17 6.1 C 27 %
4134 12-01-2020 16:54:17 6.1 C 27 %
4135 12-01-2020 17:04:18 6.1 C 27 %
4136 12-01-2020 17:14:18 6 C 27 %
4137 12-01-2020 17:24:17 6 C 28 %
4138 12-01-2020 17:34:17 6 C 28 %
4139 12-01-2020 17:44:17 5.9 C 29 %
4140 12-01-2020 17:54:18 5.7 C 30 %
4141 12-01-2020 18:04:18 5.4 C 30 %
4142 12-01-2020 18:14:18 5.5 C 30 %
4143 12-01-2020 18:24:17 5.4 C 30 %
4144 12-01-2020 18:34:17 5.6 C 30 %
4145 12-01-2020 18:44:17 5.6 C 30 %
4146 12-01-2020 18:54:18 5.7 C 30 %
4147 12-01-2020 19:04:17 5 C 31 %
4148 12-01-2020 19:14:17 4.7 C 34 %
4149 12-01-2020 19:24:17 4.9 C 36 %
4150 12-01-2020 19:34:18 5.6 C 33 %
Sensor: Nr:Datum:Temp:Feuchte:
Aussen-T/F 4151 12-01-2020 19:44:18 5.9 C 32 %
4152 12-01-2020 19:54:17 6 C 31 %
4153 12-01-2020 20:04:18 6 C 31 %
4154 12-01-2020 20:14:18 5.9 C 31 %
4155 12-01-2020 20:24:17 5.7 C 32 %
4156 12-01-2020 20:34:17 5.6 C 32 %
4157 12-01-2020 20:44:17 5.8 C 33 %
4158 12-01-2020 20:54:17 6 C 32 %
4159 12-01-2020 21:04:17 6.1 C 32 %
4160 12-01-2020 21:14:17 6.2 C 32 %
4161 12-01-2020 21:24:17 6.2 C 32 %
4162 12-01-2020 21:34:18 6.1 C 32 %
4163 12-01-2020 21:44:18 6.5 C 31 %
4164 12-01-2020 21:54:17 6.5 C 31 %
4165 12-01-2020 22:04:18 6.4 C 31 %
4166 12-01-2020 22:14:18 6.3 C 32 %
4167 12-01-2020 22:24:17 6 C 32 %
4168 12-01-2020 22:34:17 6.3 C 32 %
4169 12-01-2020 22:44:17 6.2 C 33 %
4170 12-01-2020 22:54:17 5.8 C 33 %
4171 12-01-2020 23:04:17 5.6 C 36 %
4172 12-01-2020 23:14:17 5.2 C 35 %
4173 12-01-2020 23:24:17 5 C 39 %
4174 12-01-2020 23:34:18 6 C 35 %
4175 12-01-2020 23:44:18 5.7 C 33 %
Sensor: Nr:Datum:Temp:Feuchte:
Aussen-T/F 4176 12-01-2020 23:54:17 5.9 C 34 %
Sensor: Nr:Datum:Temp:Feuchte:
G-T/H 1 15-12-2019 00:02:17 9.2 C 74 %
2 15-12-2019 00:11:17 9.2 C 74 %
3 15-12-2019 00:22:17 9.2 C 74 %
4 15-12-2019 00:31:18 9.2 C 74 %
5 15-12-2019 00:41:18 9.2 C 74 %
6 15-12-2019 00:52:17 9.2 C 74 %
7 15-12-2019 01:02:17 9.2 C 74 %
8 15-12-2019 01:12:17 9.2 C 74 %
9 15-12-2019 01:22:17 9.2 C 74 %
10 15-12-2019 01:31:18 9.2 C 74 %
11 15-12-2019 01:41:18 9.2 C 74 %
12 15-12-2019 01:52:17 9.2 C 74 %
13 15-12-2019 02:02:17 9.2 C 74 %
14 15-12-2019 02:12:17 9.3 C 74 %
15 15-12-2019 02:22:17 9.2 C 74 %
16 15-12-2019 02:32:18 9.3 C 74 %
17 15-12-2019 02:42:18 9.3 C 74 %
18 15-12-2019 02:52:17 9.2 C 74 %
19 15-12-2019 03:02:18 9.2 C 74 %
20 15-12-2019 03:12:18 9.3 C 74 %
21 15-12-2019 03:22:17 9.3 C 74 %
22 15-12-2019 03:32:17 9.3 C 74 %
23 15-12-2019 03:42:17 9.3 C 74 %
24 15-12-2019 03:52:17 9.3 C 74 %
25 15-12-2019 04:02:17 9.3 C 74 %
Sensor: Nr:Datum:Temp:Feuchte:
G-T/H 26 15-12-2019 04:12:17 9.3 C 74 %
27 15-12-2019 04:22:17 9.3 C 74 %
28 15-12-2019 04:32:17 9.3 C 74 %
29 15-12-2019 04:42:17 9.3 C 74 %
30 15-12-2019 04:52:17 9.2 C 74 %
31 15-12-2019 05:02:17 9.3 C 74 %
32 15-12-2019 05:12:17 9.3 C 74 %
33 15-12-2019 05:22:17 9.3 C 74 %
34 15-12-2019 05:32:18 9.3 C 74 %
35 15-12-2019 05:42:18 9.3 C 74 %
36 15-12-2019 05:52:17 9.3 C 74 %
37 15-12-2019 06:02:17 9.3 C 74 %
38 15-12-2019 06:12:17 9.4 C 74 %
39 15-12-2019 06:22:17 9.4 C 74 %
40 15-12-2019 06:32:17 9.4 C 74 %
41 15-12-2019 06:42:17 9.4 C 74 %
42 15-12-2019 06:52:17 9.4 C 74 %
43 15-12-2019 07:02:17 9.4 C 74 %
44 15-12-2019 07:12:17 9.5 C 75 %
45 15-12-2019 07:22:17 9.4 C 75 %
46 15-12-2019 07:32:17 9.5 C 75 %
47 15-12-2019 07:42:17 9.5 C 75 %
48 15-12-2019 07:52:17 9.5 C 75 %
49 15-12-2019 08:02:17 9.5 C 75 %
50 15-12-2019 08:12:17 9.5 C 75 %
Sensor: Nr:Datum:Temp:Feuchte:
G-T/H 51 15-12-2019 08:22:17 9.5 C 75 %
52 15-12-2019 08:32:18 9.5 C 75 %
53 15-12-2019 08:42:18 9.5 C 75 %
54 15-12-2019 08:52:17 9.5 C 75 %
55 15-12-2019 09:02:17 9.5 C 75 %
56 15-12-2019 09:12:17 9.5 C 75 %
57 15-12-2019 09:22:17 9.5 C 75 %
58 15-12-2019 09:32:17 9.5 C 75 %
59 15-12-2019 09:42:17 9.6 C 75 %
60 15-12-2019 09:52:18 9.6 C 75 %
61 15-12-2019 10:02:18 9.6 C 75 %
62 15-12-2019 10:12:18 9.6 C 75 %
63 15-12-2019 10:22:18 9.6 C 75 %
64 15-12-2019 10:32:17 9.6 C 75 %
65 15-12-2019 10:42:17 9.6 C 75 %
66 15-12-2019 10:52:17 9.6 C 75 %
67 15-12-2019 11:02:17 9.6 C 75 %
68 15-12-2019 11:12:17 9.6 C 75 %
69 15-12-2019 11:22:17 9.6 C 75 %
70 15-12-2019 11:32:17 9.6 C 75 %
71 15-12-2019 11:42:17 9.6 C 75 %
72 15-12-2019 11:52:17 9.6 C 75 %
73 15-12-2019 12:02:17 9.6 C 75 %
74 15-12-2019 12:12:17 9.7 C 75 %
75 15-12-2019 12:22:17 9.6 C 75 %
Sensor: Nr:Datum:Temp:Feuchte:
G-T/H 76 15-12-2019 12:32:17 9.6 C 75 %
77 15-12-2019 12:42:17 9.7 C 75 %
78 15-12-2019 12:52:18 9.7 C 75 %
79 15-12-2019 13:02:18 9.7 C 75 %
80 15-12-2019 13:12:18 9.7 C 75 %
81 15-12-2019 13:22:17 9.7 C 75 %
82 15-12-2019 13:32:17 9.7 C 75 %
83 15-12-2019 13:42:17 9.7 C 75 %
84 15-12-2019 13:52:18 9.7 C 75 %
85 15-12-2019 14:02:17 9.7 C 75 %
86 15-12-2019 14:12:17 9.7 C 75 %
87 15-12-2019 14:22:17 9.7 C 75 %
88 15-12-2019 14:32:17 9.8 C 75 %
89 15-12-2019 14:42:17 9.7 C 75 %
90 15-12-2019 14:52:17 9.7 C 75 %
91 15-12-2019 15:02:17 9.7 C 75 %
92 15-12-2019 15:12:17 9.7 C 75 %
93 15-12-2019 15:22:17 9.7 C 75 %
94 15-12-2019 15:32:17 9.8 C 75 %
95 15-12-2019 15:42:17 9.8 C 75 %
96 15-12-2019 15:52:17 9.8 C 75 %
97 15-12-2019 16:02:17 9.8 C 75 %
98 15-12-2019 16:12:17 9.8 C 75 %
99 15-12-2019 16:22:18 9.8 C 75 %
100 15-12-2019 16:32:17 9.8 C 75 %
Sensor: Nr:Datum:Temp:Feuchte:
G-T/H 101 15-12-2019 16:42:17 9.8 C 75 %
102 15-12-2019 16:52:17 9.8 C 75 %
103 15-12-2019 17:02:17 9.8 C 75 %
104 15-12-2019 17:12:17 9.8 C 75 %
105 15-12-2019 17:22:17 9.8 C 75 %
106 15-12-2019 17:32:17 9.8 C 75 %
107 15-12-2019 17:42:17 9.8 C 75 %
108 15-12-2019 17:52:17 9.8 C 75 %
109 15-12-2019 18:02:17 9.8 C 75 %
110 15-12-2019 18:12:17 9.8 C 75 %
111 15-12-2019 18:22:17 9.8 C 75 %
112 15-12-2019 18:32:17 9.8 C 75 %
113 15-12-2019 18:42:17 9.8 C 75 %
114 15-12-2019 18:52:18 9.8 C 75 %
115 15-12-2019 19:02:17 9.8 C 75 %
116 15-12-2019 19:12:17 9.8 C 75 %
117 15-12-2019 19:22:17 9.8 C 75 %
118 15-12-2019 19:32:18 9.8 C 75 %
119 15-12-2019 19:42:18 9.8 C 75 %
120 15-12-2019 19:52:17 9.8 C 75 %
121 15-12-2019 20:02:17 9.8 C 75 %
122 15-12-2019 20:12:17 9.8 C 75 %
123 15-12-2019 20:22:17 9.8 C 75 %
124 15-12-2019 20:32:17 9.8 C 75 %
125 15-12-2019 20:42:17 9.8 C 75 %
Sensor: Nr:Datum:Temp:Feuchte:
G-T/H 126 15-12-2019 20:52:17 9.8 C 75 %
127 15-12-2019 21:02:17 9.8 C 75 %
128 15-12-2019 21:12:17 9.8 C 75 %
129 15-12-2019 21:22:17 9.8 C 75 %
130 15-12-2019 21:32:18 9.8 C 75 %
131 15-12-2019 21:42:18 9.8 C 75 %
132 15-12-2019 21:52:17 9.8 C 75 %
133 15-12-2019 22:02:17 9.7 C 75 %
134 15-12-2019 22:12:17 9.7 C 75 %
135 15-12-2019 22:22:17 9.7 C 75 %
136 15-12-2019 22:32:17 9.7 C 75 %
137 15-12-2019 22:42:17 9.7 C 75 %
138 15-12-2019 22:52:18 9.7 C 75 %
139 15-12-2019 23:02:17 9.7 C 75 %
140 15-12-2019 23:12:18 9.7 C 74 %
141 15-12-2019 23:22:17 9.7 C 74 %
142 15-12-2019 23:32:18 9.7 C 74 %
143 15-12-2019 23:42:18 9.7 C 74 %
144 15-12-2019 23:52:17 9.7 C 74 %
145 16-12-2019 00:02:17 9.7 C 74 %
146 16-12-2019 00:12:17 9.7 C 74 %
147 16-12-2019 00:22:17 9.7 C 74 %
148 16-12-2019 00:32:17 9.7 C 74 %
149 16-12-2019 00:42:17 9.7 C 74 %
150 16-12-2019 00:52:18 9.7 C 74 %
Sensor: Nr:Datum:Temp:Feuchte:
G-T/H 151 16-12-2019 01:02:17 9.7 C 74 %
152 16-12-2019 01:12:17 9.7 C 74 %
153 16-12-2019 01:22:17 9.7 C 74 %
154 16-12-2019 01:32:17 9.7 C 74 %
155 16-12-2019 01:42:18 9.7 C 75 %
156 16-12-2019 01:52:17 9.7 C 75 %
157 16-12-2019 02:02:18 9.7 C 75 %
158 16-12-2019 02:12:18 9.7 C 75 %
159 16-12-2019 02:22:17 9.7 C 75 %
160 16-12-2019 02:32:17 9.7 C 75 %
161 16-12-2019 02:42:17 9.7 C 75 %
162 16-12-2019 02:52:18 9.7 C 75 %
163 16-12-2019 03:02:17 9.7 C 75 %
164 16-12-2019 03:12:17 9.7 C 75 %
165 16-12-2019 03:22:17 9.7 C 75 %
166 16-12-2019 03:32:18 9.7 C 75 %
167 16-12-2019 03:42:18 9.6 C 75 %
168 16-12-2019 03:52:17 9.7 C 75 %
169 16-12-2019 04:02:17 9.7 C 75 %
170 16-12-2019 04:12:17 9.7 C 75 %
171 16-12-2019 04:22:17 9.7 C 75 %
172 16-12-2019 04:32:17 9.7 C 75 %
173 16-12-2019 04:42:17 9.7 C 75 %
174 16-12-2019 04:52:17 9.7 C 75 %
175 16-12-2019 05:02:17 9.7 C 75 %
Sensor: Nr:Datum:Temp:Feuchte:
G-T/H 176 16-12-2019 05:12:17 9.7 C 75 %
177 16-12-2019 05:22:17 9.7 C 75 %
178 16-12-2019 05:32:17 9.7 C 75 %
179 16-12-2019 05:42:17 9.7 C 75 %
180 16-12-2019 05:52:17 9.7 C 75 %
181 16-12-2019 06:02:17 9.7 C 75 %
182 16-12-2019 06:12:17 9.7 C 75 %
183 16-12-2019 06:22:17 9.7 C 75 %
184 16-12-2019 06:32:17 9.7 C 75 %
185 16-12-2019 06:42:17 9.7 C 75 %
186 16-12-2019 06:52:17 9.7 C 75 %
187 16-12-2019 07:02:17 9.7 C 75 %
188 16-12-2019 07:12:17 9.7 C 75 %
189 16-12-2019 07:22:17 9.7 C 75 %
190 16-12-2019 07:32:18 9.7 C 75 %
191 16-12-2019 07:42:18 9.7 C 75 %
192 16-12-2019 07:52:17 9.7 C 75 %
193 16-12-2019 08:02:17 9.7 C 75 %
194 16-12-2019 08:12:17 9.7 C 75 %
195 16-12-2019 08:22:17 9.7 C 75 %
196 16-12-2019 08:32:17 9.7 C 75 %
197 16-12-2019 08:42:17 9.7 C 75 %
198 16-12-2019 08:52:17 9.7 C 75 %
199 16-12-2019 09:02:17 9.7 C 75 %
200 16-12-2019 09:12:17 9.8 C 76 %
Sensor: Nr:Datum:Temp:Feuchte:
G-T/H 201 16-12-2019 09:22:18 9.7 C 76 %
202 16-12-2019 09:32:17 9.7 C 76 %
203 16-12-2019 09:42:17 9.8 C 76 %
204 16-12-2019 09:52:17 9.8 C 76 %
205 16-12-2019 10:02:18 9.8 C 76 %
206 16-12-2019 10:12:18 9.7 C 76 %
207 16-12-2019 10:22:17 9.8 C 76 %
208 16-12-2019 10:32:17 9.8 C 76 %
209 16-12-2019 10:42:17 9.8 C 76 %
210 16-12-2019 10:52:17 9.8 C 76 %
211 16-12-2019 11:02:17 9.8 C 76 %
212 16-12-2019 11:12:17 9.8 C 76 %
213 16-12-2019 11:22:17 9.8 C 76 %
214 16-12-2019 11:32:18 9.8 C 76 %
215 16-12-2019 11:42:18 9.8 C 76 %
216 16-12-2019 11:52:17 9.8 C 76 %
217 16-12-2019 12:02:17 9.8 C 76 %
218 16-12-2019 12:12:17 9.8 C 76 %
219 16-12-2019 12:22:17 9.8 C 76 %
220 16-12-2019 12:32:17 9.9 C 76 %
221 16-12-2019 12:42:17 9.9 C 76 %
222 16-12-2019 12:52:17 9.8 C 76 %
223 16-12-2019 13:02:17 9.9 C 76 %
224 16-12-2019 13:12:17 9.9 C 76 %
225 16-12-2019 13:22:17 9.9 C 76 %
Sensor: Nr:Datum:Temp:Feuchte:
G-T/H 226 16-12-2019 13:32:17 9.9 C 76 %
227 16-12-2019 13:42:17 9.9 C 76 %
228 16-12-2019 13:52:18 9.9 C 76 %
229 16-12-2019 14:02:17 10 C 75 %
230 16-12-2019 14:12:17 9.9 C 76 %
231 16-12-2019 14:22:17 10 C 75 %
232 16-12-2019 14:32:17 10 C 75 %
233 16-12-2019 14:42:17 10 C 75 %
234 16-12-2019 14:52:18 10 C 75 %
235 16-12-2019 15:02:17 10 C 75 %
236 16-12-2019 15:12:17 10 C 75 %
237 16-12-2019 15:22:17 10 C 75 %
238 16-12-2019 15:32:18 10 C 75 %
239 16-12-2019 15:42:18 10 C 75 %
240 16-12-2019 15:52:17 10.1 C 75 %
241 16-12-2019 16:02:17 10.1 C 75 %
242 16-12-2019 16:12:17 10.1 C 75 %
243 16-12-2019 16:22:17 10.1 C 75 %
244 16-12-2019 16:32:18 10.1 C 75 %
245 16-12-2019 16:42:18 10.1 C 75 %
246 16-12-2019 16:52:17 10.1 C 75 %
247 16-12-2019 17:02:17 10.1 C 75 %
248 16-12-2019 17:12:17 10.1 C 75 %
249 16-12-2019 17:22:17 10.1 C 75 %
250 16-12-2019 17:32:17 10.1 C 75 %
Sensor: Nr:Datum:Temp:Feuchte:
G-T/H 251 16-12-2019 17:42:17 10.1 C 75 %
252 16-12-2019 17:52:17 10.1 C 75 %
253 16-12-2019 18:02:17 10.1 C 75 %
254 16-12-2019 18:12:17 10.1 C 75 %
255 16-12-2019 18:22:17 10.1 C 75 %
256 16-12-2019 18:32:17 10.1 C 75 %
257 16-12-2019 18:42:17 10.2 C 75 %
258 16-12-2019 18:52:17 10.2 C 75 %
259 16-12-2019 19:02:18 10.2 C 75 %
260 16-12-2019 19:12:18 10.2 C 75 %
261 16-12-2019 19:22:17 10.2 C 75 %
262 16-12-2019 19:32:17 10.2 C 75 %
263 16-12-2019 19:42:17 10.2 C 75 %
264 16-12-2019 19:52:18 10.2 C 75 %
265 16-12-2019 20:02:17 10.2 C 75 %
266 16-12-2019 20:12:17 10.2 C 75 %
267 16-12-2019 20:22:17 10.2 C 75 %
268 16-12-2019 20:32:17 10.2 C 75 %
269 16-12-2019 20:42:17 10.2 C 75 %
270 16-12-2019 20:52:17 10.2 C 75 %
271 16-12-2019 21:02:17 10.2 C 75 %
272 16-12-2019 21:12:17 10.2 C 75 %
273 16-12-2019 21:22:17 10.2 C 75 %
274 16-12-2019 21:32:17 10.2 C 75 %
275 16-12-2019 21:42:17 10.3 C 75 %
Sensor: Nr:Datum:Temp:Feuchte:
G-T/H 276 16-12-2019 21:52:17 10.2 C 75 %
277 16-12-2019 22:02:17 10.2 C 75 %
278 16-12-2019 22:12:17 10.2 C 75 %
279 16-12-2019 22:22:17 10.2 C 75 %
280 16-12-2019 22:32:17 10.3 C 75 %
281 16-12-2019 22:42:17 10.2 C 75 %
282 16-12-2019 22:52:18 10.2 C 75 %
283 16-12-2019 23:02:17 10.2 C 75 %
284 16-12-2019 23:12:17 10.2 C 75 %
285 16-12-2019 23:22:17 10.2 C 75 %
286 16-12-2019 23:32:17 10.2 C 75 %
287 16-12-2019 23:42:17 10.2 C 75 %
288 16-12-2019 23:52:18 10.2 C 75 %
289 17-12-2019 00:02:17 10.2 C 75 %
290 17-12-2019 00:12:17 10.2 C 75 %
291 17-12-2019 00:22:17 10.3 C 75 %
292 17-12-2019 00:32:18 10.2 C 75 %
293 17-12-2019 00:42:18 10.3 C 75 %
294 17-12-2019 00:52:17 10.2 C 75 %
295 17-12-2019 01:02:17 10.2 C 75 %
296 17-12-2019 01:12:17 10.2 C 75 %
297 17-12-2019 01:22:17 10.3 C 75 %
298 17-12-2019 01:32:17 10.2 C 75 %
299 17-12-2019 01:42:17 10.2 C 75 %
300 17-12-2019 01:52:17 10.3 C 75 %
Sensor: Nr:Datum:Temp:Feuchte:
G-T/H 301 17-12-2019 02:02:18 10.2 C 75 %
302 17-12-2019 02:12:18 10.3 C 75 %
303 17-12-2019 02:22:17 10.3 C 75 %
304 17-12-2019 02:32:17 10.2 C 75 %
305 17-12-2019 02:42:17 10.2 C 75 %
306 17-12-2019 02:52:18 10.3 C 75 %
307 17-12-2019 03:02:17 10.2 C 75 %
308 17-12-2019 03:12:17 10.2 C 75 %
309 17-12-2019 03:22:17 10.2 C 75 %
310 17-12-2019 03:32:17 10.3 C 75 %
311 17-12-2019 03:42:17 10.2 C 75 %
312 17-12-2019 03:52:18 10.3 C 75 %
313 17-12-2019 04:02:17 10.3 C 75 %
314 17-12-2019 04:12:17 10.3 C 75 %
315 17-12-2019 04:22:17 10.2 C 75 %
316 17-12-2019 04:32:17 10.3 C 75 %
317 17-12-2019 04:42:17 10.3 C 75 %
318 17-12-2019 04:52:18 10.2 C 75 %
319 17-12-2019 05:02:17 10.3 C 75 %
320 17-12-2019 05:12:17 10.2 C 75 %
321 17-12-2019 05:22:17 10.3 C 75 %
322 17-12-2019 05:32:17 10.2 C 75 %
323 17-12-2019 05:42:17 10.3 C 75 %
324 17-12-2019 05:52:17 10.3 C 75 %
325 17-12-2019 06:02:17 10.3 C 75 %
Sensor: Nr:Datum:Temp:Feuchte:
G-T/H 326 17-12-2019 06:12:17 10.2 C 75 %
327 17-12-2019 06:22:18 10.3 C 75 %
328 17-12-2019 06:32:17 10.3 C 75 %
329 17-12-2019 06:42:17 10.2 C 75 %
330 17-12-2019 06:52:17 10.3 C 75 %
331 17-12-2019 07:02:17 10.3 C 75 %
332 17-12-2019 07:12:17 10.3 C 75 %
333 17-12-2019 07:22:17 10.3 C 75 %
334 17-12-2019 07:32:18 10.3 C 75 %
335 17-12-2019 07:42:18 10.3 C 75 %
336 17-12-2019 07:52:17 10.2 C 75 %
337 17-12-2019 08:02:17 10.3 C 75 %
338 17-12-2019 08:12:17 10.3 C 75 %
339 17-12-2019 08:22:17 10.2 C 75 %
340 17-12-2019 08:32:17 10.3 C 75 %
341 17-12-2019 08:42:18 10.3 C 75 %
342 17-12-2019 08:52:17 10.3 C 75 %
343 17-12-2019 09:02:17 10.3 C 75 %
344 17-12-2019 09:12:17 10.3 C 75 %
345 17-12-2019 09:22:18 10.3 C 75 %
346 17-12-2019 09:32:17 10.3 C 75 %
347 17-12-2019 09:42:17 10.3 C 75 %
348 17-12-2019 09:52:17 10.3 C 75 %
349 17-12-2019 10:02:18 10.3 C 75 %
350 17-12-2019 10:12:18 10.2 C 75 %
Sensor: Nr:Datum:Temp:Feuchte:
G-T/H 351 17-12-2019 10:22:17 10.3 C 75 %
352 17-12-2019 10:32:17 10.3 C 75 %
353 17-12-2019 10:42:17 10.2 C 75 %
354 17-12-2019 10:52:17 10.3 C 75 %
355 17-12-2019 11:02:17 10.3 C 75 %
356 17-12-2019 11:12:17 10.3 C 75 %
357 17-12-2019 11:22:17 10.3 C 75 %
358 17-12-2019 11:32:17 10.3 C 75 %
359 17-12-2019 11:42:17 10.3 C 75 %
360 17-12-2019 11:52:17 10.3 C 75 %
361 17-12-2019 12:02:17 10.3 C 75 %
362 17-12-2019 12:12:17 10.3 C 75 %
363 17-12-2019 12:22:17 10.3 C 75 %
364 17-12-2019 12:32:17 10.3 C 75 %
365 17-12-2019 12:42:17 10.3 C 75 %
366 17-12-2019 12:52:17 10.3 C 75 %
367 17-12-2019 13:02:17 10.3 C 75 %
368 17-12-2019 13:12:17 10.3 C 75 %
369 17-12-2019 13:22:17 10.3 C 76 %
370 17-12-2019 13:32:17 10.3 C 76 %
371 17-12-2019 13:42:17 10.3 C 76 %
372 17-12-2019 13:52:18 10.3 C 76 %
373 17-12-2019 14:02:17 10.3 C 76 %
374 17-12-2019 14:12:17 10.3 C 76 %
375 17-12-2019 14:22:17 10.3 C 76 %
Sensor: Nr:Datum:Temp:Feuchte:
G-T/H 376 17-12-2019 14:32:17 10.4 C 76 %
377 17-12-2019 14:42:17 10.4 C 76 %
378 17-12-2019 14:52:17 10.4 C 76 %
379 17-12-2019 15:02:17 10.4 C 76 %
380 17-12-2019 15:12:17 10.4 C 76 %
381 17-12-2019 15:22:17 10.4 C 76 %
382 17-12-2019 15:32:17 10.4 C 76 %
383 17-12-2019 15:42:17 10.4 C 76 %
384 17-12-2019 15:52:18 10.4 C 76 %
385 17-12-2019 16:02:17 10.4 C 76 %
386 17-12-2019 16:12:17 10.4 C 76 %
387 17-12-2019 16:22:17 10.4 C 76 %
388 17-12-2019 16:32:18 10.4 C 76 %
389 17-12-2019 16:42:18 10.4 C 76 %
390 17-12-2019 16:52:17 10.4 C 76 %
391 17-12-2019 17:02:17 10.4 C 76 %
392 17-12-2019 17:12:18 10.4 C 76 %
393 17-12-2019 17:22:17 10.4 C 76 %
394 17-12-2019 17:32:18 10.4 C 76 %
395 17-12-2019 17:42:18 10.5 C 76 %
396 17-12-2019 17:52:17 10.5 C 76 %
397 17-12-2019 18:02:17 10.5 C 76 %
398 17-12-2019 18:12:17 10.5 C 76 %
399 17-12-2019 18:22:17 10.5 C 76 %
400 17-12-2019 18:32:17 10.5 C 76 %
Sensor: Nr:Datum:Temp:Feuchte:
G-T/H 401 17-12-2019 18:42:17 10.8 C 76 %
402 17-12-2019 18:52:17 10.9 C 76 %
403 17-12-2019 19:02:17 11 C 76 %
404 17-12-2019 19:12:17 11.1 C 76 %
405 17-12-2019 19:22:17 11 C 75 %
406 17-12-2019 19:32:18 11 C 75 %
407 17-12-2019 19:42:18 10.9 C 76 %
408 17-12-2019 19:52:17 10.9 C 76 %
409 17-12-2019 20:02:18 10.8 C 76 %
410 17-12-2019 20:12:18 10.9 C 76 %
411 17-12-2019 20:22:17 10.8 C 76 %
412 17-12-2019 20:32:17 10.8 C 76 %
413 17-12-2019 20:42:17 10.8 C 76 %
414 17-12-2019 20:52:17 10.8 C 76 %
415 17-12-2019 21:02:17 10.8 C 76 %
416 17-12-2019 21:12:17 10.8 C 76 %
417 17-12-2019 21:22:17 10.8 C 76 %
418 17-12-2019 21:32:17 10.8 C 76 %
419 17-12-2019 21:42:17 10.8 C 76 %
420 17-12-2019 21:52:17 10.9 C 76 %
421 17-12-2019 22:02:17 10.8 C 76 %
422 17-12-2019 22:12:17 10.9 C 76 %
423 17-12-2019 22:22:17 10.9 C 76 %
424 17-12-2019 22:32:17 10.9 C 76 %
425 17-12-2019 22:42:17 10.9 C 76 %
Sensor: Nr:Datum:Temp:Feuchte:
G-T/H 426 17-12-2019 22:52:17 10.9 C 76 %
427 17-12-2019 23:02:17 10.9 C 76 %
428 17-12-2019 23:12:17 10.9 C 77 %
429 17-12-2019 23:22:17 10.9 C 77 %
430 17-12-2019 23:32:17 10.9 C 77 %
431 17-12-2019 23:42:17 11 C 76 %
432 17-12-2019 23:52:17 10.9 C 77 %
433 18-12-2019 00:02:17 11 C 76 %
434 18-12-2019 00:12:17 11 C 76 %
435 18-12-2019 00:22:17 11 C 76 %
436 18-12-2019 00:32:18 11 C 76 %
437 18-12-2019 00:42:18 11 C 76 %
438 18-12-2019 00:52:17 11 C 76 %
439 18-12-2019 01:02:17 11 C 76 %
440 18-12-2019 01:12:17 11 C 76 %
441 18-12-2019 01:22:17 11 C 76 %
442 18-12-2019 01:32:18 11 C 76 %
443 18-12-2019 01:42:18 11 C 76 %
444 18-12-2019 01:52:17 11 C 76 %
445 18-12-2019 02:02:17 11 C 76 %
446 18-12-2019 02:12:17 11 C 76 %
447 18-12-2019 02:22:17 11.1 C 76 %
448 18-12-2019 02:32:17 11 C 76 %
449 18-12-2019 02:42:18 11 C 76 %
450 18-12-2019 02:52:17 11.1 C 76 %
Sensor: Nr:Datum:Temp:Feuchte:
G-T/H 451 18-12-2019 03:02:17 11 C 76 %
452 18-12-2019 03:12:17 11.1 C 76 %
453 18-12-2019 03:22:18 11.1 C 76 %
454 18-12-2019 03:32:17 11.1 C 76 %
455 18-12-2019 03:42:17 11.1 C 76 %
456 18-12-2019 03:52:18 11.1 C 76 %
457 18-12-2019 04:02:18 11.1 C 76 %
458 18-12-2019 04:12:18 11.1 C 76 %
459 18-12-2019 04:22:17 11.1 C 76 %
460 18-12-2019 04:32:18 11.1 C 76 %
461 18-12-2019 04:42:18 11.1 C 76 %
462 18-12-2019 04:52:17 11.1 C 76 %
463 18-12-2019 05:02:18 11.1 C 76 %
464 18-12-2019 05:12:18 11.1 C 76 %
465 18-12-2019 05:22:17 11.1 C 76 %
466 18-12-2019 05:32:17 11.1 C 76 %
467 18-12-2019 05:42:17 11.1 C 76 %
468 18-12-2019 05:52:17 11.1 C 76 %
469 18-12-2019 06:02:18 11.1 C 76 %
470 18-12-2019 06:12:18 11.1 C 76 %
471 18-12-2019 06:22:17 11.1 C 76 %
472 18-12-2019 06:32:18 11.1 C 76 %
473 18-12-2019 06:42:18 11.1 C 76 %
474 18-12-2019 06:52:17 11.1 C 76 %
475 18-12-2019 07:02:17 11.1 C 76 %
Sensor: Nr:Datum:Temp:Feuchte:
G-T/H 476 18-12-2019 07:12:17 11.1 C 76 %
477 18-12-2019 07:22:17 11.1 C 76 %
478 18-12-2019 07:32:17 11.1 C 76 %
479 18-12-2019 07:42:17 11.1 C 76 %
480 18-12-2019 07:52:17 11.1 C 76 %
481 18-12-2019 08:02:17 11.1 C 76 %
482 18-12-2019 08:12:17 11.1 C 76 %
483 18-12-2019 08:22:17 11.1 C 76 %
484 18-12-2019 08:32:17 11.1 C 76 %
485 18-12-2019 08:42:17 11.1 C 76 %
486 18-12-2019 08:52:17 11.1 C 76 %
487 18-12-2019 09:02:17 11.1 C 76 %
488 18-12-2019 09:12:17 11.1 C 76 %
489 18-12-2019 09:22:17 11.1 C 76 %
490 18-12-2019 09:32:17 11.1 C 76 %
491 18-12-2019 09:42:17 11.1 C 76 %
492 18-12-2019 09:52:17 11.1 C 76 %
493 18-12-2019 10:02:17 11.1 C 76 %
494 18-12-2019 10:12:18 11.1 C 76 %
495 18-12-2019 10:22:17 11.1 C 76 %
496 18-12-2019 10:32:17 11.1 C 76 %
497 18-12-2019 10:42:17 11.1 C 76 %
498 18-12-2019 10:52:17 11.1 C 76 %
499 18-12-2019 11:02:17 11.1 C 76 %
500 18-12-2019 11:12:17 11.1 C 76 %
Sensor: Nr:Datum:Temp:Feuchte:
G-T/H 501 18-12-2019 11:22:17 11.1 C 76 %
502 18-12-2019 11:32:18 11 C 76 %
503 18-12-2019 11:42:18 11.1 C 76 %
504 18-12-2019 11:52:17 11 C 76 %
505 18-12-2019 12:02:17 11.1 C 76 %
506 18-12-2019 12:12:17 11.1 C 76 %
507 18-12-2019 12:22:17 11.1 C 76 %